<?xml version="1.0" encoding="UTF-8" standalone="no" ?>
<gpx xmlns="http://www.topografix.com/GPX/1/1" xmlns:xsi="http://www.w3.org/2001/XMLSchema-instance" xsi:schemaLocation="http://www.topografix.com/GPX/1/1 http://www.topografix.com/GPX/1/1/gpx.xsd" version="1.1" creator="VisuGPX - https://www.visugpx.com">
  <metadata>
    <name>52km Grangeoise 2009</name>
    <desc><![CDATA[Parcours 52km de la randonnée VTT des Granges-le-Roi (91) du 26/10/09]]></desc>
  </metadata>
  <trk>
    <name><![CDATA[ACTIVE LOG 003]]></name>
    <trkseg>
      <trkpt lat="48.5015" lon="2.01911">
        <ele>152</ele>
        <time>2009-10-25T07:44:17Z</time>
      </trkpt>
      <trkpt lat="48.50149" lon="2.01911">
        <ele>152</ele>
        <time>2009-10-25T07:46:15Z</time>
      </trkpt>
      <trkpt lat="48.50147" lon="2.01902">
        <ele>152</ele>
        <time>2009-10-25T07:46:18Z</time>
      </trkpt>
      <trkpt lat="48.5014" lon="2.019">
        <ele>152</ele>
        <time>2009-10-25T07:46:27Z</time>
      </trkpt>
      <trkpt lat="48.50143" lon="2.01916">
        <ele>152</ele>
        <time>2009-10-25T07:46:33Z</time>
      </trkpt>
      <trkpt lat="48.50149" lon="2.01933">
        <ele>152</ele>
        <time>2009-10-25T07:46:46Z</time>
      </trkpt>
      <trkpt lat="48.50151" lon="2.01936">
        <ele>152</ele>
        <time>2009-10-25T07:48:48Z</time>
      </trkpt>
      <trkpt lat="48.50153" lon="2.01945">
        <ele>152</ele>
        <time>2009-10-25T07:48:52Z</time>
      </trkpt>
      <trkpt lat="48.50144" lon="2.01941">
        <ele>152</ele>
        <time>2009-10-25T07:48:57Z</time>
      </trkpt>
      <trkpt lat="48.50112" lon="2.01891">
        <ele>152</ele>
        <time>2009-10-25T07:49:12Z</time>
      </trkpt>
      <trkpt lat="48.50097" lon="2.01845">
        <ele>152</ele>
        <time>2009-10-25T07:49:24Z</time>
      </trkpt>
      <trkpt lat="48.5007" lon="2.01781">
        <ele>152</ele>
        <time>2009-10-25T07:49:37Z</time>
      </trkpt>
      <trkpt lat="48.50023" lon="2.01703">
        <ele>151</ele>
        <time>2009-10-25T07:49:52Z</time>
      </trkpt>
      <trkpt lat="48.49978" lon="2.01635">
        <ele>151</ele>
        <time>2009-10-25T07:50:04Z</time>
      </trkpt>
      <trkpt lat="48.49968" lon="2.01588">
        <ele>151</ele>
        <time>2009-10-25T07:50:11Z</time>
      </trkpt>
      <trkpt lat="48.49961" lon="2.01554">
        <ele>151</ele>
        <time>2009-10-25T07:50:17Z</time>
      </trkpt>
      <trkpt lat="48.499" lon="2.01482">
        <ele>150</ele>
        <time>2009-10-25T07:50:30Z</time>
      </trkpt>
      <trkpt lat="48.49885" lon="2.0147">
        <ele>150</ele>
        <time>2009-10-25T07:50:33Z</time>
      </trkpt>
      <trkpt lat="48.49877" lon="2.01436">
        <ele>150</ele>
        <time>2009-10-25T07:50:38Z</time>
      </trkpt>
      <trkpt lat="48.4988" lon="2.01412">
        <ele>150</ele>
        <time>2009-10-25T07:50:41Z</time>
      </trkpt>
      <trkpt lat="48.49871" lon="2.01317">
        <ele>150</ele>
        <time>2009-10-25T07:50:53Z</time>
      </trkpt>
      <trkpt lat="48.49841" lon="2.01271">
        <ele>150</ele>
        <time>2009-10-25T07:51:02Z</time>
      </trkpt>
      <trkpt lat="48.4984" lon="2.01262">
        <ele>150</ele>
        <time>2009-10-25T07:51:03Z</time>
      </trkpt>
      <trkpt lat="48.49838" lon="2.01242">
        <ele>150</ele>
        <time>2009-10-25T07:51:05Z</time>
      </trkpt>
      <trkpt lat="48.49837" lon="2.01223">
        <ele>150</ele>
        <time>2009-10-25T07:51:07Z</time>
      </trkpt>
      <trkpt lat="48.49833" lon="2.01194">
        <ele>149</ele>
        <time>2009-10-25T07:51:10Z</time>
      </trkpt>
      <trkpt lat="48.49833" lon="2.01175">
        <ele>148</ele>
        <time>2009-10-25T07:51:12Z</time>
      </trkpt>
      <trkpt lat="48.49833" lon="2.01138">
        <ele>147</ele>
        <time>2009-10-25T07:51:16Z</time>
      </trkpt>
      <trkpt lat="48.49839" lon="2.01106">
        <ele>146</ele>
        <time>2009-10-25T07:51:20Z</time>
      </trkpt>
      <trkpt lat="48.49844" lon="2.01045">
        <ele>145</ele>
        <time>2009-10-25T07:51:29Z</time>
      </trkpt>
      <trkpt lat="48.49854" lon="2.01041">
        <ele>145</ele>
        <time>2009-10-25T07:51:33Z</time>
      </trkpt>
      <trkpt lat="48.49928" lon="2.01076">
        <ele>144</ele>
        <time>2009-10-25T07:51:51Z</time>
      </trkpt>
      <trkpt lat="48.49933" lon="2.01077">
        <ele>144</ele>
        <time>2009-10-25T07:51:52Z</time>
      </trkpt>
      <trkpt lat="48.4995" lon="2.01081">
        <ele>144</ele>
        <time>2009-10-25T07:51:55Z</time>
      </trkpt>
      <trkpt lat="48.49966" lon="2.01089">
        <ele>144</ele>
        <time>2009-10-25T07:51:58Z</time>
      </trkpt>
      <trkpt lat="48.50031" lon="2.01122">
        <ele>143</ele>
        <time>2009-10-25T07:52:10Z</time>
      </trkpt>
      <trkpt lat="48.50113" lon="2.01162">
        <ele>143</ele>
        <time>2009-10-25T07:52:24Z</time>
      </trkpt>
      <trkpt lat="48.5018" lon="2.01188">
        <ele>145</ele>
        <time>2009-10-25T07:52:36Z</time>
      </trkpt>
      <trkpt lat="48.50186" lon="2.01189">
        <ele>145</ele>
        <time>2009-10-25T07:52:37Z</time>
      </trkpt>
      <trkpt lat="48.50201" lon="2.01198">
        <ele>146</ele>
        <time>2009-10-25T07:52:40Z</time>
      </trkpt>
      <trkpt lat="48.50218" lon="2.01214">
        <ele>146</ele>
        <time>2009-10-25T07:52:45Z</time>
      </trkpt>
      <trkpt lat="48.50265" lon="2.01246">
        <ele>147</ele>
        <time>2009-10-25T07:52:52Z</time>
      </trkpt>
      <trkpt lat="48.50294" lon="2.01296">
        <ele>143</ele>
        <time>2009-10-25T07:53:00Z</time>
      </trkpt>
      <trkpt lat="48.50315" lon="2.01325">
        <ele>141</ele>
        <time>2009-10-25T07:53:05Z</time>
      </trkpt>
      <trkpt lat="48.50323" lon="2.01359">
        <ele>139</ele>
        <time>2009-10-25T07:53:12Z</time>
      </trkpt>
      <trkpt lat="48.50333" lon="2.01386">
        <ele>138</ele>
        <time>2009-10-25T07:53:16Z</time>
      </trkpt>
      <trkpt lat="48.50341" lon="2.01427">
        <ele>136</ele>
        <time>2009-10-25T07:53:25Z</time>
      </trkpt>
      <trkpt lat="48.50367" lon="2.01447">
        <ele>137</ele>
        <time>2009-10-25T07:53:34Z</time>
      </trkpt>
      <trkpt lat="48.50396" lon="2.01431">
        <ele>138</ele>
        <time>2009-10-25T07:53:45Z</time>
      </trkpt>
      <trkpt lat="48.50417" lon="2.01401">
        <ele>143</ele>
        <time>2009-10-25T07:53:58Z</time>
      </trkpt>
      <trkpt lat="48.50436" lon="2.01367">
        <ele>146</ele>
        <time>2009-10-25T07:54:10Z</time>
      </trkpt>
      <trkpt lat="48.50446" lon="2.01331">
        <ele>149</ele>
        <time>2009-10-25T07:54:22Z</time>
      </trkpt>
      <trkpt lat="48.50456" lon="2.01305">
        <ele>150</ele>
        <time>2009-10-25T07:54:29Z</time>
      </trkpt>
      <trkpt lat="48.50451" lon="2.01292">
        <ele>150</ele>
        <time>2009-10-25T07:54:36Z</time>
      </trkpt>
      <trkpt lat="48.50427" lon="2.01262">
        <ele>150</ele>
        <time>2009-10-25T07:54:43Z</time>
      </trkpt>
      <trkpt lat="48.50429" lon="2.01242">
        <ele>151</ele>
        <time>2009-10-25T07:54:48Z</time>
      </trkpt>
      <trkpt lat="48.50449" lon="2.01187">
        <ele>151</ele>
        <time>2009-10-25T07:55:01Z</time>
      </trkpt>
      <trkpt lat="48.50465" lon="2.01161">
        <ele>151</ele>
        <time>2009-10-25T07:55:07Z</time>
      </trkpt>
      <trkpt lat="48.5047" lon="2.01137">
        <ele>151</ele>
        <time>2009-10-25T07:55:13Z</time>
      </trkpt>
      <trkpt lat="48.50467" lon="2.01112">
        <ele>150</ele>
        <time>2009-10-25T07:55:17Z</time>
      </trkpt>
      <trkpt lat="48.50477" lon="2.01034">
        <ele>150</ele>
        <time>2009-10-25T07:55:34Z</time>
      </trkpt>
      <trkpt lat="48.50486" lon="2.00975">
        <ele>150</ele>
        <time>2009-10-25T07:55:47Z</time>
      </trkpt>
      <trkpt lat="48.50495" lon="2.00907">
        <ele>151</ele>
        <time>2009-10-25T07:56:03Z</time>
      </trkpt>
      <trkpt lat="48.50508" lon="2.00829">
        <ele>151</ele>
        <time>2009-10-25T07:56:20Z</time>
      </trkpt>
      <trkpt lat="48.5052" lon="2.00743">
        <ele>153</ele>
        <time>2009-10-25T07:56:36Z</time>
      </trkpt>
      <trkpt lat="48.50531" lon="2.00676">
        <ele>153</ele>
        <time>2009-10-25T07:56:48Z</time>
      </trkpt>
      <trkpt lat="48.50544" lon="2.00579">
        <ele>154</ele>
        <time>2009-10-25T07:57:05Z</time>
      </trkpt>
      <trkpt lat="48.50556" lon="2.00494">
        <ele>154</ele>
        <time>2009-10-25T07:57:19Z</time>
      </trkpt>
      <trkpt lat="48.50557" lon="2.00488">
        <ele>154</ele>
        <time>2009-10-25T07:57:20Z</time>
      </trkpt>
      <trkpt lat="48.50566" lon="2.00425">
        <ele>154</ele>
        <time>2009-10-25T07:57:30Z</time>
      </trkpt>
      <trkpt lat="48.50579" lon="2.00363">
        <ele>156</ele>
        <time>2009-10-25T07:57:39Z</time>
      </trkpt>
      <trkpt lat="48.50596" lon="2.00296">
        <ele>160</ele>
        <time>2009-10-25T07:57:49Z</time>
      </trkpt>
      <trkpt lat="48.50603" lon="2.0027">
        <ele>160</ele>
        <time>2009-10-25T07:57:53Z</time>
      </trkpt>
      <trkpt lat="48.50605" lon="2.00249">
        <ele>158</ele>
        <time>2009-10-25T07:57:59Z</time>
      </trkpt>
      <trkpt lat="48.50606" lon="2.0024">
        <ele>158</ele>
        <time>2009-10-25T07:58:02Z</time>
      </trkpt>
      <trkpt lat="48.50614" lon="2.00227">
        <ele>157</ele>
        <time>2009-10-25T07:58:06Z</time>
      </trkpt>
      <trkpt lat="48.50641" lon="2.00191">
        <ele>156</ele>
        <time>2009-10-25T07:58:18Z</time>
      </trkpt>
      <trkpt lat="48.5066" lon="2.00145">
        <ele>148</ele>
        <time>2009-10-25T07:58:29Z</time>
      </trkpt>
      <trkpt lat="48.50663" lon="2.00139">
        <ele>147</ele>
        <time>2009-10-25T07:58:30Z</time>
      </trkpt>
      <trkpt lat="48.50667" lon="2.0008">
        <ele>141</ele>
        <time>2009-10-25T07:58:37Z</time>
      </trkpt>
      <trkpt lat="48.50677" lon="2.00055">
        <ele>140</ele>
        <time>2009-10-25T07:58:39Z</time>
      </trkpt>
      <trkpt lat="48.50686" lon="2.0001">
        <ele>134</ele>
        <time>2009-10-25T07:58:43Z</time>
      </trkpt>
      <trkpt lat="48.50698" lon="1.9998">
        <ele>126</ele>
        <time>2009-10-25T07:58:47Z</time>
      </trkpt>
      <trkpt lat="48.50713" lon="1.99904">
        <ele>114</ele>
        <time>2009-10-25T07:58:55Z</time>
      </trkpt>
      <trkpt lat="48.50716" lon="1.99888">
        <ele>113</ele>
        <time>2009-10-25T07:58:57Z</time>
      </trkpt>
      <trkpt lat="48.50704" lon="1.99858">
        <ele>111</ele>
        <time>2009-10-25T07:59:04Z</time>
      </trkpt>
      <trkpt lat="48.50711" lon="1.99852">
        <ele>111</ele>
        <time>2009-10-25T07:59:12Z</time>
      </trkpt>
      <trkpt lat="48.50688" lon="1.99876">
        <ele>112</ele>
        <time>2009-10-25T07:59:23Z</time>
      </trkpt>
      <trkpt lat="48.50653" lon="1.99916">
        <ele>110</ele>
        <time>2009-10-25T07:59:36Z</time>
      </trkpt>
      <trkpt lat="48.50606" lon="1.99941">
        <ele>113</ele>
        <time>2009-10-25T07:59:46Z</time>
      </trkpt>
      <trkpt lat="48.50552" lon="1.99951">
        <ele>110</ele>
        <time>2009-10-25T07:59:56Z</time>
      </trkpt>
      <trkpt lat="48.5054" lon="1.99955">
        <ele>111</ele>
        <time>2009-10-25T07:59:58Z</time>
      </trkpt>
      <trkpt lat="48.50525" lon="1.99961">
        <ele>111</ele>
        <time>2009-10-25T08:00:01Z</time>
      </trkpt>
      <trkpt lat="48.50501" lon="1.99988">
        <ele>112</ele>
        <time>2009-10-25T08:00:07Z</time>
      </trkpt>
      <trkpt lat="48.50471" lon="2.00042">
        <ele>116</ele>
        <time>2009-10-25T08:00:18Z</time>
      </trkpt>
      <trkpt lat="48.5045" lon="2.0006">
        <ele>116</ele>
        <time>2009-10-25T08:00:23Z</time>
      </trkpt>
      <trkpt lat="48.50436" lon="2.00062">
        <ele>116</ele>
        <time>2009-10-25T08:00:25Z</time>
      </trkpt>
      <trkpt lat="48.50366" lon="2.00064">
        <ele>117</ele>
        <time>2009-10-25T08:00:37Z</time>
      </trkpt>
      <trkpt lat="48.50364" lon="2.00063">
        <ele>117</ele>
        <time>2009-10-25T08:00:38Z</time>
      </trkpt>
      <trkpt lat="48.5037" lon="2.0005">
        <ele>116</ele>
        <time>2009-10-25T08:00:43Z</time>
      </trkpt>
      <trkpt lat="48.5038" lon="2.00032">
        <ele>116</ele>
        <time>2009-10-25T08:00:48Z</time>
      </trkpt>
      <trkpt lat="48.50347" lon="1.99975">
        <ele>114</ele>
        <time>2009-10-25T08:00:57Z</time>
      </trkpt>
      <trkpt lat="48.50345" lon="1.9997">
        <ele>114</ele>
        <time>2009-10-25T08:00:58Z</time>
      </trkpt>
      <trkpt lat="48.50324" lon="1.99925">
        <ele>117</ele>
        <time>2009-10-25T08:01:07Z</time>
      </trkpt>
      <trkpt lat="48.50311" lon="1.99902">
        <ele>117</ele>
        <time>2009-10-25T08:01:12Z</time>
      </trkpt>
      <trkpt lat="48.50302" lon="1.99886">
        <ele>118</ele>
        <time>2009-10-25T08:01:16Z</time>
      </trkpt>
      <trkpt lat="48.50291" lon="1.99856">
        <ele>118</ele>
        <time>2009-10-25T08:01:22Z</time>
      </trkpt>
      <trkpt lat="48.50287" lon="1.99838">
        <ele>118</ele>
        <time>2009-10-25T08:01:26Z</time>
      </trkpt>
      <trkpt lat="48.50284" lon="1.99819">
        <ele>118</ele>
        <time>2009-10-25T08:01:31Z</time>
      </trkpt>
      <trkpt lat="48.50265" lon="1.99749">
        <ele>119</ele>
        <time>2009-10-25T08:01:40Z</time>
      </trkpt>
      <trkpt lat="48.50268" lon="1.99689">
        <ele>119</ele>
        <time>2009-10-25T08:01:46Z</time>
      </trkpt>
      <trkpt lat="48.50269" lon="1.99685">
        <ele>119</ele>
        <time>2009-10-25T08:01:47Z</time>
      </trkpt>
      <trkpt lat="48.50271" lon="1.99678">
        <ele>119</ele>
        <time>2009-10-25T08:01:49Z</time>
      </trkpt>
      <trkpt lat="48.50273" lon="1.99637">
        <ele>119</ele>
        <time>2009-10-25T08:01:56Z</time>
      </trkpt>
      <trkpt lat="48.50264" lon="1.99614">
        <ele>120</ele>
        <time>2009-10-25T08:02:00Z</time>
      </trkpt>
      <trkpt lat="48.50274" lon="1.99565">
        <ele>120</ele>
        <time>2009-10-25T08:02:05Z</time>
      </trkpt>
      <trkpt lat="48.50261" lon="1.99498">
        <ele>123</ele>
        <time>2009-10-25T08:02:15Z</time>
      </trkpt>
      <trkpt lat="48.50244" lon="1.99484">
        <ele>124</ele>
        <time>2009-10-25T08:02:20Z</time>
      </trkpt>
      <trkpt lat="48.50218" lon="1.99463">
        <ele>125</ele>
        <time>2009-10-25T08:02:27Z</time>
      </trkpt>
      <trkpt lat="48.50176" lon="1.99424">
        <ele>127</ele>
        <time>2009-10-25T08:02:38Z</time>
      </trkpt>
      <trkpt lat="48.50152" lon="1.994">
        <ele>129</ele>
        <time>2009-10-25T08:02:44Z</time>
      </trkpt>
      <trkpt lat="48.50129" lon="1.99374">
        <ele>130</ele>
        <time>2009-10-25T08:02:49Z</time>
      </trkpt>
      <trkpt lat="48.50078" lon="1.99367">
        <ele>128</ele>
        <time>2009-10-25T08:02:58Z</time>
      </trkpt>
      <trkpt lat="48.50064" lon="1.99363">
        <ele>128</ele>
        <time>2009-10-25T08:03:00Z</time>
      </trkpt>
      <trkpt lat="48.50047" lon="1.99366">
        <ele>127</ele>
        <time>2009-10-25T08:03:03Z</time>
      </trkpt>
      <trkpt lat="48.50015" lon="1.99345">
        <ele>127</ele>
        <time>2009-10-25T08:03:12Z</time>
      </trkpt>
      <trkpt lat="48.50008" lon="1.99338">
        <ele>127</ele>
        <time>2009-10-25T08:03:14Z</time>
      </trkpt>
      <trkpt lat="48.49958" lon="1.99312">
        <ele>129</ele>
        <time>2009-10-25T08:03:23Z</time>
      </trkpt>
      <trkpt lat="48.49921" lon="1.99292">
        <ele>129</ele>
        <time>2009-10-25T08:03:29Z</time>
      </trkpt>
      <trkpt lat="48.49884" lon="1.99252">
        <ele>133</ele>
        <time>2009-10-25T08:03:38Z</time>
      </trkpt>
      <trkpt lat="48.49854" lon="1.99222">
        <ele>133</ele>
        <time>2009-10-25T08:03:49Z</time>
      </trkpt>
      <trkpt lat="48.49838" lon="1.9921">
        <ele>132</ele>
        <time>2009-10-25T08:03:56Z</time>
      </trkpt>
      <trkpt lat="48.49804" lon="1.99206">
        <ele>139</ele>
        <time>2009-10-25T08:04:07Z</time>
      </trkpt>
      <trkpt lat="48.4978" lon="1.99203">
        <ele>141</ele>
        <time>2009-10-25T08:04:15Z</time>
      </trkpt>
      <trkpt lat="48.49755" lon="1.99207">
        <ele>142</ele>
        <time>2009-10-25T08:04:28Z</time>
      </trkpt>
      <trkpt lat="48.49731" lon="1.99207">
        <ele>150</ele>
        <time>2009-10-25T08:04:40Z</time>
      </trkpt>
      <trkpt lat="48.49719" lon="1.99206">
        <ele>150</ele>
        <time>2009-10-25T08:04:49Z</time>
      </trkpt>
      <trkpt lat="48.49701" lon="1.99203">
        <ele>151</ele>
        <time>2009-10-25T08:05:06Z</time>
      </trkpt>
      <trkpt lat="48.4967" lon="1.99187">
        <ele>153</ele>
        <time>2009-10-25T08:05:18Z</time>
      </trkpt>
      <trkpt lat="48.49663" lon="1.99187">
        <ele>156</ele>
        <time>2009-10-25T08:05:21Z</time>
      </trkpt>
      <trkpt lat="48.49655" lon="1.99197">
        <ele>156</ele>
        <time>2009-10-25T08:05:28Z</time>
      </trkpt>
      <trkpt lat="48.4964" lon="1.99211">
        <ele>155</ele>
        <time>2009-10-25T08:05:35Z</time>
      </trkpt>
      <trkpt lat="48.49627" lon="1.99221">
        <ele>155</ele>
        <time>2009-10-25T08:05:39Z</time>
      </trkpt>
      <trkpt lat="48.49614" lon="1.99193">
        <ele>156</ele>
        <time>2009-10-25T08:05:49Z</time>
      </trkpt>
      <trkpt lat="48.49611" lon="1.99189">
        <ele>156</ele>
        <time>2009-10-25T08:05:50Z</time>
      </trkpt>
      <trkpt lat="48.49587" lon="1.99137">
        <ele>158</ele>
        <time>2009-10-25T08:06:01Z</time>
      </trkpt>
      <trkpt lat="48.49586" lon="1.99126">
        <ele>158</ele>
        <time>2009-10-25T08:06:03Z</time>
      </trkpt>
      <trkpt lat="48.49569" lon="1.99059">
        <ele>159</ele>
        <time>2009-10-25T08:06:13Z</time>
      </trkpt>
      <trkpt lat="48.49557" lon="1.99018">
        <ele>159</ele>
        <time>2009-10-25T08:06:18Z</time>
      </trkpt>
      <trkpt lat="48.49543" lon="1.98966">
        <ele>159</ele>
        <time>2009-10-25T08:06:26Z</time>
      </trkpt>
      <trkpt lat="48.49537" lon="1.98953">
        <ele>159</ele>
        <time>2009-10-25T08:06:28Z</time>
      </trkpt>
      <trkpt lat="48.4951" lon="1.98902">
        <ele>158</ele>
        <time>2009-10-25T08:06:38Z</time>
      </trkpt>
      <trkpt lat="48.49491" lon="1.98854">
        <ele>157</ele>
        <time>2009-10-25T08:06:47Z</time>
      </trkpt>
      <trkpt lat="48.4949" lon="1.98849">
        <ele>157</ele>
        <time>2009-10-25T08:06:48Z</time>
      </trkpt>
      <trkpt lat="48.4948" lon="1.98839">
        <ele>157</ele>
        <time>2009-10-25T08:06:52Z</time>
      </trkpt>
      <trkpt lat="48.49461" lon="1.98812">
        <ele>153</ele>
        <time>2009-10-25T08:06:59Z</time>
      </trkpt>
      <trkpt lat="48.49428" lon="1.98759">
        <ele>151</ele>
        <time>2009-10-25T08:07:10Z</time>
      </trkpt>
      <trkpt lat="48.49423" lon="1.9875">
        <ele>149</ele>
        <time>2009-10-25T08:07:12Z</time>
      </trkpt>
      <trkpt lat="48.494" lon="1.98711">
        <ele>149</ele>
        <time>2009-10-25T08:07:19Z</time>
      </trkpt>
      <trkpt lat="48.49377" lon="1.98678">
        <ele>149</ele>
        <time>2009-10-25T08:07:25Z</time>
      </trkpt>
      <trkpt lat="48.49325" lon="1.986">
        <ele>148</ele>
        <time>2009-10-25T08:07:35Z</time>
      </trkpt>
      <trkpt lat="48.49297" lon="1.98556">
        <ele>147</ele>
        <time>2009-10-25T08:07:43Z</time>
      </trkpt>
      <trkpt lat="48.49293" lon="1.9855">
        <ele>147</ele>
        <time>2009-10-25T08:07:45Z</time>
      </trkpt>
      <trkpt lat="48.49306" lon="1.98527">
        <ele>147</ele>
        <time>2009-10-25T08:07:54Z</time>
      </trkpt>
      <trkpt lat="48.49305" lon="1.98508">
        <ele>147</ele>
        <time>2009-10-25T08:07:57Z</time>
      </trkpt>
      <trkpt lat="48.49313" lon="1.98497">
        <ele>145</ele>
        <time>2009-10-25T08:08:01Z</time>
      </trkpt>
      <trkpt lat="48.49341" lon="1.98489">
        <ele>144</ele>
        <time>2009-10-25T08:08:08Z</time>
      </trkpt>
      <trkpt lat="48.49351" lon="1.98495">
        <ele>144</ele>
        <time>2009-10-25T08:08:10Z</time>
      </trkpt>
      <trkpt lat="48.49389" lon="1.98515">
        <ele>143</ele>
        <time>2009-10-25T08:08:17Z</time>
      </trkpt>
      <trkpt lat="48.49399" lon="1.98519">
        <ele>143</ele>
        <time>2009-10-25T08:08:19Z</time>
      </trkpt>
      <trkpt lat="48.49438" lon="1.98537">
        <ele>139</ele>
        <time>2009-10-25T08:08:26Z</time>
      </trkpt>
      <trkpt lat="48.49471" lon="1.98564">
        <ele>137</ele>
        <time>2009-10-25T08:08:31Z</time>
      </trkpt>
      <trkpt lat="48.49483" lon="1.9858">
        <ele>135</ele>
        <time>2009-10-25T08:08:33Z</time>
      </trkpt>
      <trkpt lat="48.49488" lon="1.98596">
        <ele>137</ele>
        <time>2009-10-25T08:08:36Z</time>
      </trkpt>
      <trkpt lat="48.49554" lon="1.98638">
        <ele>134</ele>
        <time>2009-10-25T08:08:46Z</time>
      </trkpt>
      <trkpt lat="48.49561" lon="1.98634">
        <ele>134</ele>
        <time>2009-10-25T08:08:48Z</time>
      </trkpt>
      <trkpt lat="48.49571" lon="1.98612">
        <ele>133</ele>
        <time>2009-10-25T08:08:56Z</time>
      </trkpt>
      <trkpt lat="48.49591" lon="1.98602">
        <ele>132</ele>
        <time>2009-10-25T08:08:59Z</time>
      </trkpt>
      <trkpt lat="48.49622" lon="1.98571">
        <ele>131</ele>
        <time>2009-10-25T08:09:05Z</time>
      </trkpt>
      <trkpt lat="48.49673" lon="1.98528">
        <ele>134</ele>
        <time>2009-10-25T08:09:14Z</time>
      </trkpt>
      <trkpt lat="48.49701" lon="1.98499">
        <ele>137</ele>
        <time>2009-10-25T08:09:24Z</time>
      </trkpt>
      <trkpt lat="48.49714" lon="1.98483">
        <ele>138</ele>
        <time>2009-10-25T08:09:31Z</time>
      </trkpt>
      <trkpt lat="48.49723" lon="1.98473">
        <ele>138</ele>
        <time>2009-10-25T08:09:36Z</time>
      </trkpt>
      <trkpt lat="48.4974" lon="1.98443">
        <ele>140</ele>
        <time>2009-10-25T08:09:50Z</time>
      </trkpt>
      <trkpt lat="48.49762" lon="1.98428">
        <ele>146</ele>
        <time>2009-10-25T08:10:01Z</time>
      </trkpt>
      <trkpt lat="48.49781" lon="1.98409">
        <ele>147</ele>
        <time>2009-10-25T08:10:13Z</time>
      </trkpt>
      <trkpt lat="48.498" lon="1.98393">
        <ele>148</ele>
        <time>2009-10-25T08:10:24Z</time>
      </trkpt>
      <trkpt lat="48.49826" lon="1.98374">
        <ele>149</ele>
        <time>2009-10-25T08:10:35Z</time>
      </trkpt>
      <trkpt lat="48.49862" lon="1.9835">
        <ele>154</ele>
        <time>2009-10-25T08:10:48Z</time>
      </trkpt>
      <trkpt lat="48.49867" lon="1.9835">
        <ele>154</ele>
        <time>2009-10-25T08:10:50Z</time>
      </trkpt>
      <trkpt lat="48.49869" lon="1.98365">
        <ele>155</ele>
        <time>2009-10-25T08:10:55Z</time>
      </trkpt>
      <trkpt lat="48.49887" lon="1.98414">
        <ele>155</ele>
        <time>2009-10-25T08:11:04Z</time>
      </trkpt>
      <trkpt lat="48.49911" lon="1.98474">
        <ele>156</ele>
        <time>2009-10-25T08:11:14Z</time>
      </trkpt>
      <trkpt lat="48.49919" lon="1.98491">
        <ele>158</ele>
        <time>2009-10-25T08:11:16Z</time>
      </trkpt>
      <trkpt lat="48.49939" lon="1.98547">
        <ele>157</ele>
        <time>2009-10-25T08:11:26Z</time>
      </trkpt>
      <trkpt lat="48.49961" lon="1.98608">
        <ele>155</ele>
        <time>2009-10-25T08:11:38Z</time>
      </trkpt>
      <trkpt lat="48.49974" lon="1.98655">
        <ele>155</ele>
        <time>2009-10-25T08:11:47Z</time>
      </trkpt>
      <trkpt lat="48.49983" lon="1.98676">
        <ele>155</ele>
        <time>2009-10-25T08:11:51Z</time>
      </trkpt>
      <trkpt lat="48.50006" lon="1.9872">
        <ele>157</ele>
        <time>2009-10-25T08:11:58Z</time>
      </trkpt>
      <trkpt lat="48.50012" lon="1.9873">
        <ele>157</ele>
        <time>2009-10-25T08:12:00Z</time>
      </trkpt>
      <trkpt lat="48.5002" lon="1.98771">
        <ele>157</ele>
        <time>2009-10-25T08:12:07Z</time>
      </trkpt>
      <trkpt lat="48.50034" lon="1.98798">
        <ele>157</ele>
        <time>2009-10-25T08:12:12Z</time>
      </trkpt>
      <trkpt lat="48.50039" lon="1.98826">
        <ele>157</ele>
        <time>2009-10-25T08:12:17Z</time>
      </trkpt>
      <trkpt lat="48.50054" lon="1.98875">
        <ele>157</ele>
        <time>2009-10-25T08:12:26Z</time>
      </trkpt>
      <trkpt lat="48.50059" lon="1.98887">
        <ele>157</ele>
        <time>2009-10-25T08:12:28Z</time>
      </trkpt>
      <trkpt lat="48.50073" lon="1.98912">
        <ele>157</ele>
        <time>2009-10-25T08:12:30Z</time>
      </trkpt>
      <trkpt lat="48.50083" lon="1.98945">
        <ele>156</ele>
        <time>2009-10-25T08:12:34Z</time>
      </trkpt>
      <trkpt lat="48.50092" lon="1.98973">
        <ele>156</ele>
        <time>2009-10-25T08:12:38Z</time>
      </trkpt>
      <trkpt lat="48.50117" lon="1.99033">
        <ele>154</ele>
        <time>2009-10-25T08:12:47Z</time>
      </trkpt>
      <trkpt lat="48.5012" lon="1.99059">
        <ele>153</ele>
        <time>2009-10-25T08:12:54Z</time>
      </trkpt>
      <trkpt lat="48.50127" lon="1.99078">
        <ele>153</ele>
        <time>2009-10-25T08:12:57Z</time>
      </trkpt>
      <trkpt lat="48.50142" lon="1.99113">
        <ele>150</ele>
        <time>2009-10-25T08:13:00Z</time>
      </trkpt>
      <trkpt lat="48.5016" lon="1.99154">
        <ele>149</ele>
        <time>2009-10-25T08:13:04Z</time>
      </trkpt>
      <trkpt lat="48.50177" lon="1.99194">
        <ele>143</ele>
        <time>2009-10-25T08:13:08Z</time>
      </trkpt>
      <trkpt lat="48.50211" lon="1.99226">
        <ele>140</ele>
        <time>2009-10-25T08:13:15Z</time>
      </trkpt>
      <trkpt lat="48.50305" lon="1.99227">
        <ele>132</ele>
        <time>2009-10-25T08:13:25Z</time>
      </trkpt>
      <trkpt lat="48.50423" lon="1.99214">
        <ele>125</ele>
        <time>2009-10-25T08:13:38Z</time>
      </trkpt>
      <trkpt lat="48.50466" lon="1.99207">
        <ele>125</ele>
        <time>2009-10-25T08:13:43Z</time>
      </trkpt>
      <trkpt lat="48.50488" lon="1.99173">
        <ele>126</ele>
        <time>2009-10-25T08:13:49Z</time>
      </trkpt>
      <trkpt lat="48.50495" lon="1.99151">
        <ele>129</ele>
        <time>2009-10-25T08:13:52Z</time>
      </trkpt>
      <trkpt lat="48.50506" lon="1.99134">
        <ele>129</ele>
        <time>2009-10-25T08:13:55Z</time>
      </trkpt>
      <trkpt lat="48.5052" lon="1.99114">
        <ele>130</ele>
        <time>2009-10-25T08:13:59Z</time>
      </trkpt>
      <trkpt lat="48.50536" lon="1.99099">
        <ele>130</ele>
        <time>2009-10-25T08:14:03Z</time>
      </trkpt>
      <trkpt lat="48.50573" lon="1.99085">
        <ele>129</ele>
        <time>2009-10-25T08:14:12Z</time>
      </trkpt>
      <trkpt lat="48.50578" lon="1.99084">
        <ele>129</ele>
        <time>2009-10-25T08:14:13Z</time>
      </trkpt>
      <trkpt lat="48.50595" lon="1.99079">
        <ele>129</ele>
        <time>2009-10-25T08:14:17Z</time>
      </trkpt>
      <trkpt lat="48.50603" lon="1.99078">
        <ele>129</ele>
        <time>2009-10-25T08:14:20Z</time>
      </trkpt>
      <trkpt lat="48.5061" lon="1.99094">
        <ele>127</ele>
        <time>2009-10-25T08:14:31Z</time>
      </trkpt>
      <trkpt lat="48.50618" lon="1.99105">
        <ele>127</ele>
        <time>2009-10-25T08:14:33Z</time>
      </trkpt>
      <trkpt lat="48.50649" lon="1.99137">
        <ele>126</ele>
        <time>2009-10-25T08:14:41Z</time>
      </trkpt>
      <trkpt lat="48.50733" lon="1.99129">
        <ele>127</ele>
        <time>2009-10-25T08:14:54Z</time>
      </trkpt>
      <trkpt lat="48.50773" lon="1.99148">
        <ele>129</ele>
        <time>2009-10-25T08:15:01Z</time>
      </trkpt>
      <trkpt lat="48.50854" lon="1.99239">
        <ele>124</ele>
        <time>2009-10-25T08:15:14Z</time>
      </trkpt>
      <trkpt lat="48.50967" lon="1.99325">
        <ele>119</ele>
        <time>2009-10-25T08:15:27Z</time>
      </trkpt>
      <trkpt lat="48.5104" lon="1.99386">
        <ele>116</ele>
        <time>2009-10-25T08:15:37Z</time>
      </trkpt>
      <trkpt lat="48.51042" lon="1.99388">
        <ele>116</ele>
        <time>2009-10-25T08:15:38Z</time>
      </trkpt>
      <trkpt lat="48.51052" lon="1.99368">
        <ele>117</ele>
        <time>2009-10-25T08:15:47Z</time>
      </trkpt>
      <trkpt lat="48.51056" lon="1.9936">
        <ele>118</ele>
        <time>2009-10-25T08:15:49Z</time>
      </trkpt>
      <trkpt lat="48.51079" lon="1.9933">
        <ele>123</ele>
        <time>2009-10-25T08:15:56Z</time>
      </trkpt>
      <trkpt lat="48.51069" lon="1.9929">
        <ele>124</ele>
        <time>2009-10-25T08:16:06Z</time>
      </trkpt>
      <trkpt lat="48.51035" lon="1.9925">
        <ele>125</ele>
        <time>2009-10-25T08:16:17Z</time>
      </trkpt>
      <trkpt lat="48.51032" lon="1.99244">
        <ele>128</ele>
        <time>2009-10-25T08:16:19Z</time>
      </trkpt>
      <trkpt lat="48.51034" lon="1.99208">
        <ele>130</ele>
        <time>2009-10-25T08:16:29Z</time>
      </trkpt>
      <trkpt lat="48.51035" lon="1.99195">
        <ele>130</ele>
        <time>2009-10-25T08:16:32Z</time>
      </trkpt>
      <trkpt lat="48.51016" lon="1.9916">
        <ele>135</ele>
        <time>2009-10-25T08:16:46Z</time>
      </trkpt>
      <trkpt lat="48.51" lon="1.99142">
        <ele>137</ele>
        <time>2009-10-25T08:16:51Z</time>
      </trkpt>
      <trkpt lat="48.5097" lon="1.99108">
        <ele>139</ele>
        <time>2009-10-25T08:17:06Z</time>
      </trkpt>
      <trkpt lat="48.50962" lon="1.99097">
        <ele>140</ele>
        <time>2009-10-25T08:17:11Z</time>
      </trkpt>
      <trkpt lat="48.50945" lon="1.99078">
        <ele>145</ele>
        <time>2009-10-25T08:17:24Z</time>
      </trkpt>
      <trkpt lat="48.50926" lon="1.99044">
        <ele>146</ele>
        <time>2009-10-25T08:17:36Z</time>
      </trkpt>
      <trkpt lat="48.50909" lon="1.99018">
        <ele>148</ele>
        <time>2009-10-25T08:17:45Z</time>
      </trkpt>
      <trkpt lat="48.50893" lon="1.98989">
        <ele>151</ele>
        <time>2009-10-25T08:17:55Z</time>
      </trkpt>
      <trkpt lat="48.50872" lon="1.98933">
        <ele>152</ele>
        <time>2009-10-25T08:18:08Z</time>
      </trkpt>
      <trkpt lat="48.50854" lon="1.98887">
        <ele>153</ele>
        <time>2009-10-25T08:18:18Z</time>
      </trkpt>
      <trkpt lat="48.50824" lon="1.98825">
        <ele>150</ele>
        <time>2009-10-25T08:18:27Z</time>
      </trkpt>
      <trkpt lat="48.50806" lon="1.98771">
        <ele>149</ele>
        <time>2009-10-25T08:18:37Z</time>
      </trkpt>
      <trkpt lat="48.50804" lon="1.98749">
        <ele>151</ele>
        <time>2009-10-25T08:18:41Z</time>
      </trkpt>
      <trkpt lat="48.50808" lon="1.98735">
        <ele>151</ele>
        <time>2009-10-25T08:18:44Z</time>
      </trkpt>
      <trkpt lat="48.50806" lon="1.98713">
        <ele>152</ele>
        <time>2009-10-25T08:18:48Z</time>
      </trkpt>
      <trkpt lat="48.50811" lon="1.98657">
        <ele>155</ele>
        <time>2009-10-25T08:18:58Z</time>
      </trkpt>
      <trkpt lat="48.50832" lon="1.98606">
        <ele>156</ele>
        <time>2009-10-25T08:19:08Z</time>
      </trkpt>
      <trkpt lat="48.50852" lon="1.9856">
        <ele>157</ele>
        <time>2009-10-25T08:19:17Z</time>
      </trkpt>
      <trkpt lat="48.50863" lon="1.98541">
        <ele>157</ele>
        <time>2009-10-25T08:19:20Z</time>
      </trkpt>
      <trkpt lat="48.50877" lon="1.98508">
        <ele>157</ele>
        <time>2009-10-25T08:19:26Z</time>
      </trkpt>
      <trkpt lat="48.50907" lon="1.98451">
        <ele>159</ele>
        <time>2009-10-25T08:19:36Z</time>
      </trkpt>
      <trkpt lat="48.50917" lon="1.98435">
        <ele>159</ele>
        <time>2009-10-25T08:19:39Z</time>
      </trkpt>
      <trkpt lat="48.50909" lon="1.98391">
        <ele>162</ele>
        <time>2009-10-25T08:19:48Z</time>
      </trkpt>
      <trkpt lat="48.50893" lon="1.98386">
        <ele>163</ele>
        <time>2009-10-25T08:19:51Z</time>
      </trkpt>
      <trkpt lat="48.50841" lon="1.98364">
        <ele>164</ele>
        <time>2009-10-25T08:20:02Z</time>
      </trkpt>
      <trkpt lat="48.50804" lon="1.98355">
        <ele>165</ele>
        <time>2009-10-25T08:20:11Z</time>
      </trkpt>
      <trkpt lat="48.50755" lon="1.98351">
        <ele>165</ele>
        <time>2009-10-25T08:20:20Z</time>
      </trkpt>
      <trkpt lat="48.50719" lon="1.98344">
        <ele>165</ele>
        <time>2009-10-25T08:20:27Z</time>
      </trkpt>
      <trkpt lat="48.50701" lon="1.98315">
        <ele>167</ele>
        <time>2009-10-25T08:20:34Z</time>
      </trkpt>
      <trkpt lat="48.50701" lon="1.98312">
        <ele>167</ele>
        <time>2009-10-25T08:20:35Z</time>
      </trkpt>
      <trkpt lat="48.50686" lon="1.98269">
        <ele>167</ele>
        <time>2009-10-25T08:20:43Z</time>
      </trkpt>
      <trkpt lat="48.5067" lon="1.98207">
        <ele>168</ele>
        <time>2009-10-25T08:20:52Z</time>
      </trkpt>
      <trkpt lat="48.50667" lon="1.98183">
        <ele>169</ele>
        <time>2009-10-25T08:20:55Z</time>
      </trkpt>
      <trkpt lat="48.50662" lon="1.98154">
        <ele>169</ele>
        <time>2009-10-25T08:20:58Z</time>
      </trkpt>
      <trkpt lat="48.50658" lon="1.98087">
        <ele>169</ele>
        <time>2009-10-25T08:21:06Z</time>
      </trkpt>
      <trkpt lat="48.50633" lon="1.98">
        <ele>166</ele>
        <time>2009-10-25T08:21:16Z</time>
      </trkpt>
      <trkpt lat="48.50623" lon="1.97975">
        <ele>166</ele>
        <time>2009-10-25T08:21:20Z</time>
      </trkpt>
      <trkpt lat="48.50615" lon="1.97946">
        <ele>165</ele>
        <time>2009-10-25T08:21:24Z</time>
      </trkpt>
      <trkpt lat="48.50589" lon="1.97843">
        <ele>158</ele>
        <time>2009-10-25T08:21:35Z</time>
      </trkpt>
      <trkpt lat="48.50585" lon="1.97819">
        <ele>157</ele>
        <time>2009-10-25T08:21:39Z</time>
      </trkpt>
      <trkpt lat="48.50613" lon="1.97778">
        <ele>156</ele>
        <time>2009-10-25T08:21:47Z</time>
      </trkpt>
      <trkpt lat="48.50635" lon="1.97757">
        <ele>156</ele>
        <time>2009-10-25T08:21:52Z</time>
      </trkpt>
      <trkpt lat="48.50674" lon="1.97726">
        <ele>158</ele>
        <time>2009-10-25T08:22:01Z</time>
      </trkpt>
      <trkpt lat="48.50688" lon="1.97705">
        <ele>158</ele>
        <time>2009-10-25T08:22:07Z</time>
      </trkpt>
      <trkpt lat="48.50707" lon="1.97696">
        <ele>159</ele>
        <time>2009-10-25T08:22:14Z</time>
      </trkpt>
      <trkpt lat="48.50709" lon="1.97694">
        <ele>159</ele>
        <time>2009-10-25T08:22:16Z</time>
      </trkpt>
      <trkpt lat="48.50736" lon="1.97655">
        <ele>160</ele>
        <time>2009-10-25T08:22:27Z</time>
      </trkpt>
      <trkpt lat="48.50752" lon="1.97625">
        <ele>158</ele>
        <time>2009-10-25T08:22:32Z</time>
      </trkpt>
      <trkpt lat="48.50787" lon="1.97564">
        <ele>150</ele>
        <time>2009-10-25T08:22:43Z</time>
      </trkpt>
      <trkpt lat="48.50799" lon="1.97526">
        <ele>147</ele>
        <time>2009-10-25T08:22:51Z</time>
      </trkpt>
      <trkpt lat="48.50817" lon="1.97495">
        <ele>140</ele>
        <time>2009-10-25T08:22:58Z</time>
      </trkpt>
      <trkpt lat="48.50855" lon="1.97451">
        <ele>137</ele>
        <time>2009-10-25T08:23:10Z</time>
      </trkpt>
      <trkpt lat="48.50885" lon="1.97417">
        <ele>137</ele>
        <time>2009-10-25T08:23:22Z</time>
      </trkpt>
      <trkpt lat="48.50897" lon="1.9739">
        <ele>136</ele>
        <time>2009-10-25T08:23:58Z</time>
      </trkpt>
      <trkpt lat="48.50905" lon="1.97388">
        <ele>136</ele>
        <time>2009-10-25T08:24:05Z</time>
      </trkpt>
      <trkpt lat="48.50912" lon="1.97392">
        <ele>136</ele>
        <time>2009-10-25T08:24:12Z</time>
      </trkpt>
      <trkpt lat="48.50918" lon="1.97405">
        <ele>139</ele>
        <time>2009-10-25T08:24:16Z</time>
      </trkpt>
      <trkpt lat="48.50942" lon="1.97438">
        <ele>141</ele>
        <time>2009-10-25T08:24:24Z</time>
      </trkpt>
      <trkpt lat="48.5095" lon="1.97463">
        <ele>141</ele>
        <time>2009-10-25T08:24:28Z</time>
      </trkpt>
      <trkpt lat="48.50961" lon="1.97487">
        <ele>142</ele>
        <time>2009-10-25T08:24:32Z</time>
      </trkpt>
      <trkpt lat="48.50974" lon="1.97506">
        <ele>142</ele>
        <time>2009-10-25T08:24:35Z</time>
      </trkpt>
      <trkpt lat="48.50987" lon="1.97546">
        <ele>142</ele>
        <time>2009-10-25T08:24:42Z</time>
      </trkpt>
      <trkpt lat="48.51017" lon="1.97604">
        <ele>142</ele>
        <time>2009-10-25T08:24:50Z</time>
      </trkpt>
      <trkpt lat="48.51028" lon="1.97621">
        <ele>143</ele>
        <time>2009-10-25T08:24:52Z</time>
      </trkpt>
      <trkpt lat="48.51041" lon="1.97668">
        <ele>142</ele>
        <time>2009-10-25T08:24:57Z</time>
      </trkpt>
      <trkpt lat="48.51054" lon="1.97699">
        <ele>141</ele>
        <time>2009-10-25T08:25:01Z</time>
      </trkpt>
      <trkpt lat="48.51074" lon="1.97748">
        <ele>139</ele>
        <time>2009-10-25T08:25:08Z</time>
      </trkpt>
      <trkpt lat="48.51097" lon="1.97802">
        <ele>137</ele>
        <time>2009-10-25T08:25:15Z</time>
      </trkpt>
      <trkpt lat="48.51129" lon="1.97875">
        <ele>136</ele>
        <time>2009-10-25T08:25:24Z</time>
      </trkpt>
      <trkpt lat="48.51138" lon="1.97891">
        <ele>136</ele>
        <time>2009-10-25T08:25:26Z</time>
      </trkpt>
      <trkpt lat="48.51181" lon="1.9796">
        <ele>133</ele>
        <time>2009-10-25T08:25:36Z</time>
      </trkpt>
      <trkpt lat="48.51196" lon="1.97991">
        <ele>133</ele>
        <time>2009-10-25T08:25:41Z</time>
      </trkpt>
      <trkpt lat="48.51201" lon="1.98007">
        <ele>133</ele>
        <time>2009-10-25T08:25:43Z</time>
      </trkpt>
      <trkpt lat="48.51206" lon="1.9802">
        <ele>133</ele>
        <time>2009-10-25T08:25:45Z</time>
      </trkpt>
      <trkpt lat="48.51214" lon="1.98045">
        <ele>132</ele>
        <time>2009-10-25T08:25:49Z</time>
      </trkpt>
      <trkpt lat="48.5124" lon="1.98121">
        <ele>133</ele>
        <time>2009-10-25T08:25:59Z</time>
      </trkpt>
      <trkpt lat="48.51243" lon="1.98127">
        <ele>133</ele>
        <time>2009-10-25T08:26:00Z</time>
      </trkpt>
      <trkpt lat="48.51253" lon="1.98148">
        <ele>127</ele>
        <time>2009-10-25T08:26:03Z</time>
      </trkpt>
      <trkpt lat="48.51283" lon="1.9821">
        <ele>129</ele>
        <time>2009-10-25T08:26:12Z</time>
      </trkpt>
      <trkpt lat="48.51308" lon="1.98252">
        <ele>134</ele>
        <time>2009-10-25T08:26:22Z</time>
      </trkpt>
      <trkpt lat="48.51336" lon="1.98297">
        <ele>130</ele>
        <time>2009-10-25T08:26:32Z</time>
      </trkpt>
      <trkpt lat="48.51361" lon="1.98362">
        <ele>132</ele>
        <time>2009-10-25T08:26:44Z</time>
      </trkpt>
      <trkpt lat="48.51366" lon="1.9838">
        <ele>132</ele>
        <time>2009-10-25T08:26:47Z</time>
      </trkpt>
      <trkpt lat="48.51379" lon="1.98407">
        <ele>131</ele>
        <time>2009-10-25T08:26:51Z</time>
      </trkpt>
      <trkpt lat="48.51415" lon="1.98496">
        <ele>131</ele>
        <time>2009-10-25T08:27:00Z</time>
      </trkpt>
      <trkpt lat="48.51445" lon="1.98528">
        <ele>128</ele>
        <time>2009-10-25T08:27:08Z</time>
      </trkpt>
      <trkpt lat="48.5145" lon="1.98524">
        <ele>128</ele>
        <time>2009-10-25T08:27:09Z</time>
      </trkpt>
      <trkpt lat="48.51506" lon="1.98482">
        <ele>121</ele>
        <time>2009-10-25T08:27:17Z</time>
      </trkpt>
      <trkpt lat="48.51565" lon="1.98433">
        <ele>120</ele>
        <time>2009-10-25T08:27:27Z</time>
      </trkpt>
      <trkpt lat="48.51571" lon="1.98431">
        <ele>121</ele>
        <time>2009-10-25T08:27:28Z</time>
      </trkpt>
      <trkpt lat="48.51613" lon="1.98394">
        <ele>124</ele>
        <time>2009-10-25T08:27:35Z</time>
      </trkpt>
      <trkpt lat="48.51627" lon="1.98363">
        <ele>124</ele>
        <time>2009-10-25T08:27:39Z</time>
      </trkpt>
      <trkpt lat="48.51634" lon="1.98336">
        <ele>124</ele>
        <time>2009-10-25T08:27:42Z</time>
      </trkpt>
      <trkpt lat="48.51632" lon="1.98302">
        <ele>124</ele>
        <time>2009-10-25T08:27:46Z</time>
      </trkpt>
      <trkpt lat="48.51617" lon="1.98268">
        <ele>123</ele>
        <time>2009-10-25T08:27:52Z</time>
      </trkpt>
      <trkpt lat="48.51586" lon="1.98216">
        <ele>125</ele>
        <time>2009-10-25T08:28:00Z</time>
      </trkpt>
      <trkpt lat="48.51576" lon="1.98188">
        <ele>122</ele>
        <time>2009-10-25T08:28:03Z</time>
      </trkpt>
      <trkpt lat="48.51572" lon="1.98143">
        <ele>124</ele>
        <time>2009-10-25T08:28:07Z</time>
      </trkpt>
      <trkpt lat="48.5157" lon="1.98121">
        <ele>124</ele>
        <time>2009-10-25T08:28:09Z</time>
      </trkpt>
      <trkpt lat="48.51573" lon="1.98095">
        <ele>124</ele>
        <time>2009-10-25T08:28:12Z</time>
      </trkpt>
      <trkpt lat="48.51597" lon="1.98053">
        <ele>126</ele>
        <time>2009-10-25T08:28:19Z</time>
      </trkpt>
      <trkpt lat="48.51607" lon="1.98043">
        <ele>127</ele>
        <time>2009-10-25T08:28:21Z</time>
      </trkpt>
      <trkpt lat="48.51619" lon="1.98031">
        <ele>127</ele>
        <time>2009-10-25T08:28:24Z</time>
      </trkpt>
      <trkpt lat="48.51624" lon="1.98009">
        <ele>127</ele>
        <time>2009-10-25T08:28:29Z</time>
      </trkpt>
      <trkpt lat="48.51636" lon="1.97888">
        <ele>131</ele>
        <time>2009-10-25T08:28:40Z</time>
      </trkpt>
      <trkpt lat="48.51637" lon="1.9788">
        <ele>131</ele>
        <time>2009-10-25T08:28:41Z</time>
      </trkpt>
      <trkpt lat="48.5164" lon="1.9784">
        <ele>132</ele>
        <time>2009-10-25T08:28:46Z</time>
      </trkpt>
      <trkpt lat="48.51626" lon="1.97759">
        <ele>132</ele>
        <time>2009-10-25T08:28:57Z</time>
      </trkpt>
      <trkpt lat="48.51609" lon="1.97714">
        <ele>132</ele>
        <time>2009-10-25T08:29:02Z</time>
      </trkpt>
      <trkpt lat="48.51602" lon="1.97698">
        <ele>132</ele>
        <time>2009-10-25T08:29:04Z</time>
      </trkpt>
      <trkpt lat="48.51601" lon="1.97668">
        <ele>132</ele>
        <time>2009-10-25T08:29:08Z</time>
      </trkpt>
      <trkpt lat="48.516" lon="1.97629">
        <ele>134</ele>
        <time>2009-10-25T08:29:13Z</time>
      </trkpt>
      <trkpt lat="48.51588" lon="1.9757">
        <ele>132</ele>
        <time>2009-10-25T08:29:24Z</time>
      </trkpt>
      <trkpt lat="48.51582" lon="1.97508">
        <ele>131</ele>
        <time>2009-10-25T08:29:36Z</time>
      </trkpt>
      <trkpt lat="48.5158" lon="1.97484">
        <ele>131</ele>
        <time>2009-10-25T08:29:40Z</time>
      </trkpt>
      <trkpt lat="48.51577" lon="1.97472">
        <ele>132</ele>
        <time>2009-10-25T08:29:42Z</time>
      </trkpt>
      <trkpt lat="48.51571" lon="1.97444">
        <ele>132</ele>
        <time>2009-10-25T08:29:46Z</time>
      </trkpt>
      <trkpt lat="48.51572" lon="1.97404">
        <ele>133</ele>
        <time>2009-10-25T08:29:51Z</time>
      </trkpt>
      <trkpt lat="48.51579" lon="1.97371">
        <ele>134</ele>
        <time>2009-10-25T08:29:56Z</time>
      </trkpt>
      <trkpt lat="48.51579" lon="1.9733">
        <ele>135</ele>
        <time>2009-10-25T08:30:00Z</time>
      </trkpt>
      <trkpt lat="48.51556" lon="1.97316">
        <ele>138</ele>
        <time>2009-10-25T08:30:06Z</time>
      </trkpt>
      <trkpt lat="48.51493" lon="1.97356">
        <ele>139</ele>
        <time>2009-10-25T08:30:19Z</time>
      </trkpt>
      <trkpt lat="48.51474" lon="1.97369">
        <ele>139</ele>
        <time>2009-10-25T08:30:23Z</time>
      </trkpt>
      <trkpt lat="48.51436" lon="1.97395">
        <ele>141</ele>
        <time>2009-10-25T08:30:35Z</time>
      </trkpt>
      <trkpt lat="48.51417" lon="1.9741">
        <ele>142</ele>
        <time>2009-10-25T08:30:48Z</time>
      </trkpt>
      <trkpt lat="48.514" lon="1.97419">
        <ele>146</ele>
        <time>2009-10-25T08:31:02Z</time>
      </trkpt>
      <trkpt lat="48.51373" lon="1.97437">
        <ele>149</ele>
        <time>2009-10-25T08:31:16Z</time>
      </trkpt>
      <trkpt lat="48.51343" lon="1.97454">
        <ele>151</ele>
        <time>2009-10-25T08:31:31Z</time>
      </trkpt>
      <trkpt lat="48.51318" lon="1.97473">
        <ele>157</ele>
        <time>2009-10-25T08:31:43Z</time>
      </trkpt>
      <trkpt lat="48.5129" lon="1.97491">
        <ele>158</ele>
        <time>2009-10-25T08:31:55Z</time>
      </trkpt>
      <trkpt lat="48.51274" lon="1.97502">
        <ele>156</ele>
        <time>2009-10-25T08:32:02Z</time>
      </trkpt>
      <trkpt lat="48.51251" lon="1.97517">
        <ele>156</ele>
        <time>2009-10-25T08:32:14Z</time>
      </trkpt>
      <trkpt lat="48.51225" lon="1.97572">
        <ele>155</ele>
        <time>2009-10-25T08:32:24Z</time>
      </trkpt>
      <trkpt lat="48.51215" lon="1.976">
        <ele>152</ele>
        <time>2009-10-25T08:32:28Z</time>
      </trkpt>
      <trkpt lat="48.51189" lon="1.97592">
        <ele>152</ele>
        <time>2009-10-25T08:32:35Z</time>
      </trkpt>
      <trkpt lat="48.51183" lon="1.97574">
        <ele>154</ele>
        <time>2009-10-25T08:32:38Z</time>
      </trkpt>
      <trkpt lat="48.51177" lon="1.97554">
        <ele>154</ele>
        <time>2009-10-25T08:32:42Z</time>
      </trkpt>
      <trkpt lat="48.51164" lon="1.97489">
        <ele>155</ele>
        <time>2009-10-25T08:32:53Z</time>
      </trkpt>
      <trkpt lat="48.51164" lon="1.97484">
        <ele>155</ele>
        <time>2009-10-25T08:32:54Z</time>
      </trkpt>
      <trkpt lat="48.51153" lon="1.97415">
        <ele>158</ele>
        <time>2009-10-25T08:33:05Z</time>
      </trkpt>
      <trkpt lat="48.51143" lon="1.97345">
        <ele>159</ele>
        <time>2009-10-25T08:33:16Z</time>
      </trkpt>
      <trkpt lat="48.51135" lon="1.97273">
        <ele>160</ele>
        <time>2009-10-25T08:33:28Z</time>
      </trkpt>
      <trkpt lat="48.51125" lon="1.97222">
        <ele>161</ele>
        <time>2009-10-25T08:33:37Z</time>
      </trkpt>
      <trkpt lat="48.51108" lon="1.97156">
        <ele>162</ele>
        <time>2009-10-25T08:33:49Z</time>
      </trkpt>
      <trkpt lat="48.51102" lon="1.97087">
        <ele>162</ele>
        <time>2009-10-25T08:34:02Z</time>
      </trkpt>
      <trkpt lat="48.51099" lon="1.97053">
        <ele>161</ele>
        <time>2009-10-25T08:34:08Z</time>
      </trkpt>
      <trkpt lat="48.51102" lon="1.96977">
        <ele>159</ele>
        <time>2009-10-25T08:34:20Z</time>
      </trkpt>
      <trkpt lat="48.51108" lon="1.96925">
        <ele>158</ele>
        <time>2009-10-25T08:34:28Z</time>
      </trkpt>
      <trkpt lat="48.51133" lon="1.96885">
        <ele>157</ele>
        <time>2009-10-25T08:34:39Z</time>
      </trkpt>
      <trkpt lat="48.51168" lon="1.96832">
        <ele>158</ele>
        <time>2009-10-25T08:34:51Z</time>
      </trkpt>
      <trkpt lat="48.5119" lon="1.96782">
        <ele>157</ele>
        <time>2009-10-25T08:35:01Z</time>
      </trkpt>
      <trkpt lat="48.51222" lon="1.96731">
        <ele>155</ele>
        <time>2009-10-25T08:35:11Z</time>
      </trkpt>
      <trkpt lat="48.51224" lon="1.96726">
        <ele>155</ele>
        <time>2009-10-25T08:35:12Z</time>
      </trkpt>
      <trkpt lat="48.51244" lon="1.96679">
        <ele>153</ele>
        <time>2009-10-25T08:35:20Z</time>
      </trkpt>
      <trkpt lat="48.51272" lon="1.9664">
        <ele>151</ele>
        <time>2009-10-25T08:35:25Z</time>
      </trkpt>
      <trkpt lat="48.51302" lon="1.96602">
        <ele>149</ele>
        <time>2009-10-25T08:35:30Z</time>
      </trkpt>
      <trkpt lat="48.51312" lon="1.96584">
        <ele>149</ele>
        <time>2009-10-25T08:35:32Z</time>
      </trkpt>
      <trkpt lat="48.51332" lon="1.96538">
        <ele>145</ele>
        <time>2009-10-25T08:35:37Z</time>
      </trkpt>
      <trkpt lat="48.51353" lon="1.96511">
        <ele>146</ele>
        <time>2009-10-25T08:35:42Z</time>
      </trkpt>
      <trkpt lat="48.51363" lon="1.96514">
        <ele>147</ele>
        <time>2009-10-25T08:35:46Z</time>
      </trkpt>
      <trkpt lat="48.51409" lon="1.96502">
        <ele>150</ele>
        <time>2009-10-25T08:35:56Z</time>
      </trkpt>
      <trkpt lat="48.5143" lon="1.9651">
        <ele>154</ele>
        <time>2009-10-25T08:36:07Z</time>
      </trkpt>
      <trkpt lat="48.51447" lon="1.96508">
        <ele>156</ele>
        <time>2009-10-25T08:36:19Z</time>
      </trkpt>
      <trkpt lat="48.51457" lon="1.96508">
        <ele>157</ele>
        <time>2009-10-25T08:36:24Z</time>
      </trkpt>
      <trkpt lat="48.51484" lon="1.96514">
        <ele>159</ele>
        <time>2009-10-25T08:36:38Z</time>
      </trkpt>
      <trkpt lat="48.51519" lon="1.96555">
        <ele>162</ele>
        <time>2009-10-25T08:36:51Z</time>
      </trkpt>
      <trkpt lat="48.51553" lon="1.96603">
        <ele>163</ele>
        <time>2009-10-25T08:37:02Z</time>
      </trkpt>
      <trkpt lat="48.51574" lon="1.96637">
        <ele>163</ele>
        <time>2009-10-25T08:37:08Z</time>
      </trkpt>
      <trkpt lat="48.5159" lon="1.96674">
        <ele>163</ele>
        <time>2009-10-25T08:37:14Z</time>
      </trkpt>
      <trkpt lat="48.51604" lon="1.96702">
        <ele>162</ele>
        <time>2009-10-25T08:37:18Z</time>
      </trkpt>
      <trkpt lat="48.51647" lon="1.96767">
        <ele>162</ele>
        <time>2009-10-25T08:37:30Z</time>
      </trkpt>
      <trkpt lat="48.51686" lon="1.96823">
        <ele>163</ele>
        <time>2009-10-25T08:37:42Z</time>
      </trkpt>
      <trkpt lat="48.517" lon="1.96845">
        <ele>163</ele>
        <time>2009-10-25T08:37:47Z</time>
      </trkpt>
      <trkpt lat="48.51729" lon="1.96887">
        <ele>163</ele>
        <time>2009-10-25T08:37:56Z</time>
      </trkpt>
      <trkpt lat="48.51761" lon="1.96939">
        <ele>164</ele>
        <time>2009-10-25T08:38:06Z</time>
      </trkpt>
      <trkpt lat="48.5177" lon="1.96961">
        <ele>164</ele>
        <time>2009-10-25T08:38:10Z</time>
      </trkpt>
      <trkpt lat="48.51805" lon="1.97037">
        <ele>163</ele>
        <time>2009-10-25T08:38:23Z</time>
      </trkpt>
      <trkpt lat="48.51811" lon="1.97049">
        <ele>163</ele>
        <time>2009-10-25T08:38:25Z</time>
      </trkpt>
      <trkpt lat="48.51837" lon="1.97105">
        <ele>161</ele>
        <time>2009-10-25T08:38:34Z</time>
      </trkpt>
      <trkpt lat="48.51862" lon="1.97167">
        <ele>157</ele>
        <time>2009-10-25T08:38:46Z</time>
      </trkpt>
      <trkpt lat="48.51882" lon="1.97217">
        <ele>157</ele>
        <time>2009-10-25T08:38:56Z</time>
      </trkpt>
      <trkpt lat="48.51889" lon="1.9727">
        <ele>156</ele>
        <time>2009-10-25T08:39:07Z</time>
      </trkpt>
      <trkpt lat="48.51892" lon="1.97329">
        <ele>156</ele>
        <time>2009-10-25T08:39:17Z</time>
      </trkpt>
      <trkpt lat="48.5189" lon="1.97343">
        <ele>156</ele>
        <time>2009-10-25T08:39:19Z</time>
      </trkpt>
      <trkpt lat="48.5189" lon="1.97373">
        <ele>156</ele>
        <time>2009-10-25T08:39:23Z</time>
      </trkpt>
      <trkpt lat="48.5189" lon="1.97387">
        <ele>156</ele>
        <time>2009-10-25T08:39:25Z</time>
      </trkpt>
      <trkpt lat="48.51888" lon="1.97403">
        <ele>156</ele>
        <time>2009-10-25T08:39:27Z</time>
      </trkpt>
      <trkpt lat="48.51891" lon="1.97433">
        <ele>156</ele>
        <time>2009-10-25T08:39:31Z</time>
      </trkpt>
      <trkpt lat="48.51887" lon="1.97464">
        <ele>156</ele>
        <time>2009-10-25T08:39:35Z</time>
      </trkpt>
      <trkpt lat="48.51887" lon="1.97494">
        <ele>156</ele>
        <time>2009-10-25T08:39:39Z</time>
      </trkpt>
      <trkpt lat="48.51882" lon="1.97555">
        <ele>155</ele>
        <time>2009-10-25T08:39:47Z</time>
      </trkpt>
      <trkpt lat="48.51883" lon="1.97619">
        <ele>156</ele>
        <time>2009-10-25T08:39:57Z</time>
      </trkpt>
      <trkpt lat="48.51885" lon="1.97686">
        <ele>158</ele>
        <time>2009-10-25T08:40:07Z</time>
      </trkpt>
      <trkpt lat="48.51891" lon="1.97713">
        <ele>159</ele>
        <time>2009-10-25T08:40:10Z</time>
      </trkpt>
      <trkpt lat="48.51904" lon="1.97793">
        <ele>161</ele>
        <time>2009-10-25T08:40:21Z</time>
      </trkpt>
      <trkpt lat="48.51908" lon="1.9782">
        <ele>162</ele>
        <time>2009-10-25T08:40:25Z</time>
      </trkpt>
      <trkpt lat="48.51916" lon="1.97914">
        <ele>163</ele>
        <time>2009-10-25T08:40:38Z</time>
      </trkpt>
      <trkpt lat="48.51914" lon="1.97968">
        <ele>163</ele>
        <time>2009-10-25T08:40:46Z</time>
      </trkpt>
      <trkpt lat="48.51917" lon="1.98033">
        <ele>163</ele>
        <time>2009-10-25T08:40:56Z</time>
      </trkpt>
      <trkpt lat="48.51919" lon="1.98039">
        <ele>162</ele>
        <time>2009-10-25T08:40:57Z</time>
      </trkpt>
      <trkpt lat="48.51922" lon="1.98054">
        <ele>162</ele>
        <time>2009-10-25T08:40:59Z</time>
      </trkpt>
      <trkpt lat="48.51921" lon="1.98081">
        <ele>162</ele>
        <time>2009-10-25T08:41:02Z</time>
      </trkpt>
      <trkpt lat="48.5192" lon="1.9811">
        <ele>160</ele>
        <time>2009-10-25T08:41:05Z</time>
      </trkpt>
      <trkpt lat="48.51917" lon="1.9814">
        <ele>159</ele>
        <time>2009-10-25T08:41:09Z</time>
      </trkpt>
      <trkpt lat="48.51931" lon="1.98146">
        <ele>159</ele>
        <time>2009-10-25T08:41:14Z</time>
      </trkpt>
      <trkpt lat="48.51939" lon="1.98141">
        <ele>159</ele>
        <time>2009-10-25T08:41:16Z</time>
      </trkpt>
      <trkpt lat="48.51957" lon="1.98129">
        <ele>159</ele>
        <time>2009-10-25T08:41:20Z</time>
      </trkpt>
      <trkpt lat="48.51972" lon="1.98119">
        <ele>159</ele>
        <time>2009-10-25T08:41:23Z</time>
      </trkpt>
      <trkpt lat="48.52004" lon="1.98101">
        <ele>159</ele>
        <time>2009-10-25T08:41:30Z</time>
      </trkpt>
      <trkpt lat="48.52031" lon="1.98082">
        <ele>161</ele>
        <time>2009-10-25T08:41:36Z</time>
      </trkpt>
      <trkpt lat="48.52051" lon="1.98066">
        <ele>161</ele>
        <time>2009-10-25T08:41:41Z</time>
      </trkpt>
      <trkpt lat="48.52063" lon="1.98059">
        <ele>161</ele>
        <time>2009-10-25T08:41:44Z</time>
      </trkpt>
      <trkpt lat="48.52123" lon="1.9805">
        <ele>161</ele>
        <time>2009-10-25T08:41:58Z</time>
      </trkpt>
      <trkpt lat="48.5213" lon="1.98048">
        <ele>161</ele>
        <time>2009-10-25T08:42:00Z</time>
      </trkpt>
      <trkpt lat="48.5219" lon="1.9804">
        <ele>156</ele>
        <time>2009-10-25T08:42:11Z</time>
      </trkpt>
      <trkpt lat="48.52202" lon="1.98038">
        <ele>155</ele>
        <time>2009-10-25T08:42:13Z</time>
      </trkpt>
      <trkpt lat="48.52277" lon="1.98028">
        <ele>145</ele>
        <time>2009-10-25T08:42:22Z</time>
      </trkpt>
      <trkpt lat="48.52301" lon="1.98023">
        <ele>143</ele>
        <time>2009-10-25T08:42:27Z</time>
      </trkpt>
      <trkpt lat="48.52375" lon="1.98009">
        <ele>135</ele>
        <time>2009-10-25T08:42:37Z</time>
      </trkpt>
      <trkpt lat="48.52438" lon="1.98004">
        <ele>129</ele>
        <time>2009-10-25T08:42:44Z</time>
      </trkpt>
      <trkpt lat="48.52468" lon="1.97942">
        <ele>132</ele>
        <time>2009-10-25T08:42:55Z</time>
      </trkpt>
      <trkpt lat="48.52482" lon="1.97902">
        <ele>134</ele>
        <time>2009-10-25T08:43:01Z</time>
      </trkpt>
      <trkpt lat="48.52472" lon="1.97847">
        <ele>135</ele>
        <time>2009-10-25T08:43:10Z</time>
      </trkpt>
      <trkpt lat="48.52438" lon="1.97819">
        <ele>136</ele>
        <time>2009-10-25T08:43:22Z</time>
      </trkpt>
      <trkpt lat="48.5239" lon="1.97796">
        <ele>140</ele>
        <time>2009-10-25T08:43:36Z</time>
      </trkpt>
      <trkpt lat="48.52352" lon="1.97773">
        <ele>141</ele>
        <time>2009-10-25T08:43:49Z</time>
      </trkpt>
      <trkpt lat="48.52307" lon="1.97753">
        <ele>147</ele>
        <time>2009-10-25T08:44:02Z</time>
      </trkpt>
      <trkpt lat="48.52294" lon="1.97742">
        <ele>147</ele>
        <time>2009-10-25T08:44:07Z</time>
      </trkpt>
      <trkpt lat="48.52292" lon="1.97733">
        <ele>147</ele>
        <time>2009-10-25T08:44:09Z</time>
      </trkpt>
      <trkpt lat="48.52297" lon="1.97716">
        <ele>146</ele>
        <time>2009-10-25T08:44:13Z</time>
      </trkpt>
      <trkpt lat="48.52303" lon="1.97705">
        <ele>145</ele>
        <time>2009-10-25T08:44:15Z</time>
      </trkpt>
      <trkpt lat="48.52313" lon="1.97684">
        <ele>143</ele>
        <time>2009-10-25T08:44:18Z</time>
      </trkpt>
      <trkpt lat="48.52345" lon="1.97623">
        <ele>133</ele>
        <time>2009-10-25T08:44:25Z</time>
      </trkpt>
      <trkpt lat="48.52424" lon="1.97502">
        <ele>124</ele>
        <time>2009-10-25T08:44:36Z</time>
      </trkpt>
      <trkpt lat="48.52476" lon="1.97419">
        <ele>121</ele>
        <time>2009-10-25T08:44:46Z</time>
      </trkpt>
      <trkpt lat="48.5249" lon="1.97398">
        <ele>122</ele>
        <time>2009-10-25T08:44:49Z</time>
      </trkpt>
      <trkpt lat="48.52512" lon="1.97366">
        <ele>121</ele>
        <time>2009-10-25T08:44:54Z</time>
      </trkpt>
      <trkpt lat="48.52532" lon="1.97335">
        <ele>121</ele>
        <time>2009-10-25T08:44:57Z</time>
      </trkpt>
      <trkpt lat="48.52574" lon="1.97268">
        <ele>125</ele>
        <time>2009-10-25T08:45:07Z</time>
      </trkpt>
      <trkpt lat="48.52617" lon="1.97199">
        <ele>125</ele>
        <time>2009-10-25T08:45:22Z</time>
      </trkpt>
      <trkpt lat="48.52621" lon="1.97196">
        <ele>124</ele>
        <time>2009-10-25T08:45:24Z</time>
      </trkpt>
      <trkpt lat="48.52623" lon="1.97193">
        <ele>124</ele>
        <time>2009-10-25T08:45:26Z</time>
      </trkpt>
      <trkpt lat="48.52626" lon="1.9718">
        <ele>125</ele>
        <time>2009-10-25T08:45:43Z</time>
      </trkpt>
      <trkpt lat="48.52624" lon="1.97179">
        <ele>125</ele>
        <time>2009-10-25T08:45:46Z</time>
      </trkpt>
      <trkpt lat="48.52622" lon="1.97175">
        <ele>125</ele>
        <time>2009-10-25T08:46:05Z</time>
      </trkpt>
      <trkpt lat="48.52629" lon="1.9718">
        <ele>124</ele>
        <time>2009-10-25T08:46:20Z</time>
      </trkpt>
      <trkpt lat="48.52628" lon="1.97178">
        <ele>124</ele>
        <time>2009-10-25T08:46:43Z</time>
      </trkpt>
      <trkpt lat="48.5264" lon="1.97181">
        <ele>124</ele>
        <time>2009-10-25T08:48:24Z</time>
      </trkpt>
      <trkpt lat="48.52624" lon="1.97179">
        <ele>125</ele>
        <time>2009-10-25T08:52:18Z</time>
      </trkpt>
      <trkpt lat="48.52622" lon="1.97174">
        <ele>125</ele>
        <time>2009-10-25T08:53:30Z</time>
      </trkpt>
      <trkpt lat="48.52623" lon="1.97173">
        <ele>125</ele>
        <time>2009-10-25T08:53:31Z</time>
      </trkpt>
      <trkpt lat="48.52625" lon="1.97165">
        <ele>126</ele>
        <time>2009-10-25T08:53:35Z</time>
      </trkpt>
      <trkpt lat="48.52627" lon="1.97158">
        <ele>126</ele>
        <time>2009-10-25T08:53:37Z</time>
      </trkpt>
      <trkpt lat="48.52629" lon="1.97134">
        <ele>126</ele>
        <time>2009-10-25T08:53:42Z</time>
      </trkpt>
      <trkpt lat="48.52622" lon="1.9709">
        <ele>126</ele>
        <time>2009-10-25T08:53:48Z</time>
      </trkpt>
      <trkpt lat="48.52602" lon="1.97038">
        <ele>126</ele>
        <time>2009-10-25T08:53:53Z</time>
      </trkpt>
      <trkpt lat="48.52579" lon="1.96984">
        <ele>126</ele>
        <time>2009-10-25T08:53:59Z</time>
      </trkpt>
      <trkpt lat="48.52568" lon="1.9696">
        <ele>127</ele>
        <time>2009-10-25T08:54:03Z</time>
      </trkpt>
      <trkpt lat="48.52558" lon="1.96928">
        <ele>127</ele>
        <time>2009-10-25T08:54:07Z</time>
      </trkpt>
      <trkpt lat="48.52529" lon="1.96868">
        <ele>130</ele>
        <time>2009-10-25T08:54:17Z</time>
      </trkpt>
      <trkpt lat="48.52517" lon="1.96818">
        <ele>133</ele>
        <time>2009-10-25T08:54:27Z</time>
      </trkpt>
      <trkpt lat="48.52514" lon="1.96811">
        <ele>133</ele>
        <time>2009-10-25T08:54:29Z</time>
      </trkpt>
      <trkpt lat="48.52515" lon="1.96793">
        <ele>133</ele>
        <time>2009-10-25T08:54:33Z</time>
      </trkpt>
      <trkpt lat="48.52501" lon="1.96767">
        <ele>134</ele>
        <time>2009-10-25T08:54:40Z</time>
      </trkpt>
      <trkpt lat="48.52473" lon="1.96725">
        <ele>136</ele>
        <time>2009-10-25T08:54:51Z</time>
      </trkpt>
      <trkpt lat="48.52446" lon="1.96702">
        <ele>137</ele>
        <time>2009-10-25T08:55:01Z</time>
      </trkpt>
      <trkpt lat="48.52417" lon="1.9667">
        <ele>139</ele>
        <time>2009-10-25T08:55:14Z</time>
      </trkpt>
      <trkpt lat="48.52401" lon="1.96656">
        <ele>142</ele>
        <time>2009-10-25T08:55:19Z</time>
      </trkpt>
      <trkpt lat="48.52393" lon="1.96642">
        <ele>143</ele>
        <time>2009-10-25T08:55:23Z</time>
      </trkpt>
      <trkpt lat="48.52386" lon="1.96635">
        <ele>143</ele>
        <time>2009-10-25T08:55:26Z</time>
      </trkpt>
      <trkpt lat="48.5238" lon="1.96619">
        <ele>144</ele>
        <time>2009-10-25T08:55:31Z</time>
      </trkpt>
      <trkpt lat="48.52378" lon="1.9658">
        <ele>148</ele>
        <time>2009-10-25T08:55:44Z</time>
      </trkpt>
      <trkpt lat="48.52383" lon="1.96554">
        <ele>149</ele>
        <time>2009-10-25T08:55:52Z</time>
      </trkpt>
      <trkpt lat="48.52389" lon="1.96521">
        <ele>150</ele>
        <time>2009-10-25T08:56:08Z</time>
      </trkpt>
      <trkpt lat="48.5239" lon="1.96506">
        <ele>150</ele>
        <time>2009-10-25T08:56:13Z</time>
      </trkpt>
      <trkpt lat="48.52403" lon="1.96486">
        <ele>153</ele>
        <time>2009-10-25T08:56:27Z</time>
      </trkpt>
      <trkpt lat="48.5242" lon="1.96472">
        <ele>152</ele>
        <time>2009-10-25T08:56:41Z</time>
      </trkpt>
      <trkpt lat="48.52444" lon="1.96461">
        <ele>152</ele>
        <time>2009-10-25T08:56:58Z</time>
      </trkpt>
      <trkpt lat="48.52446" lon="1.96458">
        <ele>152</ele>
        <time>2009-10-25T08:57:00Z</time>
      </trkpt>
      <trkpt lat="48.52446" lon="1.96441">
        <ele>152</ele>
        <time>2009-10-25T08:57:06Z</time>
      </trkpt>
      <trkpt lat="48.52429" lon="1.9641">
        <ele>155</ele>
        <time>2009-10-25T08:57:20Z</time>
      </trkpt>
      <trkpt lat="48.52417" lon="1.96375">
        <ele>154</ele>
        <time>2009-10-25T08:57:32Z</time>
      </trkpt>
      <trkpt lat="48.52413" lon="1.96369">
        <ele>159</ele>
        <time>2009-10-25T08:57:34Z</time>
      </trkpt>
      <trkpt lat="48.52395" lon="1.96354">
        <ele>159</ele>
        <time>2009-10-25T08:57:41Z</time>
      </trkpt>
      <trkpt lat="48.52364" lon="1.96323">
        <ele>161</ele>
        <time>2009-10-25T08:57:53Z</time>
      </trkpt>
      <trkpt lat="48.5234" lon="1.96289">
        <ele>161</ele>
        <time>2009-10-25T08:58:01Z</time>
      </trkpt>
      <trkpt lat="48.52354" lon="1.96263">
        <ele>161</ele>
        <time>2009-10-25T08:58:09Z</time>
      </trkpt>
      <trkpt lat="48.52369" lon="1.96243">
        <ele>160</ele>
        <time>2009-10-25T08:58:17Z</time>
      </trkpt>
      <trkpt lat="48.52365" lon="1.96212">
        <ele>159</ele>
        <time>2009-10-25T08:58:27Z</time>
      </trkpt>
      <trkpt lat="48.52368" lon="1.96202">
        <ele>159</ele>
        <time>2009-10-25T08:58:30Z</time>
      </trkpt>
      <trkpt lat="48.52395" lon="1.96166">
        <ele>155</ele>
        <time>2009-10-25T08:58:40Z</time>
      </trkpt>
      <trkpt lat="48.5241" lon="1.96168">
        <ele>155</ele>
        <time>2009-10-25T08:58:43Z</time>
      </trkpt>
      <trkpt lat="48.52442" lon="1.96171">
        <ele>150</ele>
        <time>2009-10-25T08:58:51Z</time>
      </trkpt>
      <trkpt lat="48.52455" lon="1.96164">
        <ele>146</ele>
        <time>2009-10-25T08:58:55Z</time>
      </trkpt>
      <trkpt lat="48.52482" lon="1.96104">
        <ele>141</ele>
        <time>2009-10-25T08:59:03Z</time>
      </trkpt>
      <trkpt lat="48.52482" lon="1.96088">
        <ele>140</ele>
        <time>2009-10-25T08:59:05Z</time>
      </trkpt>
      <trkpt lat="48.52498" lon="1.96051">
        <ele>136</ele>
        <time>2009-10-25T08:59:10Z</time>
      </trkpt>
      <trkpt lat="48.525" lon="1.96034">
        <ele>129</ele>
        <time>2009-10-25T08:59:12Z</time>
      </trkpt>
      <trkpt lat="48.52514" lon="1.95991">
        <ele>126</ele>
        <time>2009-10-25T08:59:16Z</time>
      </trkpt>
      <trkpt lat="48.52522" lon="1.95972">
        <ele>125</ele>
        <time>2009-10-25T08:59:18Z</time>
      </trkpt>
      <trkpt lat="48.52564" lon="1.95928">
        <ele>121</ele>
        <time>2009-10-25T08:59:26Z</time>
      </trkpt>
      <trkpt lat="48.52572" lon="1.95896">
        <ele>119</ele>
        <time>2009-10-25T08:59:32Z</time>
      </trkpt>
      <trkpt lat="48.52562" lon="1.95832">
        <ele>116</ele>
        <time>2009-10-25T08:59:41Z</time>
      </trkpt>
      <trkpt lat="48.52528" lon="1.95762">
        <ele>117</ele>
        <time>2009-10-25T08:59:55Z</time>
      </trkpt>
      <trkpt lat="48.52499" lon="1.95728">
        <ele>117</ele>
        <time>2009-10-25T09:00:05Z</time>
      </trkpt>
      <trkpt lat="48.52457" lon="1.95723">
        <ele>117</ele>
        <time>2009-10-25T09:00:13Z</time>
      </trkpt>
      <trkpt lat="48.52443" lon="1.95726">
        <ele>118</ele>
        <time>2009-10-25T09:00:15Z</time>
      </trkpt>
      <trkpt lat="48.52422" lon="1.9573">
        <ele>118</ele>
        <time>2009-10-25T09:00:18Z</time>
      </trkpt>
      <trkpt lat="48.52393" lon="1.95733">
        <ele>119</ele>
        <time>2009-10-25T09:00:22Z</time>
      </trkpt>
      <trkpt lat="48.52361" lon="1.95719">
        <ele>119</ele>
        <time>2009-10-25T09:00:27Z</time>
      </trkpt>
      <trkpt lat="48.52355" lon="1.95711">
        <ele>118</ele>
        <time>2009-10-25T09:00:29Z</time>
      </trkpt>
      <trkpt lat="48.52315" lon="1.9568">
        <ele>122</ele>
        <time>2009-10-25T09:00:40Z</time>
      </trkpt>
      <trkpt lat="48.5229" lon="1.95635">
        <ele>122</ele>
        <time>2009-10-25T09:00:50Z</time>
      </trkpt>
      <trkpt lat="48.52272" lon="1.9558">
        <ele>121</ele>
        <time>2009-10-25T09:01:00Z</time>
      </trkpt>
      <trkpt lat="48.52262" lon="1.95537">
        <ele>120</ele>
        <time>2009-10-25T09:01:09Z</time>
      </trkpt>
      <trkpt lat="48.52256" lon="1.95488">
        <ele>119</ele>
        <time>2009-10-25T09:01:19Z</time>
      </trkpt>
      <trkpt lat="48.52251" lon="1.95472">
        <ele>118</ele>
        <time>2009-10-25T09:01:23Z</time>
      </trkpt>
      <trkpt lat="48.52227" lon="1.95464">
        <ele>118</ele>
        <time>2009-10-25T09:01:30Z</time>
      </trkpt>
      <trkpt lat="48.52197" lon="1.95485">
        <ele>119</ele>
        <time>2009-10-25T09:01:40Z</time>
      </trkpt>
      <trkpt lat="48.52177" lon="1.95496">
        <ele>119</ele>
        <time>2009-10-25T09:01:46Z</time>
      </trkpt>
      <trkpt lat="48.5214" lon="1.95497">
        <ele>119</ele>
        <time>2009-10-25T09:01:57Z</time>
      </trkpt>
      <trkpt lat="48.52123" lon="1.95491">
        <ele>119</ele>
        <time>2009-10-25T09:02:01Z</time>
      </trkpt>
      <trkpt lat="48.52091" lon="1.95474">
        <ele>119</ele>
        <time>2009-10-25T09:02:08Z</time>
      </trkpt>
      <trkpt lat="48.52064" lon="1.95425">
        <ele>119</ele>
        <time>2009-10-25T09:02:18Z</time>
      </trkpt>
      <trkpt lat="48.52032" lon="1.95366">
        <ele>119</ele>
        <time>2009-10-25T09:02:27Z</time>
      </trkpt>
      <trkpt lat="48.51994" lon="1.95329">
        <ele>120</ele>
        <time>2009-10-25T09:02:37Z</time>
      </trkpt>
      <trkpt lat="48.51991" lon="1.95328">
        <ele>120</ele>
        <time>2009-10-25T09:02:38Z</time>
      </trkpt>
      <trkpt lat="48.5198" lon="1.95312">
        <ele>121</ele>
        <time>2009-10-25T09:02:44Z</time>
      </trkpt>
      <trkpt lat="48.5195" lon="1.9528">
        <ele>122</ele>
        <time>2009-10-25T09:02:52Z</time>
      </trkpt>
      <trkpt lat="48.51925" lon="1.9526">
        <ele>123</ele>
        <time>2009-10-25T09:02:56Z</time>
      </trkpt>
      <trkpt lat="48.51896" lon="1.95227">
        <ele>123</ele>
        <time>2009-10-25T09:03:05Z</time>
      </trkpt>
      <trkpt lat="48.51874" lon="1.95215">
        <ele>123</ele>
        <time>2009-10-25T09:03:10Z</time>
      </trkpt>
      <trkpt lat="48.51812" lon="1.95181">
        <ele>126</ele>
        <time>2009-10-25T09:03:21Z</time>
      </trkpt>
      <trkpt lat="48.51808" lon="1.95167">
        <ele>126</ele>
        <time>2009-10-25T09:03:24Z</time>
      </trkpt>
      <trkpt lat="48.51799" lon="1.95141">
        <ele>126</ele>
        <time>2009-10-25T09:03:29Z</time>
      </trkpt>
      <trkpt lat="48.51778" lon="1.951">
        <ele>128</ele>
        <time>2009-10-25T09:03:38Z</time>
      </trkpt>
      <trkpt lat="48.51797" lon="1.95047">
        <ele>128</ele>
        <time>2009-10-25T09:03:47Z</time>
      </trkpt>
      <trkpt lat="48.51817" lon="1.94993">
        <ele>127</ele>
        <time>2009-10-25T09:03:56Z</time>
      </trkpt>
      <trkpt lat="48.5182" lon="1.94981">
        <ele>128</ele>
        <time>2009-10-25T09:03:58Z</time>
      </trkpt>
      <trkpt lat="48.51829" lon="1.94927">
        <ele>126</ele>
        <time>2009-10-25T09:04:06Z</time>
      </trkpt>
      <trkpt lat="48.51827" lon="1.9491">
        <ele>125</ele>
        <time>2009-10-25T09:04:08Z</time>
      </trkpt>
      <trkpt lat="48.51823" lon="1.94896">
        <ele>127</ele>
        <time>2009-10-25T09:04:10Z</time>
      </trkpt>
      <trkpt lat="48.51817" lon="1.94832">
        <ele>122</ele>
        <time>2009-10-25T09:04:21Z</time>
      </trkpt>
      <trkpt lat="48.51791" lon="1.94823">
        <ele>123</ele>
        <time>2009-10-25T09:04:33Z</time>
      </trkpt>
      <trkpt lat="48.51755" lon="1.94833">
        <ele>128</ele>
        <time>2009-10-25T09:04:46Z</time>
      </trkpt>
      <trkpt lat="48.51715" lon="1.94825">
        <ele>128</ele>
        <time>2009-10-25T09:04:57Z</time>
      </trkpt>
      <trkpt lat="48.51671" lon="1.94782">
        <ele>126</ele>
        <time>2009-10-25T09:05:07Z</time>
      </trkpt>
      <trkpt lat="48.51661" lon="1.94751">
        <ele>124</ele>
        <time>2009-10-25T09:05:11Z</time>
      </trkpt>
      <trkpt lat="48.51636" lon="1.94717">
        <ele>121</ele>
        <time>2009-10-25T09:05:16Z</time>
      </trkpt>
      <trkpt lat="48.51603" lon="1.94699">
        <ele>121</ele>
        <time>2009-10-25T09:05:25Z</time>
      </trkpt>
      <trkpt lat="48.51591" lon="1.94699">
        <ele>121</ele>
        <time>2009-10-25T09:06:07Z</time>
      </trkpt>
      <trkpt lat="48.5158" lon="1.94701">
        <ele>122</ele>
        <time>2009-10-25T09:06:12Z</time>
      </trkpt>
      <trkpt lat="48.51562" lon="1.94715">
        <ele>122</ele>
        <time>2009-10-25T09:06:19Z</time>
      </trkpt>
      <trkpt lat="48.51533" lon="1.94744">
        <ele>123</ele>
        <time>2009-10-25T09:06:29Z</time>
      </trkpt>
      <trkpt lat="48.51517" lon="1.94759">
        <ele>127</ele>
        <time>2009-10-25T09:06:33Z</time>
      </trkpt>
      <trkpt lat="48.5151" lon="1.94761">
        <ele>126</ele>
        <time>2009-10-25T09:06:36Z</time>
      </trkpt>
      <trkpt lat="48.51494" lon="1.94775">
        <ele>125</ele>
        <time>2009-10-25T09:06:41Z</time>
      </trkpt>
      <trkpt lat="48.51446" lon="1.94805">
        <ele>126</ele>
        <time>2009-10-25T09:06:53Z</time>
      </trkpt>
      <trkpt lat="48.51425" lon="1.94814">
        <ele>126</ele>
        <time>2009-10-25T09:06:57Z</time>
      </trkpt>
      <trkpt lat="48.51392" lon="1.9482">
        <ele>126</ele>
        <time>2009-10-25T09:07:05Z</time>
      </trkpt>
      <trkpt lat="48.51371" lon="1.94798">
        <ele>126</ele>
        <time>2009-10-25T09:07:13Z</time>
      </trkpt>
      <trkpt lat="48.5135" lon="1.94773">
        <ele>126</ele>
        <time>2009-10-25T09:07:18Z</time>
      </trkpt>
      <trkpt lat="48.5132" lon="1.9475">
        <ele>130</ele>
        <time>2009-10-25T09:07:23Z</time>
      </trkpt>
      <trkpt lat="48.51297" lon="1.94712">
        <ele>132</ele>
        <time>2009-10-25T09:07:32Z</time>
      </trkpt>
      <trkpt lat="48.5129" lon="1.94671">
        <ele>132</ele>
        <time>2009-10-25T09:07:40Z</time>
      </trkpt>
      <trkpt lat="48.51284" lon="1.94618">
        <ele>132</ele>
        <time>2009-10-25T09:07:49Z</time>
      </trkpt>
      <trkpt lat="48.51294" lon="1.94558">
        <ele>130</ele>
        <time>2009-10-25T09:07:58Z</time>
      </trkpt>
      <trkpt lat="48.513" lon="1.94535">
        <ele>129</ele>
        <time>2009-10-25T09:08:02Z</time>
      </trkpt>
      <trkpt lat="48.51311" lon="1.94527">
        <ele>128</ele>
        <time>2009-10-25T09:08:06Z</time>
      </trkpt>
      <trkpt lat="48.51335" lon="1.94557">
        <ele>121</ele>
        <time>2009-10-25T09:08:15Z</time>
      </trkpt>
      <trkpt lat="48.51345" lon="1.94533">
        <ele>120</ele>
        <time>2009-10-25T09:08:22Z</time>
      </trkpt>
      <trkpt lat="48.51342" lon="1.94476">
        <ele>119</ele>
        <time>2009-10-25T09:08:34Z</time>
      </trkpt>
      <trkpt lat="48.5134" lon="1.94432">
        <ele>119</ele>
        <time>2009-10-25T09:08:42Z</time>
      </trkpt>
      <trkpt lat="48.5136" lon="1.94372">
        <ele>120</ele>
        <time>2009-10-25T09:08:52Z</time>
      </trkpt>
      <trkpt lat="48.5138" lon="1.94296">
        <ele>121</ele>
        <time>2009-10-25T09:09:05Z</time>
      </trkpt>
      <trkpt lat="48.51386" lon="1.94252">
        <ele>121</ele>
        <time>2009-10-25T09:09:11Z</time>
      </trkpt>
      <trkpt lat="48.51366" lon="1.94185">
        <ele>124</ele>
        <time>2009-10-25T09:09:24Z</time>
      </trkpt>
      <trkpt lat="48.51346" lon="1.94142">
        <ele>126</ele>
        <time>2009-10-25T09:09:36Z</time>
      </trkpt>
      <trkpt lat="48.51325" lon="1.94103">
        <ele>132</ele>
        <time>2009-10-25T09:09:47Z</time>
      </trkpt>
      <trkpt lat="48.51305" lon="1.94063">
        <ele>132</ele>
        <time>2009-10-25T09:09:57Z</time>
      </trkpt>
      <trkpt lat="48.51303" lon="1.94057">
        <ele>132</ele>
        <time>2009-10-25T09:09:58Z</time>
      </trkpt>
      <trkpt lat="48.51287" lon="1.94012">
        <ele>133</ele>
        <time>2009-10-25T09:10:05Z</time>
      </trkpt>
      <trkpt lat="48.5128" lon="1.93994">
        <ele>131</ele>
        <time>2009-10-25T09:10:08Z</time>
      </trkpt>
      <trkpt lat="48.51273" lon="1.93963">
        <ele>131</ele>
        <time>2009-10-25T09:10:15Z</time>
      </trkpt>
      <trkpt lat="48.51261" lon="1.93894">
        <ele>129</ele>
        <time>2009-10-25T09:10:25Z</time>
      </trkpt>
      <trkpt lat="48.51254" lon="1.93861">
        <ele>128</ele>
        <time>2009-10-25T09:10:29Z</time>
      </trkpt>
      <trkpt lat="48.51239" lon="1.93828">
        <ele>128</ele>
        <time>2009-10-25T09:10:33Z</time>
      </trkpt>
      <trkpt lat="48.51231" lon="1.93797">
        <ele>129</ele>
        <time>2009-10-25T09:10:37Z</time>
      </trkpt>
      <trkpt lat="48.51199" lon="1.93709">
        <ele>129</ele>
        <time>2009-10-25T09:10:44Z</time>
      </trkpt>
      <trkpt lat="48.51191" lon="1.93666">
        <ele>129</ele>
        <time>2009-10-25T09:10:48Z</time>
      </trkpt>
      <trkpt lat="48.51171" lon="1.93612">
        <ele>128</ele>
        <time>2009-10-25T09:10:53Z</time>
      </trkpt>
      <trkpt lat="48.51151" lon="1.93492">
        <ele>128</ele>
        <time>2009-10-25T09:11:06Z</time>
      </trkpt>
      <trkpt lat="48.5115" lon="1.93486">
        <ele>129</ele>
        <time>2009-10-25T09:11:07Z</time>
      </trkpt>
      <trkpt lat="48.51127" lon="1.93429">
        <ele>131</ele>
        <time>2009-10-25T09:11:12Z</time>
      </trkpt>
      <trkpt lat="48.51104" lon="1.93356">
        <ele>132</ele>
        <time>2009-10-25T09:11:21Z</time>
      </trkpt>
      <trkpt lat="48.51089" lon="1.93314">
        <ele>131</ele>
        <time>2009-10-25T09:11:30Z</time>
      </trkpt>
      <trkpt lat="48.51082" lon="1.93257">
        <ele>132</ele>
        <time>2009-10-25T09:11:41Z</time>
      </trkpt>
      <trkpt lat="48.51082" lon="1.93251">
        <ele>131</ele>
        <time>2009-10-25T09:11:42Z</time>
      </trkpt>
      <trkpt lat="48.51063" lon="1.93193">
        <ele>133</ele>
        <time>2009-10-25T09:11:51Z</time>
      </trkpt>
      <trkpt lat="48.51044" lon="1.93174">
        <ele>133</ele>
        <time>2009-10-25T09:11:55Z</time>
      </trkpt>
      <trkpt lat="48.51" lon="1.93136">
        <ele>131</ele>
        <time>2009-10-25T09:12:02Z</time>
      </trkpt>
      <trkpt lat="48.50985" lon="1.93116">
        <ele>130</ele>
        <time>2009-10-25T09:12:06Z</time>
      </trkpt>
      <trkpt lat="48.50962" lon="1.93064">
        <ele>127</ele>
        <time>2009-10-25T09:12:16Z</time>
      </trkpt>
      <trkpt lat="48.50935" lon="1.93025">
        <ele>127</ele>
        <time>2009-10-25T09:12:25Z</time>
      </trkpt>
      <trkpt lat="48.5093" lon="1.93018">
        <ele>127</ele>
        <time>2009-10-25T09:12:26Z</time>
      </trkpt>
      <trkpt lat="48.50932" lon="1.9299">
        <ele>127</ele>
        <time>2009-10-25T09:12:32Z</time>
      </trkpt>
      <trkpt lat="48.50952" lon="1.92929">
        <ele>128</ele>
        <time>2009-10-25T09:12:47Z</time>
      </trkpt>
      <trkpt lat="48.50977" lon="1.9291">
        <ele>129</ele>
        <time>2009-10-25T09:12:57Z</time>
      </trkpt>
      <trkpt lat="48.50986" lon="1.92901">
        <ele>129</ele>
        <time>2009-10-25T09:13:01Z</time>
      </trkpt>
      <trkpt lat="48.50994" lon="1.92863">
        <ele>128</ele>
        <time>2009-10-25T09:13:13Z</time>
      </trkpt>
      <trkpt lat="48.51011" lon="1.92859">
        <ele>129</ele>
        <time>2009-10-25T09:13:19Z</time>
      </trkpt>
      <trkpt lat="48.51012" lon="1.92837">
        <ele>129</ele>
        <time>2009-10-25T09:13:23Z</time>
      </trkpt>
      <trkpt lat="48.50993" lon="1.92748">
        <ele>127</ele>
        <time>2009-10-25T09:13:33Z</time>
      </trkpt>
      <trkpt lat="48.50975" lon="1.92639">
        <ele>129</ele>
        <time>2009-10-25T09:13:45Z</time>
      </trkpt>
      <trkpt lat="48.50967" lon="1.92596">
        <ele>129</ele>
        <time>2009-10-25T09:13:50Z</time>
      </trkpt>
      <trkpt lat="48.50967" lon="1.92551">
        <ele>131</ele>
        <time>2009-10-25T09:13:56Z</time>
      </trkpt>
      <trkpt lat="48.50973" lon="1.92524">
        <ele>131</ele>
        <time>2009-10-25T09:14:00Z</time>
      </trkpt>
      <trkpt lat="48.50975" lon="1.92491">
        <ele>133</ele>
        <time>2009-10-25T09:14:05Z</time>
      </trkpt>
      <trkpt lat="48.50973" lon="1.92477">
        <ele>133</ele>
        <time>2009-10-25T09:14:07Z</time>
      </trkpt>
      <trkpt lat="48.50966" lon="1.92452">
        <ele>133</ele>
        <time>2009-10-25T09:14:11Z</time>
      </trkpt>
      <trkpt lat="48.50958" lon="1.92417">
        <ele>133</ele>
        <time>2009-10-25T09:14:16Z</time>
      </trkpt>
      <trkpt lat="48.50946" lon="1.92308">
        <ele>136</ele>
        <time>2009-10-25T09:14:30Z</time>
      </trkpt>
      <trkpt lat="48.50942" lon="1.9228">
        <ele>136</ele>
        <time>2009-10-25T09:14:33Z</time>
      </trkpt>
      <trkpt lat="48.50935" lon="1.9224">
        <ele>136</ele>
        <time>2009-10-25T09:14:38Z</time>
      </trkpt>
      <trkpt lat="48.50932" lon="1.92217">
        <ele>137</ele>
        <time>2009-10-25T09:14:41Z</time>
      </trkpt>
      <trkpt lat="48.50936" lon="1.92191">
        <ele>137</ele>
        <time>2009-10-25T09:14:44Z</time>
      </trkpt>
      <trkpt lat="48.50937" lon="1.92162">
        <ele>138</ele>
        <time>2009-10-25T09:14:48Z</time>
      </trkpt>
      <trkpt lat="48.50935" lon="1.92131">
        <ele>140</ele>
        <time>2009-10-25T09:14:52Z</time>
      </trkpt>
      <trkpt lat="48.50925" lon="1.92081">
        <ele>140</ele>
        <time>2009-10-25T09:15:00Z</time>
      </trkpt>
      <trkpt lat="48.50918" lon="1.92061">
        <ele>141</ele>
        <time>2009-10-25T09:15:02Z</time>
      </trkpt>
      <trkpt lat="48.50898" lon="1.91981">
        <ele>137</ele>
        <time>2009-10-25T09:15:12Z</time>
      </trkpt>
      <trkpt lat="48.50887" lon="1.91943">
        <ele>136</ele>
        <time>2009-10-25T09:15:19Z</time>
      </trkpt>
      <trkpt lat="48.5089" lon="1.91907">
        <ele>135</ele>
        <time>2009-10-25T09:15:24Z</time>
      </trkpt>
      <trkpt lat="48.50902" lon="1.91881">
        <ele>135</ele>
        <time>2009-10-25T09:15:31Z</time>
      </trkpt>
      <trkpt lat="48.50911" lon="1.91871">
        <ele>135</ele>
        <time>2009-10-25T09:15:35Z</time>
      </trkpt>
      <trkpt lat="48.50942" lon="1.91848">
        <ele>140</ele>
        <time>2009-10-25T09:15:46Z</time>
      </trkpt>
      <trkpt lat="48.50967" lon="1.91825">
        <ele>138</ele>
        <time>2009-10-25T09:15:57Z</time>
      </trkpt>
      <trkpt lat="48.50984" lon="1.9181">
        <ele>138</ele>
        <time>2009-10-25T09:16:08Z</time>
      </trkpt>
      <trkpt lat="48.51019" lon="1.91795">
        <ele>144</ele>
        <time>2009-10-25T09:16:23Z</time>
      </trkpt>
      <trkpt lat="48.51048" lon="1.91792">
        <ele>145</ele>
        <time>2009-10-25T09:16:35Z</time>
      </trkpt>
      <trkpt lat="48.51073" lon="1.9178">
        <ele>146</ele>
        <time>2009-10-25T09:16:48Z</time>
      </trkpt>
      <trkpt lat="48.51092" lon="1.91771">
        <ele>151</ele>
        <time>2009-10-25T09:16:59Z</time>
      </trkpt>
      <trkpt lat="48.51113" lon="1.91765">
        <ele>151</ele>
        <time>2009-10-25T09:17:11Z</time>
      </trkpt>
      <trkpt lat="48.51131" lon="1.91762">
        <ele>152</ele>
        <time>2009-10-25T09:17:19Z</time>
      </trkpt>
      <trkpt lat="48.51165" lon="1.91748">
        <ele>153</ele>
        <time>2009-10-25T09:17:33Z</time>
      </trkpt>
      <trkpt lat="48.51206" lon="1.9176">
        <ele>155</ele>
        <time>2009-10-25T09:17:46Z</time>
      </trkpt>
      <trkpt lat="48.51252" lon="1.918">
        <ele>157</ele>
        <time>2009-10-25T09:18:01Z</time>
      </trkpt>
      <trkpt lat="48.51302" lon="1.91847">
        <ele>159</ele>
        <time>2009-10-25T09:18:16Z</time>
      </trkpt>
      <trkpt lat="48.51345" lon="1.91881">
        <ele>159</ele>
        <time>2009-10-25T09:18:29Z</time>
      </trkpt>
      <trkpt lat="48.51395" lon="1.91883">
        <ele>159</ele>
        <time>2009-10-25T09:18:43Z</time>
      </trkpt>
      <trkpt lat="48.51433" lon="1.91857">
        <ele>159</ele>
        <time>2009-10-25T09:18:53Z</time>
      </trkpt>
      <trkpt lat="48.51446" lon="1.91836">
        <ele>159</ele>
        <time>2009-10-25T09:18:57Z</time>
      </trkpt>
      <trkpt lat="48.51466" lon="1.91823">
        <ele>159</ele>
        <time>2009-10-25T09:19:02Z</time>
      </trkpt>
      <trkpt lat="48.51563" lon="1.9186">
        <ele>158</ele>
        <time>2009-10-25T09:19:18Z</time>
      </trkpt>
      <trkpt lat="48.51635" lon="1.91861">
        <ele>158</ele>
        <time>2009-10-25T09:19:29Z</time>
      </trkpt>
      <trkpt lat="48.5173" lon="1.91853">
        <ele>157</ele>
        <time>2009-10-25T09:19:45Z</time>
      </trkpt>
      <trkpt lat="48.51819" lon="1.91839">
        <ele>157</ele>
        <time>2009-10-25T09:20:02Z</time>
      </trkpt>
      <trkpt lat="48.51898" lon="1.91826">
        <ele>158</ele>
        <time>2009-10-25T09:20:15Z</time>
      </trkpt>
      <trkpt lat="48.51995" lon="1.91808">
        <ele>158</ele>
        <time>2009-10-25T09:20:32Z</time>
      </trkpt>
      <trkpt lat="48.52072" lon="1.91788">
        <ele>158</ele>
        <time>2009-10-25T09:20:47Z</time>
      </trkpt>
      <trkpt lat="48.52151" lon="1.91747">
        <ele>160</ele>
        <time>2009-10-25T09:21:03Z</time>
      </trkpt>
      <trkpt lat="48.52164" lon="1.9174">
        <ele>160</ele>
        <time>2009-10-25T09:21:06Z</time>
      </trkpt>
      <trkpt lat="48.52242" lon="1.91737">
        <ele>159</ele>
        <time>2009-10-25T09:21:19Z</time>
      </trkpt>
      <trkpt lat="48.52334" lon="1.91773">
        <ele>157</ele>
        <time>2009-10-25T09:21:32Z</time>
      </trkpt>
      <trkpt lat="48.52365" lon="1.91787">
        <ele>157</ele>
        <time>2009-10-25T09:21:37Z</time>
      </trkpt>
      <trkpt lat="48.52374" lon="1.91791">
        <ele>157</ele>
        <time>2009-10-25T09:21:39Z</time>
      </trkpt>
      <trkpt lat="48.5246" lon="1.91809">
        <ele>156</ele>
        <time>2009-10-25T09:21:51Z</time>
      </trkpt>
      <trkpt lat="48.52467" lon="1.91811">
        <ele>156</ele>
        <time>2009-10-25T09:21:52Z</time>
      </trkpt>
      <trkpt lat="48.52488" lon="1.91806">
        <ele>156</ele>
        <time>2009-10-25T09:21:55Z</time>
      </trkpt>
      <trkpt lat="48.52569" lon="1.91747">
        <ele>158</ele>
        <time>2009-10-25T09:22:09Z</time>
      </trkpt>
      <trkpt lat="48.52631" lon="1.91728">
        <ele>159</ele>
        <time>2009-10-25T09:22:20Z</time>
      </trkpt>
      <trkpt lat="48.52655" lon="1.91742">
        <ele>159</ele>
        <time>2009-10-25T09:22:25Z</time>
      </trkpt>
      <trkpt lat="48.52679" lon="1.91779">
        <ele>158</ele>
        <time>2009-10-25T09:22:31Z</time>
      </trkpt>
      <trkpt lat="48.52763" lon="1.91839">
        <ele>158</ele>
        <time>2009-10-25T09:22:47Z</time>
      </trkpt>
      <trkpt lat="48.52865" lon="1.91911">
        <ele>157</ele>
        <time>2009-10-25T09:23:06Z</time>
      </trkpt>
      <trkpt lat="48.52913" lon="1.91945">
        <ele>156</ele>
        <time>2009-10-25T09:23:14Z</time>
      </trkpt>
      <trkpt lat="48.53014" lon="1.92013">
        <ele>153</ele>
        <time>2009-10-25T09:23:31Z</time>
      </trkpt>
      <trkpt lat="48.53119" lon="1.92086">
        <ele>151</ele>
        <time>2009-10-25T09:23:46Z</time>
      </trkpt>
      <trkpt lat="48.53138" lon="1.92099">
        <ele>152</ele>
        <time>2009-10-25T09:23:49Z</time>
      </trkpt>
      <trkpt lat="48.53175" lon="1.92138">
        <ele>157</ele>
        <time>2009-10-25T09:23:59Z</time>
      </trkpt>
      <trkpt lat="48.53202" lon="1.92155">
        <ele>158</ele>
        <time>2009-10-25T09:24:12Z</time>
      </trkpt>
      <trkpt lat="48.53224" lon="1.92183">
        <ele>160</ele>
        <time>2009-10-25T09:24:23Z</time>
      </trkpt>
      <trkpt lat="48.53245" lon="1.92217">
        <ele>161</ele>
        <time>2009-10-25T09:24:33Z</time>
      </trkpt>
      <trkpt lat="48.53292" lon="1.92258">
        <ele>163</ele>
        <time>2009-10-25T09:24:47Z</time>
      </trkpt>
      <trkpt lat="48.53328" lon="1.92278">
        <ele>163</ele>
        <time>2009-10-25T09:24:58Z</time>
      </trkpt>
      <trkpt lat="48.53366" lon="1.92295">
        <ele>163</ele>
        <time>2009-10-25T09:25:07Z</time>
      </trkpt>
      <trkpt lat="48.53396" lon="1.92319">
        <ele>164</ele>
        <time>2009-10-25T09:25:16Z</time>
      </trkpt>
      <trkpt lat="48.53403" lon="1.92331">
        <ele>164</ele>
        <time>2009-10-25T09:25:19Z</time>
      </trkpt>
      <trkpt lat="48.53433" lon="1.92376">
        <ele>164</ele>
        <time>2009-10-25T09:25:28Z</time>
      </trkpt>
      <trkpt lat="48.5347" lon="1.92431">
        <ele>164</ele>
        <time>2009-10-25T09:25:39Z</time>
      </trkpt>
      <trkpt lat="48.53504" lon="1.92479">
        <ele>165</ele>
        <time>2009-10-25T09:25:47Z</time>
      </trkpt>
      <trkpt lat="48.53519" lon="1.92514">
        <ele>165</ele>
        <time>2009-10-25T09:25:52Z</time>
      </trkpt>
      <trkpt lat="48.53531" lon="1.92537">
        <ele>165</ele>
        <time>2009-10-25T09:25:56Z</time>
      </trkpt>
      <trkpt lat="48.53552" lon="1.92567">
        <ele>165</ele>
        <time>2009-10-25T09:26:01Z</time>
      </trkpt>
      <trkpt lat="48.536" lon="1.92634">
        <ele>164</ele>
        <time>2009-10-25T09:26:11Z</time>
      </trkpt>
      <trkpt lat="48.53634" lon="1.92664">
        <ele>164</ele>
        <time>2009-10-25T09:26:16Z</time>
      </trkpt>
      <trkpt lat="48.53649" lon="1.92671">
        <ele>163</ele>
        <time>2009-10-25T09:26:18Z</time>
      </trkpt>
      <trkpt lat="48.53698" lon="1.92686">
        <ele>160</ele>
        <time>2009-10-25T09:26:23Z</time>
      </trkpt>
      <trkpt lat="48.5372" lon="1.92696">
        <ele>160</ele>
        <time>2009-10-25T09:26:26Z</time>
      </trkpt>
      <trkpt lat="48.53751" lon="1.9271">
        <ele>155</ele>
        <time>2009-10-25T09:26:29Z</time>
      </trkpt>
      <trkpt lat="48.5387" lon="1.9279">
        <ele>148</ele>
        <time>2009-10-25T09:26:40Z</time>
      </trkpt>
      <trkpt lat="48.53894" lon="1.92812">
        <ele>149</ele>
        <time>2009-10-25T09:26:44Z</time>
      </trkpt>
      <trkpt lat="48.53902" lon="1.9283">
        <ele>150</ele>
        <time>2009-10-25T09:26:46Z</time>
      </trkpt>
      <trkpt lat="48.53926" lon="1.92884">
        <ele>156</ele>
        <time>2009-10-25T09:26:56Z</time>
      </trkpt>
      <trkpt lat="48.53952" lon="1.9292">
        <ele>158</ele>
        <time>2009-10-25T09:27:06Z</time>
      </trkpt>
      <trkpt lat="48.53987" lon="1.9296">
        <ele>159</ele>
        <time>2009-10-25T09:27:20Z</time>
      </trkpt>
      <trkpt lat="48.5402" lon="1.92997">
        <ele>163</ele>
        <time>2009-10-25T09:27:32Z</time>
      </trkpt>
      <trkpt lat="48.54047" lon="1.93036">
        <ele>161</ele>
        <time>2009-10-25T09:27:42Z</time>
      </trkpt>
      <trkpt lat="48.54053" lon="1.93048">
        <ele>161</ele>
        <time>2009-10-25T09:27:44Z</time>
      </trkpt>
      <trkpt lat="48.54088" lon="1.93154">
        <ele>154</ele>
        <time>2009-10-25T09:27:58Z</time>
      </trkpt>
      <trkpt lat="48.54156" lon="1.93298">
        <ele>147</ele>
        <time>2009-10-25T09:28:14Z</time>
      </trkpt>
      <trkpt lat="48.54248" lon="1.9347">
        <ele>139</ele>
        <time>2009-10-25T09:28:33Z</time>
      </trkpt>
      <trkpt lat="48.54291" lon="1.93606">
        <ele>134</ele>
        <time>2009-10-25T09:28:47Z</time>
      </trkpt>
      <trkpt lat="48.54319" lon="1.93672">
        <ele>133</ele>
        <time>2009-10-25T09:28:54Z</time>
      </trkpt>
      <trkpt lat="48.54343" lon="1.93713">
        <ele>132</ele>
        <time>2009-10-25T09:28:58Z</time>
      </trkpt>
      <trkpt lat="48.54371" lon="1.93771">
        <ele>132</ele>
        <time>2009-10-25T09:29:05Z</time>
      </trkpt>
      <trkpt lat="48.54395" lon="1.93852">
        <ele>134</ele>
        <time>2009-10-25T09:29:16Z</time>
      </trkpt>
      <trkpt lat="48.5441" lon="1.93875">
        <ele>135</ele>
        <time>2009-10-25T09:29:20Z</time>
      </trkpt>
      <trkpt lat="48.54437" lon="1.93909">
        <ele>140</ele>
        <time>2009-10-25T09:29:31Z</time>
      </trkpt>
      <trkpt lat="48.54451" lon="1.93922">
        <ele>146</ele>
        <time>2009-10-25T09:29:35Z</time>
      </trkpt>
      <trkpt lat="48.54456" lon="1.93929">
        <ele>146</ele>
        <time>2009-10-25T09:29:39Z</time>
      </trkpt>
      <trkpt lat="48.5447" lon="1.93933">
        <ele>147</ele>
        <time>2009-10-25T09:29:45Z</time>
      </trkpt>
      <trkpt lat="48.54487" lon="1.93936">
        <ele>147</ele>
        <time>2009-10-25T09:29:55Z</time>
      </trkpt>
      <trkpt lat="48.54504" lon="1.93935">
        <ele>150</ele>
        <time>2009-10-25T09:30:02Z</time>
      </trkpt>
      <trkpt lat="48.54508" lon="1.93936">
        <ele>150</ele>
        <time>2009-10-25T09:30:04Z</time>
      </trkpt>
      <trkpt lat="48.54531" lon="1.93949">
        <ele>153</ele>
        <time>2009-10-25T09:30:19Z</time>
      </trkpt>
      <trkpt lat="48.54546" lon="1.93977">
        <ele>154</ele>
        <time>2009-10-25T09:30:36Z</time>
      </trkpt>
      <trkpt lat="48.54568" lon="1.94005">
        <ele>160</ele>
        <time>2009-10-25T09:30:51Z</time>
      </trkpt>
      <trkpt lat="48.54579" lon="1.94021">
        <ele>160</ele>
        <time>2009-10-25T09:31:00Z</time>
      </trkpt>
      <trkpt lat="48.54588" lon="1.94032">
        <ele>164</ele>
        <time>2009-10-25T09:31:05Z</time>
      </trkpt>
      <trkpt lat="48.54594" lon="1.94039">
        <ele>164</ele>
        <time>2009-10-25T09:31:10Z</time>
      </trkpt>
      <trkpt lat="48.54602" lon="1.94052">
        <ele>165</ele>
        <time>2009-10-25T09:31:17Z</time>
      </trkpt>
      <trkpt lat="48.54634" lon="1.94045">
        <ele>166</ele>
        <time>2009-10-25T09:31:31Z</time>
      </trkpt>
      <trkpt lat="48.54668" lon="1.94022">
        <ele>169</ele>
        <time>2009-10-25T09:31:44Z</time>
      </trkpt>
      <trkpt lat="48.54699" lon="1.94004">
        <ele>169</ele>
        <time>2009-10-25T09:31:53Z</time>
      </trkpt>
      <trkpt lat="48.54742" lon="1.93986">
        <ele>170</ele>
        <time>2009-10-25T09:32:03Z</time>
      </trkpt>
      <trkpt lat="48.54779" lon="1.93971">
        <ele>170</ele>
        <time>2009-10-25T09:32:10Z</time>
      </trkpt>
      <trkpt lat="48.54797" lon="1.93959">
        <ele>170</ele>
        <time>2009-10-25T09:32:14Z</time>
      </trkpt>
      <trkpt lat="48.54808" lon="1.93926">
        <ele>169</ele>
        <time>2009-10-25T09:32:19Z</time>
      </trkpt>
      <trkpt lat="48.54814" lon="1.93905">
        <ele>169</ele>
        <time>2009-10-25T09:32:22Z</time>
      </trkpt>
      <trkpt lat="48.54813" lon="1.93846">
        <ele>170</ele>
        <time>2009-10-25T09:32:30Z</time>
      </trkpt>
      <trkpt lat="48.54821" lon="1.93756">
        <ele>170</ele>
        <time>2009-10-25T09:32:41Z</time>
      </trkpt>
      <trkpt lat="48.54833" lon="1.93674">
        <ele>169</ele>
        <time>2009-10-25T09:32:52Z</time>
      </trkpt>
      <trkpt lat="48.5485" lon="1.9363">
        <ele>168</ele>
        <time>2009-10-25T09:32:59Z</time>
      </trkpt>
      <trkpt lat="48.54887" lon="1.93578">
        <ele>166</ele>
        <time>2009-10-25T09:33:09Z</time>
      </trkpt>
      <trkpt lat="48.54903" lon="1.93572">
        <ele>166</ele>
        <time>2009-10-25T09:33:12Z</time>
      </trkpt>
      <trkpt lat="48.54962" lon="1.93548">
        <ele>167</ele>
        <time>2009-10-25T09:33:22Z</time>
      </trkpt>
      <trkpt lat="48.54992" lon="1.93539">
        <ele>167</ele>
        <time>2009-10-25T09:33:27Z</time>
      </trkpt>
      <trkpt lat="48.5505" lon="1.93516">
        <ele>168</ele>
        <time>2009-10-25T09:33:37Z</time>
      </trkpt>
      <trkpt lat="48.55086" lon="1.93491">
        <ele>167</ele>
        <time>2009-10-25T09:33:47Z</time>
      </trkpt>
      <trkpt lat="48.5511" lon="1.93461">
        <ele>167</ele>
        <time>2009-10-25T09:33:53Z</time>
      </trkpt>
      <trkpt lat="48.55136" lon="1.93435">
        <ele>167</ele>
        <time>2009-10-25T09:33:58Z</time>
      </trkpt>
      <trkpt lat="48.5517" lon="1.93402">
        <ele>165</ele>
        <time>2009-10-25T09:34:05Z</time>
      </trkpt>
      <trkpt lat="48.55229" lon="1.93335">
        <ele>161</ele>
        <time>2009-10-25T09:34:16Z</time>
      </trkpt>
      <trkpt lat="48.55232" lon="1.93329">
        <ele>159</ele>
        <time>2009-10-25T09:34:17Z</time>
      </trkpt>
      <trkpt lat="48.55235" lon="1.93303">
        <ele>159</ele>
        <time>2009-10-25T09:34:22Z</time>
      </trkpt>
      <trkpt lat="48.55225" lon="1.93289">
        <ele>159</ele>
        <time>2009-10-25T09:34:25Z</time>
      </trkpt>
      <trkpt lat="48.55197" lon="1.93267">
        <ele>160</ele>
        <time>2009-10-25T09:34:30Z</time>
      </trkpt>
      <trkpt lat="48.55174" lon="1.93259">
        <ele>161</ele>
        <time>2009-10-25T09:34:38Z</time>
      </trkpt>
      <trkpt lat="48.55141" lon="1.93249">
        <ele>162</ele>
        <time>2009-10-25T09:34:49Z</time>
      </trkpt>
      <trkpt lat="48.55106" lon="1.93236">
        <ele>163</ele>
        <time>2009-10-25T09:34:58Z</time>
      </trkpt>
      <trkpt lat="48.55077" lon="1.93222">
        <ele>165</ele>
        <time>2009-10-25T09:35:06Z</time>
      </trkpt>
      <trkpt lat="48.5505" lon="1.93171">
        <ele>164</ele>
        <time>2009-10-25T09:35:17Z</time>
      </trkpt>
      <trkpt lat="48.55006" lon="1.93116">
        <ele>161</ele>
        <time>2009-10-25T09:35:27Z</time>
      </trkpt>
      <trkpt lat="48.54962" lon="1.93072">
        <ele>151</ele>
        <time>2009-10-25T09:35:31Z</time>
      </trkpt>
      <trkpt lat="48.54941" lon="1.93045">
        <ele>149</ele>
        <time>2009-10-25T09:35:33Z</time>
      </trkpt>
      <trkpt lat="48.54903" lon="1.92972">
        <ele>142</ele>
        <time>2009-10-25T09:35:38Z</time>
      </trkpt>
      <trkpt lat="48.54888" lon="1.92906">
        <ele>142</ele>
        <time>2009-10-25T09:35:42Z</time>
      </trkpt>
      <trkpt lat="48.54873" lon="1.92837">
        <ele>142</ele>
        <time>2009-10-25T09:35:47Z</time>
      </trkpt>
      <trkpt lat="48.54848" lon="1.92808">
        <ele>142</ele>
        <time>2009-10-25T09:35:51Z</time>
      </trkpt>
      <trkpt lat="48.54834" lon="1.9281">
        <ele>141</ele>
        <time>2009-10-25T09:35:53Z</time>
      </trkpt>
      <trkpt lat="48.54792" lon="1.92801">
        <ele>140</ele>
        <time>2009-10-25T09:36:01Z</time>
      </trkpt>
      <trkpt lat="48.54784" lon="1.92792">
        <ele>141</ele>
        <time>2009-10-25T09:36:04Z</time>
      </trkpt>
      <trkpt lat="48.54791" lon="1.92735">
        <ele>142</ele>
        <time>2009-10-25T09:36:15Z</time>
      </trkpt>
      <trkpt lat="48.5482" lon="1.92639">
        <ele>144</ele>
        <time>2009-10-25T09:36:27Z</time>
      </trkpt>
      <trkpt lat="48.54859" lon="1.92506">
        <ele>145</ele>
        <time>2009-10-25T09:36:43Z</time>
      </trkpt>
      <trkpt lat="48.54891" lon="1.92401">
        <ele>144</ele>
        <time>2009-10-25T09:36:57Z</time>
      </trkpt>
      <trkpt lat="48.54932" lon="1.92262">
        <ele>144</ele>
        <time>2009-10-25T09:37:15Z</time>
      </trkpt>
      <trkpt lat="48.54944" lon="1.92221">
        <ele>144</ele>
        <time>2009-10-25T09:37:20Z</time>
      </trkpt>
      <trkpt lat="48.54978" lon="1.92102">
        <ele>146</ele>
        <time>2009-10-25T09:37:36Z</time>
      </trkpt>
      <trkpt lat="48.54997" lon="1.92036">
        <ele>148</ele>
        <time>2009-10-25T09:37:45Z</time>
      </trkpt>
      <trkpt lat="48.55012" lon="1.91996">
        <ele>150</ele>
        <time>2009-10-25T09:37:50Z</time>
      </trkpt>
      <trkpt lat="48.55018" lon="1.91965">
        <ele>150</ele>
        <time>2009-10-25T09:37:54Z</time>
      </trkpt>
      <trkpt lat="48.55046" lon="1.91867">
        <ele>151</ele>
        <time>2009-10-25T09:38:08Z</time>
      </trkpt>
      <trkpt lat="48.55061" lon="1.91815">
        <ele>153</ele>
        <time>2009-10-25T09:38:17Z</time>
      </trkpt>
      <trkpt lat="48.55074" lon="1.91733">
        <ele>157</ele>
        <time>2009-10-25T09:38:29Z</time>
      </trkpt>
      <trkpt lat="48.55077" lon="1.91703">
        <ele>158</ele>
        <time>2009-10-25T09:38:33Z</time>
      </trkpt>
      <trkpt lat="48.5508" lon="1.91683">
        <ele>158</ele>
        <time>2009-10-25T09:38:36Z</time>
      </trkpt>
      <trkpt lat="48.55081" lon="1.91669">
        <ele>159</ele>
        <time>2009-10-25T09:38:38Z</time>
      </trkpt>
      <trkpt lat="48.5508" lon="1.91623">
        <ele>161</ele>
        <time>2009-10-25T09:38:44Z</time>
      </trkpt>
      <trkpt lat="48.55082" lon="1.91559">
        <ele>162</ele>
        <time>2009-10-25T09:38:52Z</time>
      </trkpt>
      <trkpt lat="48.55082" lon="1.91483">
        <ele>161</ele>
        <time>2009-10-25T09:39:01Z</time>
      </trkpt>
      <trkpt lat="48.55077" lon="1.91441">
        <ele>161</ele>
        <time>2009-10-25T09:39:06Z</time>
      </trkpt>
      <trkpt lat="48.55088" lon="1.91297">
        <ele>156</ele>
        <time>2009-10-25T09:39:18Z</time>
      </trkpt>
      <trkpt lat="48.5511" lon="1.91295">
        <ele>156</ele>
        <time>2009-10-25T09:39:24Z</time>
      </trkpt>
      <trkpt lat="48.55126" lon="1.91328">
        <ele>156</ele>
        <time>2009-10-25T09:39:30Z</time>
      </trkpt>
      <trkpt lat="48.55142" lon="1.91446">
        <ele>156</ele>
        <time>2009-10-25T09:39:45Z</time>
      </trkpt>
      <trkpt lat="48.55142" lon="1.91497">
        <ele>156</ele>
        <time>2009-10-25T09:39:55Z</time>
      </trkpt>
      <trkpt lat="48.55141" lon="1.91515">
        <ele>157</ele>
        <time>2009-10-25T09:40:08Z</time>
      </trkpt>
      <trkpt lat="48.55142" lon="1.91491">
        <ele>156</ele>
        <time>2009-10-25T09:46:08Z</time>
      </trkpt>
      <trkpt lat="48.55144" lon="1.91489">
        <ele>156</ele>
        <time>2009-10-25T09:46:29Z</time>
      </trkpt>
      <trkpt lat="48.55144" lon="1.91508">
        <ele>157</ele>
        <time>2009-10-25T09:47:13Z</time>
      </trkpt>
      <trkpt lat="48.55146" lon="1.91518">
        <ele>157</ele>
        <time>2009-10-25T09:47:36Z</time>
      </trkpt>
      <trkpt lat="48.55142" lon="1.91518">
        <ele>157</ele>
        <time>2009-10-25T09:48:00Z</time>
      </trkpt>
      <trkpt lat="48.55142" lon="1.91519">
        <ele>157</ele>
        <time>2009-10-25T09:48:13Z</time>
      </trkpt>
      <trkpt lat="48.55143" lon="1.91544">
        <ele>158</ele>
        <time>2009-10-25T09:48:20Z</time>
      </trkpt>
      <trkpt lat="48.55142" lon="1.91567">
        <ele>158</ele>
        <time>2009-10-25T09:48:23Z</time>
      </trkpt>
      <trkpt lat="48.55145" lon="1.9167">
        <ele>157</ele>
        <time>2009-10-25T09:48:34Z</time>
      </trkpt>
      <trkpt lat="48.55148" lon="1.91741">
        <ele>156</ele>
        <time>2009-10-25T09:48:44Z</time>
      </trkpt>
      <trkpt lat="48.55152" lon="1.91755">
        <ele>155</ele>
        <time>2009-10-25T09:48:47Z</time>
      </trkpt>
      <trkpt lat="48.55169" lon="1.91769">
        <ele>157</ele>
        <time>2009-10-25T09:48:55Z</time>
      </trkpt>
      <trkpt lat="48.55175" lon="1.91774">
        <ele>158</ele>
        <time>2009-10-25T09:48:57Z</time>
      </trkpt>
      <trkpt lat="48.5518" lon="1.91782">
        <ele>158</ele>
        <time>2009-10-25T09:49:02Z</time>
      </trkpt>
      <trkpt lat="48.55188" lon="1.91789">
        <ele>158</ele>
        <time>2009-10-25T09:49:09Z</time>
      </trkpt>
      <trkpt lat="48.55206" lon="1.91807">
        <ele>159</ele>
        <time>2009-10-25T09:49:20Z</time>
      </trkpt>
      <trkpt lat="48.55208" lon="1.91811">
        <ele>160</ele>
        <time>2009-10-25T09:49:22Z</time>
      </trkpt>
      <trkpt lat="48.55209" lon="1.9182">
        <ele>160</ele>
        <time>2009-10-25T09:49:26Z</time>
      </trkpt>
      <trkpt lat="48.55211" lon="1.91859">
        <ele>160</ele>
        <time>2009-10-25T09:49:38Z</time>
      </trkpt>
      <trkpt lat="48.55215" lon="1.91891">
        <ele>160</ele>
        <time>2009-10-25T09:49:44Z</time>
      </trkpt>
      <trkpt lat="48.55224" lon="1.91954">
        <ele>161</ele>
        <time>2009-10-25T09:49:53Z</time>
      </trkpt>
      <trkpt lat="48.55229" lon="1.91996">
        <ele>162</ele>
        <time>2009-10-25T09:49:59Z</time>
      </trkpt>
      <trkpt lat="48.5523" lon="1.9204">
        <ele>162</ele>
        <time>2009-10-25T09:50:04Z</time>
      </trkpt>
      <trkpt lat="48.55233" lon="1.92106">
        <ele>163</ele>
        <time>2009-10-25T09:50:16Z</time>
      </trkpt>
      <trkpt lat="48.55238" lon="1.92154">
        <ele>165</ele>
        <time>2009-10-25T09:50:26Z</time>
      </trkpt>
      <trkpt lat="48.55244" lon="1.92194">
        <ele>165</ele>
        <time>2009-10-25T09:50:34Z</time>
      </trkpt>
      <trkpt lat="48.55245" lon="1.92255">
        <ele>167</ele>
        <time>2009-10-25T09:50:45Z</time>
      </trkpt>
      <trkpt lat="48.55252" lon="1.92314">
        <ele>168</ele>
        <time>2009-10-25T09:50:54Z</time>
      </trkpt>
      <trkpt lat="48.55244" lon="1.92341">
        <ele>167</ele>
        <time>2009-10-25T09:50:58Z</time>
      </trkpt>
      <trkpt lat="48.5524" lon="1.92374">
        <ele>165</ele>
        <time>2009-10-25T09:51:04Z</time>
      </trkpt>
      <trkpt lat="48.5526" lon="1.92441">
        <ele>167</ele>
        <time>2009-10-25T09:51:14Z</time>
      </trkpt>
      <trkpt lat="48.55273" lon="1.92481">
        <ele>166</ele>
        <time>2009-10-25T09:51:19Z</time>
      </trkpt>
      <trkpt lat="48.5528" lon="1.92501">
        <ele>165</ele>
        <time>2009-10-25T09:51:22Z</time>
      </trkpt>
      <trkpt lat="48.55286" lon="1.92525">
        <ele>165</ele>
        <time>2009-10-25T09:51:25Z</time>
      </trkpt>
      <trkpt lat="48.55293" lon="1.92553">
        <ele>164</ele>
        <time>2009-10-25T09:51:28Z</time>
      </trkpt>
      <trkpt lat="48.55318" lon="1.92621">
        <ele>162</ele>
        <time>2009-10-25T09:51:35Z</time>
      </trkpt>
      <trkpt lat="48.55327" lon="1.9266">
        <ele>162</ele>
        <time>2009-10-25T09:51:40Z</time>
      </trkpt>
      <trkpt lat="48.55328" lon="1.9269">
        <ele>160</ele>
        <time>2009-10-25T09:51:43Z</time>
      </trkpt>
      <trkpt lat="48.55333" lon="1.92726">
        <ele>160</ele>
        <time>2009-10-25T09:51:47Z</time>
      </trkpt>
      <trkpt lat="48.55349" lon="1.9279">
        <ele>163</ele>
        <time>2009-10-25T09:51:56Z</time>
      </trkpt>
      <trkpt lat="48.55367" lon="1.92821">
        <ele>163</ele>
        <time>2009-10-25T09:52:03Z</time>
      </trkpt>
      <trkpt lat="48.55373" lon="1.92829">
        <ele>164</ele>
        <time>2009-10-25T09:52:05Z</time>
      </trkpt>
      <trkpt lat="48.55379" lon="1.92858">
        <ele>164</ele>
        <time>2009-10-25T09:52:10Z</time>
      </trkpt>
      <trkpt lat="48.55403" lon="1.92913">
        <ele>164</ele>
        <time>2009-10-25T09:52:19Z</time>
      </trkpt>
      <trkpt lat="48.55432" lon="1.9293">
        <ele>165</ele>
        <time>2009-10-25T09:52:25Z</time>
      </trkpt>
      <trkpt lat="48.55468" lon="1.9296">
        <ele>165</ele>
        <time>2009-10-25T09:52:34Z</time>
      </trkpt>
      <trkpt lat="48.55479" lon="1.92974">
        <ele>165</ele>
        <time>2009-10-25T09:52:38Z</time>
      </trkpt>
      <trkpt lat="48.55485" lon="1.92989">
        <ele>166</ele>
        <time>2009-10-25T09:52:40Z</time>
      </trkpt>
      <trkpt lat="48.55488" lon="1.93003">
        <ele>165</ele>
        <time>2009-10-25T09:52:42Z</time>
      </trkpt>
      <trkpt lat="48.55499" lon="1.9302">
        <ele>164</ele>
        <time>2009-10-25T09:52:45Z</time>
      </trkpt>
      <trkpt lat="48.55508" lon="1.93048">
        <ele>165</ele>
        <time>2009-10-25T09:52:49Z</time>
      </trkpt>
      <trkpt lat="48.5552" lon="1.93075">
        <ele>165</ele>
        <time>2009-10-25T09:52:53Z</time>
      </trkpt>
      <trkpt lat="48.55527" lon="1.93089">
        <ele>164</ele>
        <time>2009-10-25T09:52:55Z</time>
      </trkpt>
      <trkpt lat="48.55553" lon="1.93118">
        <ele>165</ele>
        <time>2009-10-25T09:53:00Z</time>
      </trkpt>
      <trkpt lat="48.5557" lon="1.93126">
        <ele>165</ele>
        <time>2009-10-25T09:53:03Z</time>
      </trkpt>
      <trkpt lat="48.55571" lon="1.93161">
        <ele>166</ele>
        <time>2009-10-25T09:53:09Z</time>
      </trkpt>
      <trkpt lat="48.55567" lon="1.93201">
        <ele>165</ele>
        <time>2009-10-25T09:53:15Z</time>
      </trkpt>
      <trkpt lat="48.55578" lon="1.93246">
        <ele>167</ele>
        <time>2009-10-25T09:53:22Z</time>
      </trkpt>
      <trkpt lat="48.55579" lon="1.9333">
        <ele>165</ele>
        <time>2009-10-25T09:53:34Z</time>
      </trkpt>
      <trkpt lat="48.55593" lon="1.93386">
        <ele>166</ele>
        <time>2009-10-25T09:53:42Z</time>
      </trkpt>
      <trkpt lat="48.55598" lon="1.93396">
        <ele>166</ele>
        <time>2009-10-25T09:53:44Z</time>
      </trkpt>
      <trkpt lat="48.55603" lon="1.93457">
        <ele>166</ele>
        <time>2009-10-25T09:53:52Z</time>
      </trkpt>
      <trkpt lat="48.55614" lon="1.93514">
        <ele>167</ele>
        <time>2009-10-25T09:54:01Z</time>
      </trkpt>
      <trkpt lat="48.55631" lon="1.93557">
        <ele>167</ele>
        <time>2009-10-25T09:54:07Z</time>
      </trkpt>
      <trkpt lat="48.55643" lon="1.93603">
        <ele>167</ele>
        <time>2009-10-25T09:54:12Z</time>
      </trkpt>
      <trkpt lat="48.55659" lon="1.9364">
        <ele>167</ele>
        <time>2009-10-25T09:54:17Z</time>
      </trkpt>
      <trkpt lat="48.55679" lon="1.93683">
        <ele>167</ele>
        <time>2009-10-25T09:54:23Z</time>
      </trkpt>
      <trkpt lat="48.55697" lon="1.93712">
        <ele>167</ele>
        <time>2009-10-25T09:54:28Z</time>
      </trkpt>
      <trkpt lat="48.55707" lon="1.93727">
        <ele>167</ele>
        <time>2009-10-25T09:54:31Z</time>
      </trkpt>
      <trkpt lat="48.55717" lon="1.93749">
        <ele>166</ele>
        <time>2009-10-25T09:54:35Z</time>
      </trkpt>
      <trkpt lat="48.5572" lon="1.93758">
        <ele>165</ele>
        <time>2009-10-25T09:54:38Z</time>
      </trkpt>
      <trkpt lat="48.55727" lon="1.93772">
        <ele>165</ele>
        <time>2009-10-25T09:54:42Z</time>
      </trkpt>
      <trkpt lat="48.55739" lon="1.93797">
        <ele>164</ele>
        <time>2009-10-25T09:54:48Z</time>
      </trkpt>
      <trkpt lat="48.55745" lon="1.93809">
        <ele>164</ele>
        <time>2009-10-25T09:54:51Z</time>
      </trkpt>
      <trkpt lat="48.55753" lon="1.93847">
        <ele>162</ele>
        <time>2009-10-25T09:54:56Z</time>
      </trkpt>
      <trkpt lat="48.55757" lon="1.93871">
        <ele>162</ele>
        <time>2009-10-25T09:54:59Z</time>
      </trkpt>
      <trkpt lat="48.5577" lon="1.93896">
        <ele>161</ele>
        <time>2009-10-25T09:55:04Z</time>
      </trkpt>
      <trkpt lat="48.55773" lon="1.93924">
        <ele>163</ele>
        <time>2009-10-25T09:55:10Z</time>
      </trkpt>
      <trkpt lat="48.55774" lon="1.93948">
        <ele>163</ele>
        <time>2009-10-25T09:55:21Z</time>
      </trkpt>
      <trkpt lat="48.55782" lon="1.93978">
        <ele>164</ele>
        <time>2009-10-25T09:55:29Z</time>
      </trkpt>
      <trkpt lat="48.55809" lon="1.94011">
        <ele>166</ele>
        <time>2009-10-25T09:55:41Z</time>
      </trkpt>
      <trkpt lat="48.55832" lon="1.94045">
        <ele>166</ele>
        <time>2009-10-25T09:55:49Z</time>
      </trkpt>
      <trkpt lat="48.55847" lon="1.94087">
        <ele>163</ele>
        <time>2009-10-25T09:55:56Z</time>
      </trkpt>
      <trkpt lat="48.55859" lon="1.94109">
        <ele>161</ele>
        <time>2009-10-25T09:56:00Z</time>
      </trkpt>
      <trkpt lat="48.55873" lon="1.94152">
        <ele>160</ele>
        <time>2009-10-25T09:56:09Z</time>
      </trkpt>
      <trkpt lat="48.55888" lon="1.94214">
        <ele>155</ele>
        <time>2009-10-25T09:56:18Z</time>
      </trkpt>
      <trkpt lat="48.55889" lon="1.94217">
        <ele>155</ele>
        <time>2009-10-25T09:56:19Z</time>
      </trkpt>
      <trkpt lat="48.55893" lon="1.94222">
        <ele>155</ele>
        <time>2009-10-25T09:56:23Z</time>
      </trkpt>
      <trkpt lat="48.559" lon="1.94239">
        <ele>154</ele>
        <time>2009-10-25T09:56:26Z</time>
      </trkpt>
      <trkpt lat="48.55919" lon="1.94261">
        <ele>150</ele>
        <time>2009-10-25T09:56:30Z</time>
      </trkpt>
      <trkpt lat="48.55935" lon="1.94282">
        <ele>149</ele>
        <time>2009-10-25T09:56:35Z</time>
      </trkpt>
      <trkpt lat="48.55952" lon="1.94302">
        <ele>149</ele>
        <time>2009-10-25T09:56:40Z</time>
      </trkpt>
      <trkpt lat="48.55961" lon="1.94324">
        <ele>149</ele>
        <time>2009-10-25T09:56:42Z</time>
      </trkpt>
      <trkpt lat="48.55981" lon="1.94353">
        <ele>149</ele>
        <time>2009-10-25T09:56:47Z</time>
      </trkpt>
      <trkpt lat="48.55989" lon="1.94367">
        <ele>149</ele>
        <time>2009-10-25T09:56:50Z</time>
      </trkpt>
      <trkpt lat="48.55995" lon="1.94397">
        <ele>149</ele>
        <time>2009-10-25T09:56:56Z</time>
      </trkpt>
      <trkpt lat="48.56011" lon="1.94452">
        <ele>149</ele>
        <time>2009-10-25T09:57:07Z</time>
      </trkpt>
      <trkpt lat="48.56014" lon="1.94493">
        <ele>150</ele>
        <time>2009-10-25T09:57:15Z</time>
      </trkpt>
      <trkpt lat="48.56006" lon="1.94533">
        <ele>151</ele>
        <time>2009-10-25T09:57:26Z</time>
      </trkpt>
      <trkpt lat="48.56007" lon="1.94538">
        <ele>151</ele>
        <time>2009-10-25T09:57:27Z</time>
      </trkpt>
      <trkpt lat="48.56017" lon="1.94565">
        <ele>152</ele>
        <time>2009-10-25T09:57:34Z</time>
      </trkpt>
      <trkpt lat="48.5604" lon="1.94618">
        <ele>154</ele>
        <time>2009-10-25T09:57:43Z</time>
      </trkpt>
      <trkpt lat="48.56045" lon="1.94641">
        <ele>155</ele>
        <time>2009-10-25T09:57:48Z</time>
      </trkpt>
      <trkpt lat="48.56049" lon="1.94655">
        <ele>155</ele>
        <time>2009-10-25T09:57:52Z</time>
      </trkpt>
      <trkpt lat="48.56033" lon="1.94708">
        <ele>158</ele>
        <time>2009-10-25T09:58:02Z</time>
      </trkpt>
      <trkpt lat="48.5601" lon="1.94765">
        <ele>160</ele>
        <time>2009-10-25T09:58:16Z</time>
      </trkpt>
      <trkpt lat="48.56006" lon="1.94782">
        <ele>160</ele>
        <time>2009-10-25T09:58:20Z</time>
      </trkpt>
      <trkpt lat="48.55986" lon="1.94844">
        <ele>161</ele>
        <time>2009-10-25T09:58:29Z</time>
      </trkpt>
      <trkpt lat="48.55941" lon="1.94951">
        <ele>163</ele>
        <time>2009-10-25T09:58:46Z</time>
      </trkpt>
      <trkpt lat="48.55907" lon="1.95048">
        <ele>168</ele>
        <time>2009-10-25T09:59:01Z</time>
      </trkpt>
      <trkpt lat="48.55884" lon="1.95104">
        <ele>170</ele>
        <time>2009-10-25T09:59:11Z</time>
      </trkpt>
      <trkpt lat="48.55874" lon="1.951">
        <ele>170</ele>
        <time>2009-10-25T09:59:17Z</time>
      </trkpt>
      <trkpt lat="48.55876" lon="1.95094">
        <ele>170</ele>
        <time>2009-10-25T09:59:18Z</time>
      </trkpt>
      <trkpt lat="48.55882" lon="1.95073">
        <ele>169</ele>
        <time>2009-10-25T09:59:21Z</time>
      </trkpt>
      <trkpt lat="48.55914" lon="1.94978">
        <ele>167</ele>
        <time>2009-10-25T09:59:33Z</time>
      </trkpt>
      <trkpt lat="48.5592" lon="1.94962">
        <ele>164</ele>
        <time>2009-10-25T09:59:35Z</time>
      </trkpt>
      <trkpt lat="48.55925" lon="1.94947">
        <ele>164</ele>
        <time>2009-10-25T09:59:37Z</time>
      </trkpt>
      <trkpt lat="48.55924" lon="1.9489">
        <ele>164</ele>
        <time>2009-10-25T09:59:44Z</time>
      </trkpt>
      <trkpt lat="48.55913" lon="1.94855">
        <ele>167</ele>
        <time>2009-10-25T09:59:51Z</time>
      </trkpt>
      <trkpt lat="48.55907" lon="1.94839">
        <ele>166</ele>
        <time>2009-10-25T09:59:57Z</time>
      </trkpt>
      <trkpt lat="48.55893" lon="1.94807">
        <ele>166</ele>
        <time>2009-10-25T10:00:10Z</time>
      </trkpt>
      <trkpt lat="48.5589" lon="1.94803">
        <ele>166</ele>
        <time>2009-10-25T10:00:11Z</time>
      </trkpt>
      <trkpt lat="48.55884" lon="1.94783">
        <ele>166</ele>
        <time>2009-10-25T10:00:17Z</time>
      </trkpt>
      <trkpt lat="48.55864" lon="1.94718">
        <ele>165</ele>
        <time>2009-10-25T10:00:30Z</time>
      </trkpt>
      <trkpt lat="48.55861" lon="1.94712">
        <ele>165</ele>
        <time>2009-10-25T10:00:31Z</time>
      </trkpt>
      <trkpt lat="48.5584" lon="1.94658">
        <ele>166</ele>
        <time>2009-10-25T10:00:40Z</time>
      </trkpt>
      <trkpt lat="48.55819" lon="1.94606">
        <ele>167</ele>
        <time>2009-10-25T10:00:50Z</time>
      </trkpt>
      <trkpt lat="48.55799" lon="1.94554">
        <ele>166</ele>
        <time>2009-10-25T10:01:00Z</time>
      </trkpt>
      <trkpt lat="48.55793" lon="1.94539">
        <ele>166</ele>
        <time>2009-10-25T10:01:02Z</time>
      </trkpt>
      <trkpt lat="48.55771" lon="1.94478">
        <ele>165</ele>
        <time>2009-10-25T10:01:10Z</time>
      </trkpt>
      <trkpt lat="48.55759" lon="1.94451">
        <ele>165</ele>
        <time>2009-10-25T10:01:14Z</time>
      </trkpt>
      <trkpt lat="48.55733" lon="1.94403">
        <ele>168</ele>
        <time>2009-10-25T10:01:22Z</time>
      </trkpt>
      <trkpt lat="48.55712" lon="1.94347">
        <ele>170</ele>
        <time>2009-10-25T10:01:30Z</time>
      </trkpt>
      <trkpt lat="48.55685" lon="1.94292">
        <ele>170</ele>
        <time>2009-10-25T10:01:40Z</time>
      </trkpt>
      <trkpt lat="48.55681" lon="1.94279">
        <ele>169</ele>
        <time>2009-10-25T10:01:42Z</time>
      </trkpt>
      <trkpt lat="48.55662" lon="1.94239">
        <ele>169</ele>
        <time>2009-10-25T10:01:47Z</time>
      </trkpt>
      <trkpt lat="48.55651" lon="1.9421">
        <ele>168</ele>
        <time>2009-10-25T10:01:51Z</time>
      </trkpt>
      <trkpt lat="48.55648" lon="1.94193">
        <ele>168</ele>
        <time>2009-10-25T10:01:53Z</time>
      </trkpt>
      <trkpt lat="48.55623" lon="1.94161">
        <ele>168</ele>
        <time>2009-10-25T10:01:58Z</time>
      </trkpt>
      <trkpt lat="48.556" lon="1.9411">
        <ele>168</ele>
        <time>2009-10-25T10:02:07Z</time>
      </trkpt>
      <trkpt lat="48.55592" lon="1.94091">
        <ele>169</ele>
        <time>2009-10-25T10:02:10Z</time>
      </trkpt>
      <trkpt lat="48.55585" lon="1.94075">
        <ele>169</ele>
        <time>2009-10-25T10:02:13Z</time>
      </trkpt>
      <trkpt lat="48.55565" lon="1.94033">
        <ele>169</ele>
        <time>2009-10-25T10:02:19Z</time>
      </trkpt>
      <trkpt lat="48.55549" lon="1.93985">
        <ele>168</ele>
        <time>2009-10-25T10:02:25Z</time>
      </trkpt>
      <trkpt lat="48.55538" lon="1.93957">
        <ele>168</ele>
        <time>2009-10-25T10:02:29Z</time>
      </trkpt>
      <trkpt lat="48.5553" lon="1.93941">
        <ele>168</ele>
        <time>2009-10-25T10:02:32Z</time>
      </trkpt>
      <trkpt lat="48.55515" lon="1.9392">
        <ele>169</ele>
        <time>2009-10-25T10:02:36Z</time>
      </trkpt>
      <trkpt lat="48.55491" lon="1.93852">
        <ele>168</ele>
        <time>2009-10-25T10:02:46Z</time>
      </trkpt>
      <trkpt lat="48.5548" lon="1.93825">
        <ele>167</ele>
        <time>2009-10-25T10:02:49Z</time>
      </trkpt>
      <trkpt lat="48.55456" lon="1.93768">
        <ele>167</ele>
        <time>2009-10-25T10:02:57Z</time>
      </trkpt>
      <trkpt lat="48.55454" lon="1.93761">
        <ele>167</ele>
        <time>2009-10-25T10:02:58Z</time>
      </trkpt>
      <trkpt lat="48.55445" lon="1.93729">
        <ele>165</ele>
        <time>2009-10-25T10:03:02Z</time>
      </trkpt>
      <trkpt lat="48.55424" lon="1.93676">
        <ele>165</ele>
        <time>2009-10-25T10:03:09Z</time>
      </trkpt>
      <trkpt lat="48.55405" lon="1.93624">
        <ele>165</ele>
        <time>2009-10-25T10:03:20Z</time>
      </trkpt>
      <trkpt lat="48.55405" lon="1.93626">
        <ele>165</ele>
        <time>2009-10-25T10:03:27Z</time>
      </trkpt>
      <trkpt lat="48.55407" lon="1.93639">
        <ele>166</ele>
        <time>2009-10-25T10:03:32Z</time>
      </trkpt>
      <trkpt lat="48.55409" lon="1.93665">
        <ele>166</ele>
        <time>2009-10-25T10:03:45Z</time>
      </trkpt>
      <trkpt lat="48.55412" lon="1.93674">
        <ele>167</ele>
        <time>2009-10-25T10:04:32Z</time>
      </trkpt>
      <trkpt lat="48.55414" lon="1.93675">
        <ele>167</ele>
        <time>2009-10-25T10:08:11Z</time>
      </trkpt>
      <trkpt lat="48.55408" lon="1.93655">
        <ele>166</ele>
        <time>2009-10-25T10:08:17Z</time>
      </trkpt>
      <trkpt lat="48.55395" lon="1.93617">
        <ele>165</ele>
        <time>2009-10-25T10:08:24Z</time>
      </trkpt>
      <trkpt lat="48.55375" lon="1.93619">
        <ele>166</ele>
        <time>2009-10-25T10:08:31Z</time>
      </trkpt>
      <trkpt lat="48.55354" lon="1.93671">
        <ele>170</ele>
        <time>2009-10-25T10:08:39Z</time>
      </trkpt>
      <trkpt lat="48.55332" lon="1.93742">
        <ele>172</ele>
        <time>2009-10-25T10:08:49Z</time>
      </trkpt>
      <trkpt lat="48.55325" lon="1.93764">
        <ele>171</ele>
        <time>2009-10-25T10:08:52Z</time>
      </trkpt>
      <trkpt lat="48.55297" lon="1.93845">
        <ele>171</ele>
        <time>2009-10-25T10:09:02Z</time>
      </trkpt>
      <trkpt lat="48.55265" lon="1.93931">
        <ele>172</ele>
        <time>2009-10-25T10:09:12Z</time>
      </trkpt>
      <trkpt lat="48.5524" lon="1.9401">
        <ele>172</ele>
        <time>2009-10-25T10:09:23Z</time>
      </trkpt>
      <trkpt lat="48.55207" lon="1.941">
        <ele>173</ele>
        <time>2009-10-25T10:09:33Z</time>
      </trkpt>
      <trkpt lat="48.55197" lon="1.94129">
        <ele>173</ele>
        <time>2009-10-25T10:09:36Z</time>
      </trkpt>
      <trkpt lat="48.55187" lon="1.94149">
        <ele>173</ele>
        <time>2009-10-25T10:09:39Z</time>
      </trkpt>
      <trkpt lat="48.5518" lon="1.94167">
        <ele>174</ele>
        <time>2009-10-25T10:09:41Z</time>
      </trkpt>
      <trkpt lat="48.55171" lon="1.94185">
        <ele>174</ele>
        <time>2009-10-25T10:09:44Z</time>
      </trkpt>
      <trkpt lat="48.55163" lon="1.94207">
        <ele>174</ele>
        <time>2009-10-25T10:09:47Z</time>
      </trkpt>
      <trkpt lat="48.55137" lon="1.94285">
        <ele>174</ele>
        <time>2009-10-25T10:09:57Z</time>
      </trkpt>
      <trkpt lat="48.55122" lon="1.94339">
        <ele>173</ele>
        <time>2009-10-25T10:10:02Z</time>
      </trkpt>
      <trkpt lat="48.55114" lon="1.94371">
        <ele>173</ele>
        <time>2009-10-25T10:10:06Z</time>
      </trkpt>
      <trkpt lat="48.55098" lon="1.94417">
        <ele>172</ele>
        <time>2009-10-25T10:10:11Z</time>
      </trkpt>
      <trkpt lat="48.55091" lon="1.94432">
        <ele>172</ele>
        <time>2009-10-25T10:10:13Z</time>
      </trkpt>
      <trkpt lat="48.55054" lon="1.9454">
        <ele>172</ele>
        <time>2009-10-25T10:10:25Z</time>
      </trkpt>
      <trkpt lat="48.5501" lon="1.9467">
        <ele>170</ele>
        <time>2009-10-25T10:10:40Z</time>
      </trkpt>
      <trkpt lat="48.55008" lon="1.94677">
        <ele>170</ele>
        <time>2009-10-25T10:10:41Z</time>
      </trkpt>
      <trkpt lat="48.54987" lon="1.94762">
        <ele>169</ele>
        <time>2009-10-25T10:10:54Z</time>
      </trkpt>
      <trkpt lat="48.54985" lon="1.94778">
        <ele>169</ele>
        <time>2009-10-25T10:10:57Z</time>
      </trkpt>
      <trkpt lat="48.54972" lon="1.94812">
        <ele>169</ele>
        <time>2009-10-25T10:11:02Z</time>
      </trkpt>
      <trkpt lat="48.54962" lon="1.94834">
        <ele>171</ele>
        <time>2009-10-25T10:11:05Z</time>
      </trkpt>
      <trkpt lat="48.54944" lon="1.94892">
        <ele>171</ele>
        <time>2009-10-25T10:11:13Z</time>
      </trkpt>
      <trkpt lat="48.54941" lon="1.94905">
        <ele>172</ele>
        <time>2009-10-25T10:11:15Z</time>
      </trkpt>
      <trkpt lat="48.54896" lon="1.95007">
        <ele>171</ele>
        <time>2009-10-25T10:11:27Z</time>
      </trkpt>
      <trkpt lat="48.54876" lon="1.95064">
        <ele>170</ele>
        <time>2009-10-25T10:11:35Z</time>
      </trkpt>
      <trkpt lat="48.54874" lon="1.95078">
        <ele>170</ele>
        <time>2009-10-25T10:11:37Z</time>
      </trkpt>
      <trkpt lat="48.54859" lon="1.95164">
        <ele>169</ele>
        <time>2009-10-25T10:11:47Z</time>
      </trkpt>
      <trkpt lat="48.54829" lon="1.95185">
        <ele>166</ele>
        <time>2009-10-25T10:11:53Z</time>
      </trkpt>
      <trkpt lat="48.54818" lon="1.95177">
        <ele>166</ele>
        <time>2009-10-25T10:11:56Z</time>
      </trkpt>
      <trkpt lat="48.54797" lon="1.95158">
        <ele>168</ele>
        <time>2009-10-25T10:12:01Z</time>
      </trkpt>
      <trkpt lat="48.5478" lon="1.9515">
        <ele>168</ele>
        <time>2009-10-25T10:12:04Z</time>
      </trkpt>
      <trkpt lat="48.54769" lon="1.95146">
        <ele>168</ele>
        <time>2009-10-25T10:12:06Z</time>
      </trkpt>
      <trkpt lat="48.54758" lon="1.95141">
        <ele>168</ele>
        <time>2009-10-25T10:12:08Z</time>
      </trkpt>
      <trkpt lat="48.54727" lon="1.95109">
        <ele>167</ele>
        <time>2009-10-25T10:12:12Z</time>
      </trkpt>
      <trkpt lat="48.54688" lon="1.95091">
        <ele>166</ele>
        <time>2009-10-25T10:12:21Z</time>
      </trkpt>
      <trkpt lat="48.54684" lon="1.95089">
        <ele>166</ele>
        <time>2009-10-25T10:12:22Z</time>
      </trkpt>
      <trkpt lat="48.54655" lon="1.95064">
        <ele>165</ele>
        <time>2009-10-25T10:12:27Z</time>
      </trkpt>
      <trkpt lat="48.54593" lon="1.95024">
        <ele>165</ele>
        <time>2009-10-25T10:12:36Z</time>
      </trkpt>
      <trkpt lat="48.5456" lon="1.95002">
        <ele>163</ele>
        <time>2009-10-25T10:12:42Z</time>
      </trkpt>
      <trkpt lat="48.54514" lon="1.94974">
        <ele>163</ele>
        <time>2009-10-25T10:12:47Z</time>
      </trkpt>
      <trkpt lat="48.5446" lon="1.9493">
        <ele>157</ele>
        <time>2009-10-25T10:12:55Z</time>
      </trkpt>
      <trkpt lat="48.54408" lon="1.9492">
        <ele>152</ele>
        <time>2009-10-25T10:13:00Z</time>
      </trkpt>
      <trkpt lat="48.54388" lon="1.94914">
        <ele>150</ele>
        <time>2009-10-25T10:13:03Z</time>
      </trkpt>
      <trkpt lat="48.54357" lon="1.94931">
        <ele>148</ele>
        <time>2009-10-25T10:13:07Z</time>
      </trkpt>
      <trkpt lat="48.54318" lon="1.94971">
        <ele>146</ele>
        <time>2009-10-25T10:13:12Z</time>
      </trkpt>
      <trkpt lat="48.54286" lon="1.9498">
        <ele>145</ele>
        <time>2009-10-25T10:13:16Z</time>
      </trkpt>
      <trkpt lat="48.54258" lon="1.94976">
        <ele>144</ele>
        <time>2009-10-25T10:13:21Z</time>
      </trkpt>
      <trkpt lat="48.54205" lon="1.94966">
        <ele>141</ele>
        <time>2009-10-25T10:13:27Z</time>
      </trkpt>
      <trkpt lat="48.54126" lon="1.94962">
        <ele>138</ele>
        <time>2009-10-25T10:13:38Z</time>
      </trkpt>
      <trkpt lat="48.54111" lon="1.94973">
        <ele>138</ele>
        <time>2009-10-25T10:13:42Z</time>
      </trkpt>
      <trkpt lat="48.54095" lon="1.95032">
        <ele>140</ele>
        <time>2009-10-25T10:13:49Z</time>
      </trkpt>
      <trkpt lat="48.54098" lon="1.95077">
        <ele>140</ele>
        <time>2009-10-25T10:13:53Z</time>
      </trkpt>
      <trkpt lat="48.54089" lon="1.95116">
        <ele>145</ele>
        <time>2009-10-25T10:13:58Z</time>
      </trkpt>
      <trkpt lat="48.54069" lon="1.95146">
        <ele>138</ele>
        <time>2009-10-25T10:14:03Z</time>
      </trkpt>
      <trkpt lat="48.54055" lon="1.95171">
        <ele>140</ele>
        <time>2009-10-25T10:14:07Z</time>
      </trkpt>
      <trkpt lat="48.54038" lon="1.9522">
        <ele>140</ele>
        <time>2009-10-25T10:14:13Z</time>
      </trkpt>
      <trkpt lat="48.54028" lon="1.95239">
        <ele>139</ele>
        <time>2009-10-25T10:14:15Z</time>
      </trkpt>
      <trkpt lat="48.54007" lon="1.9527">
        <ele>142</ele>
        <time>2009-10-25T10:14:18Z</time>
      </trkpt>
      <trkpt lat="48.53987" lon="1.95265">
        <ele>138</ele>
        <time>2009-10-25T10:14:20Z</time>
      </trkpt>
      <trkpt lat="48.53964" lon="1.95249">
        <ele>133</ele>
        <time>2009-10-25T10:14:25Z</time>
      </trkpt>
      <trkpt lat="48.53955" lon="1.95225">
        <ele>132</ele>
        <time>2009-10-25T10:14:30Z</time>
      </trkpt>
      <trkpt lat="48.53926" lon="1.95223">
        <ele>132</ele>
        <time>2009-10-25T10:14:39Z</time>
      </trkpt>
      <trkpt lat="48.53891" lon="1.95246">
        <ele>131</ele>
        <time>2009-10-25T10:14:53Z</time>
      </trkpt>
      <trkpt lat="48.53877" lon="1.9528">
        <ele>136</ele>
        <time>2009-10-25T10:15:05Z</time>
      </trkpt>
      <trkpt lat="48.53871" lon="1.95309">
        <ele>138</ele>
        <time>2009-10-25T10:15:17Z</time>
      </trkpt>
      <trkpt lat="48.53869" lon="1.95315">
        <ele>138</ele>
        <time>2009-10-25T10:15:19Z</time>
      </trkpt>
      <trkpt lat="48.5388" lon="1.9536">
        <ele>145</ele>
        <time>2009-10-25T10:15:33Z</time>
      </trkpt>
      <trkpt lat="48.53881" lon="1.95366">
        <ele>145</ele>
        <time>2009-10-25T10:15:38Z</time>
      </trkpt>
      <trkpt lat="48.53893" lon="1.95401">
        <ele>148</ele>
        <time>2009-10-25T10:15:43Z</time>
      </trkpt>
      <trkpt lat="48.53893" lon="1.95418">
        <ele>153</ele>
        <time>2009-10-25T10:15:53Z</time>
      </trkpt>
      <trkpt lat="48.53859" lon="1.95433">
        <ele>151</ele>
        <time>2009-10-25T10:16:07Z</time>
      </trkpt>
      <trkpt lat="48.53836" lon="1.95452">
        <ele>151</ele>
        <time>2009-10-25T10:16:17Z</time>
      </trkpt>
      <trkpt lat="48.53798" lon="1.95447">
        <ele>144</ele>
        <time>2009-10-25T10:16:26Z</time>
      </trkpt>
      <trkpt lat="48.53765" lon="1.95477">
        <ele>144</ele>
        <time>2009-10-25T10:16:37Z</time>
      </trkpt>
      <trkpt lat="48.5374" lon="1.95528">
        <ele>142</ele>
        <time>2009-10-25T10:16:48Z</time>
      </trkpt>
      <trkpt lat="48.53737" lon="1.9554">
        <ele>142</ele>
        <time>2009-10-25T10:16:50Z</time>
      </trkpt>
      <trkpt lat="48.53723" lon="1.95608">
        <ele>144</ele>
        <time>2009-10-25T10:17:01Z</time>
      </trkpt>
      <trkpt lat="48.53705" lon="1.95667">
        <ele>146</ele>
        <time>2009-10-25T10:17:12Z</time>
      </trkpt>
      <trkpt lat="48.53704" lon="1.95669">
        <ele>146</ele>
        <time>2009-10-25T10:17:13Z</time>
      </trkpt>
      <trkpt lat="48.53666" lon="1.95697">
        <ele>136</ele>
        <time>2009-10-25T10:17:20Z</time>
      </trkpt>
      <trkpt lat="48.53651" lon="1.95714">
        <ele>136</ele>
        <time>2009-10-25T10:17:24Z</time>
      </trkpt>
      <trkpt lat="48.53625" lon="1.95777">
        <ele>140</ele>
        <time>2009-10-25T10:17:35Z</time>
      </trkpt>
      <trkpt lat="48.53615" lon="1.95868">
        <ele>145</ele>
        <time>2009-10-25T10:17:45Z</time>
      </trkpt>
      <trkpt lat="48.53602" lon="1.9591">
        <ele>144</ele>
        <time>2009-10-25T10:17:52Z</time>
      </trkpt>
      <trkpt lat="48.53594" lon="1.95928">
        <ele>145</ele>
        <time>2009-10-25T10:17:55Z</time>
      </trkpt>
      <trkpt lat="48.53575" lon="1.95963">
        <ele>139</ele>
        <time>2009-10-25T10:18:00Z</time>
      </trkpt>
      <trkpt lat="48.53569" lon="1.95976">
        <ele>140</ele>
        <time>2009-10-25T10:18:02Z</time>
      </trkpt>
      <trkpt lat="48.53552" lon="1.95995">
        <ele>139</ele>
        <time>2009-10-25T10:18:05Z</time>
      </trkpt>
      <trkpt lat="48.53515" lon="1.96049">
        <ele>142</ele>
        <time>2009-10-25T10:18:13Z</time>
      </trkpt>
      <trkpt lat="48.5351" lon="1.96077">
        <ele>141</ele>
        <time>2009-10-25T10:18:17Z</time>
      </trkpt>
      <trkpt lat="48.53501" lon="1.96153">
        <ele>144</ele>
        <time>2009-10-25T10:18:28Z</time>
      </trkpt>
      <trkpt lat="48.53491" lon="1.9625">
        <ele>142</ele>
        <time>2009-10-25T10:18:38Z</time>
      </trkpt>
      <trkpt lat="48.5347" lon="1.96316">
        <ele>143</ele>
        <time>2009-10-25T10:18:49Z</time>
      </trkpt>
      <trkpt lat="48.53446" lon="1.96367">
        <ele>148</ele>
        <time>2009-10-25T10:18:59Z</time>
      </trkpt>
      <trkpt lat="48.53428" lon="1.96407">
        <ele>149</ele>
        <time>2009-10-25T10:19:07Z</time>
      </trkpt>
      <trkpt lat="48.53419" lon="1.96445">
        <ele>154</ele>
        <time>2009-10-25T10:19:14Z</time>
      </trkpt>
      <trkpt lat="48.53411" lon="1.96467">
        <ele>145</ele>
        <time>2009-10-25T10:19:18Z</time>
      </trkpt>
      <trkpt lat="48.53399" lon="1.96519">
        <ele>148</ele>
        <time>2009-10-25T10:19:26Z</time>
      </trkpt>
      <trkpt lat="48.53385" lon="1.96562">
        <ele>147</ele>
        <time>2009-10-25T10:19:30Z</time>
      </trkpt>
      <trkpt lat="48.53336" lon="1.96664">
        <ele>145</ele>
        <time>2009-10-25T10:19:39Z</time>
      </trkpt>
      <trkpt lat="48.53325" lon="1.96689">
        <ele>143</ele>
        <time>2009-10-25T10:19:43Z</time>
      </trkpt>
      <trkpt lat="48.53313" lon="1.96711">
        <ele>143</ele>
        <time>2009-10-25T10:19:46Z</time>
      </trkpt>
      <trkpt lat="48.53306" lon="1.96747">
        <ele>145</ele>
        <time>2009-10-25T10:19:51Z</time>
      </trkpt>
      <trkpt lat="48.5332" lon="1.96806">
        <ele>152</ele>
        <time>2009-10-25T10:20:02Z</time>
      </trkpt>
      <trkpt lat="48.53341" lon="1.96866">
        <ele>158</ele>
        <time>2009-10-25T10:20:13Z</time>
      </trkpt>
      <trkpt lat="48.5335" lon="1.96901">
        <ele>157</ele>
        <time>2009-10-25T10:20:21Z</time>
      </trkpt>
      <trkpt lat="48.53363" lon="1.96916">
        <ele>157</ele>
        <time>2009-10-25T10:20:26Z</time>
      </trkpt>
      <trkpt lat="48.53378" lon="1.96927">
        <ele>156</ele>
        <time>2009-10-25T10:20:30Z</time>
      </trkpt>
      <trkpt lat="48.53421" lon="1.96966">
        <ele>156</ele>
        <time>2009-10-25T10:20:40Z</time>
      </trkpt>
      <trkpt lat="48.53455" lon="1.96971">
        <ele>156</ele>
        <time>2009-10-25T10:20:49Z</time>
      </trkpt>
      <trkpt lat="48.53501" lon="1.96959">
        <ele>155</ele>
        <time>2009-10-25T10:20:57Z</time>
      </trkpt>
      <trkpt lat="48.5355" lon="1.96959">
        <ele>155</ele>
        <time>2009-10-25T10:21:06Z</time>
      </trkpt>
      <trkpt lat="48.53561" lon="1.96958">
        <ele>155</ele>
        <time>2009-10-25T10:21:08Z</time>
      </trkpt>
      <trkpt lat="48.53572" lon="1.96956">
        <ele>155</ele>
        <time>2009-10-25T10:21:10Z</time>
      </trkpt>
      <trkpt lat="48.53609" lon="1.96956">
        <ele>152</ele>
        <time>2009-10-25T10:21:14Z</time>
      </trkpt>
      <trkpt lat="48.53702" lon="1.96925">
        <ele>147</ele>
        <time>2009-10-25T10:21:26Z</time>
      </trkpt>
      <trkpt lat="48.53709" lon="1.96925">
        <ele>147</ele>
        <time>2009-10-25T10:21:27Z</time>
      </trkpt>
      <trkpt lat="48.53734" lon="1.96926">
        <ele>146</ele>
        <time>2009-10-25T10:21:30Z</time>
      </trkpt>
      <trkpt lat="48.53763" lon="1.96903">
        <ele>147</ele>
        <time>2009-10-25T10:21:34Z</time>
      </trkpt>
      <trkpt lat="48.53794" lon="1.96913">
        <ele>148</ele>
        <time>2009-10-25T10:21:43Z</time>
      </trkpt>
      <trkpt lat="48.53803" lon="1.9691">
        <ele>148</ele>
        <time>2009-10-25T10:21:47Z</time>
      </trkpt>
      <trkpt lat="48.53824" lon="1.96906">
        <ele>148</ele>
        <time>2009-10-25T10:21:52Z</time>
      </trkpt>
      <trkpt lat="48.53865" lon="1.96901">
        <ele>154</ele>
        <time>2009-10-25T10:22:07Z</time>
      </trkpt>
      <trkpt lat="48.53884" lon="1.96896">
        <ele>156</ele>
        <time>2009-10-25T10:22:18Z</time>
      </trkpt>
      <trkpt lat="48.53895" lon="1.96896">
        <ele>157</ele>
        <time>2009-10-25T10:22:25Z</time>
      </trkpt>
      <trkpt lat="48.5394" lon="1.96897">
        <ele>163</ele>
        <time>2009-10-25T10:22:50Z</time>
      </trkpt>
      <trkpt lat="48.53949" lon="1.96896">
        <ele>163</ele>
        <time>2009-10-25T10:22:57Z</time>
      </trkpt>
      <trkpt lat="48.53948" lon="1.96911">
        <ele>163</ele>
        <time>2009-10-25T10:23:03Z</time>
      </trkpt>
      <trkpt lat="48.53951" lon="1.96994">
        <ele>162</ele>
        <time>2009-10-25T10:23:16Z</time>
      </trkpt>
      <trkpt lat="48.53955" lon="1.97001">
        <ele>161</ele>
        <time>2009-10-25T10:23:17Z</time>
      </trkpt>
      <trkpt lat="48.5395" lon="1.97055">
        <ele>160</ele>
        <time>2009-10-25T10:23:26Z</time>
      </trkpt>
      <trkpt lat="48.53974" lon="1.97092">
        <ele>162</ele>
        <time>2009-10-25T10:23:30Z</time>
      </trkpt>
      <trkpt lat="48.53962" lon="1.97097">
        <ele>161</ele>
        <time>2009-10-25T10:23:32Z</time>
      </trkpt>
      <trkpt lat="48.53963" lon="1.97104">
        <ele>161</ele>
        <time>2009-10-25T10:23:34Z</time>
      </trkpt>
      <trkpt lat="48.53942" lon="1.97142">
        <ele>159</ele>
        <time>2009-10-25T10:23:39Z</time>
      </trkpt>
      <trkpt lat="48.53939" lon="1.97169">
        <ele>160</ele>
        <time>2009-10-25T10:23:44Z</time>
      </trkpt>
      <trkpt lat="48.53935" lon="1.97204">
        <ele>161</ele>
        <time>2009-10-25T10:23:48Z</time>
      </trkpt>
      <trkpt lat="48.53919" lon="1.97264">
        <ele>162</ele>
        <time>2009-10-25T10:23:58Z</time>
      </trkpt>
      <trkpt lat="48.53901" lon="1.97287">
        <ele>156</ele>
        <time>2009-10-25T10:24:03Z</time>
      </trkpt>
      <trkpt lat="48.53896" lon="1.97316">
        <ele>157</ele>
        <time>2009-10-25T10:24:06Z</time>
      </trkpt>
      <trkpt lat="48.53894" lon="1.9735">
        <ele>158</ele>
        <time>2009-10-25T10:24:10Z</time>
      </trkpt>
      <trkpt lat="48.53886" lon="1.9738">
        <ele>157</ele>
        <time>2009-10-25T10:24:14Z</time>
      </trkpt>
      <trkpt lat="48.53879" lon="1.97412">
        <ele>157</ele>
        <time>2009-10-25T10:24:18Z</time>
      </trkpt>
      <trkpt lat="48.53859" lon="1.97455">
        <ele>158</ele>
        <time>2009-10-25T10:24:24Z</time>
      </trkpt>
      <trkpt lat="48.53839" lon="1.97476">
        <ele>158</ele>
        <time>2009-10-25T10:24:27Z</time>
      </trkpt>
      <trkpt lat="48.53824" lon="1.97504">
        <ele>156</ele>
        <time>2009-10-25T10:24:31Z</time>
      </trkpt>
      <trkpt lat="48.53818" lon="1.97569">
        <ele>156</ele>
        <time>2009-10-25T10:24:42Z</time>
      </trkpt>
      <trkpt lat="48.53818" lon="1.97573">
        <ele>156</ele>
        <time>2009-10-25T10:24:43Z</time>
      </trkpt>
      <trkpt lat="48.53812" lon="1.97596">
        <ele>156</ele>
        <time>2009-10-25T10:24:47Z</time>
      </trkpt>
      <trkpt lat="48.53788" lon="1.97675">
        <ele>154</ele>
        <time>2009-10-25T10:24:59Z</time>
      </trkpt>
      <trkpt lat="48.5378" lon="1.97705">
        <ele>154</ele>
        <time>2009-10-25T10:25:03Z</time>
      </trkpt>
      <trkpt lat="48.53782" lon="1.97756">
        <ele>152</ele>
        <time>2009-10-25T10:25:11Z</time>
      </trkpt>
      <trkpt lat="48.53782" lon="1.97772">
        <ele>152</ele>
        <time>2009-10-25T10:25:13Z</time>
      </trkpt>
      <trkpt lat="48.53791" lon="1.97837">
        <ele>148</ele>
        <time>2009-10-25T10:25:22Z</time>
      </trkpt>
      <trkpt lat="48.538" lon="1.97889">
        <ele>148</ele>
        <time>2009-10-25T10:25:29Z</time>
      </trkpt>
      <trkpt lat="48.53798" lon="1.97922">
        <ele>147</ele>
        <time>2009-10-25T10:25:34Z</time>
      </trkpt>
      <trkpt lat="48.53791" lon="1.97969">
        <ele>147</ele>
        <time>2009-10-25T10:25:42Z</time>
      </trkpt>
      <trkpt lat="48.53763" lon="1.98023">
        <ele>148</ele>
        <time>2009-10-25T10:25:46Z</time>
      </trkpt>
      <trkpt lat="48.53758" lon="1.98016">
        <ele>147</ele>
        <time>2009-10-25T10:25:52Z</time>
      </trkpt>
      <trkpt lat="48.53755" lon="1.97994">
        <ele>146</ele>
        <time>2009-10-25T10:25:57Z</time>
      </trkpt>
      <trkpt lat="48.53726" lon="1.97994">
        <ele>142</ele>
        <time>2009-10-25T10:26:01Z</time>
      </trkpt>
      <trkpt lat="48.53716" lon="1.97998">
        <ele>142</ele>
        <time>2009-10-25T10:26:03Z</time>
      </trkpt>
      <trkpt lat="48.53708" lon="1.98">
        <ele>141</ele>
        <time>2009-10-25T10:26:05Z</time>
      </trkpt>
      <trkpt lat="48.53685" lon="1.98012">
        <ele>143</ele>
        <time>2009-10-25T10:26:09Z</time>
      </trkpt>
      <trkpt lat="48.53653" lon="1.97991">
        <ele>138</ele>
        <time>2009-10-25T10:26:14Z</time>
      </trkpt>
      <trkpt lat="48.53639" lon="1.97959">
        <ele>135</ele>
        <time>2009-10-25T10:26:20Z</time>
      </trkpt>
      <trkpt lat="48.53641" lon="1.97953">
        <ele>134</ele>
        <time>2009-10-25T10:26:22Z</time>
      </trkpt>
      <trkpt lat="48.53661" lon="1.97919">
        <ele>132</ele>
        <time>2009-10-25T10:26:34Z</time>
      </trkpt>
      <trkpt lat="48.53666" lon="1.97905">
        <ele>130</ele>
        <time>2009-10-25T10:26:39Z</time>
      </trkpt>
      <trkpt lat="48.53659" lon="1.9788">
        <ele>127</ele>
        <time>2009-10-25T10:26:44Z</time>
      </trkpt>
      <trkpt lat="48.5364" lon="1.97865">
        <ele>125</ele>
        <time>2009-10-25T10:26:49Z</time>
      </trkpt>
      <trkpt lat="48.53619" lon="1.97845">
        <ele>124</ele>
        <time>2009-10-25T10:26:54Z</time>
      </trkpt>
      <trkpt lat="48.53589" lon="1.97858">
        <ele>123</ele>
        <time>2009-10-25T10:27:02Z</time>
      </trkpt>
      <trkpt lat="48.53577" lon="1.97863">
        <ele>120</ele>
        <time>2009-10-25T10:27:05Z</time>
      </trkpt>
      <trkpt lat="48.53514" lon="1.97892">
        <ele>120</ele>
        <time>2009-10-25T10:27:13Z</time>
      </trkpt>
      <trkpt lat="48.53492" lon="1.97912">
        <ele>119</ele>
        <time>2009-10-25T10:27:20Z</time>
      </trkpt>
      <trkpt lat="48.53457" lon="1.97935">
        <ele>121</ele>
        <time>2009-10-25T10:27:26Z</time>
      </trkpt>
      <trkpt lat="48.53436" lon="1.97956">
        <ele>121</ele>
        <time>2009-10-25T10:27:32Z</time>
      </trkpt>
      <trkpt lat="48.53393" lon="1.98019">
        <ele>124</ele>
        <time>2009-10-25T10:27:40Z</time>
      </trkpt>
      <trkpt lat="48.5339" lon="1.98018">
        <ele>124</ele>
        <time>2009-10-25T10:27:41Z</time>
      </trkpt>
      <trkpt lat="48.53375" lon="1.98">
        <ele>119</ele>
        <time>2009-10-25T10:27:46Z</time>
      </trkpt>
      <trkpt lat="48.53359" lon="1.97996">
        <ele>119</ele>
        <time>2009-10-25T10:27:50Z</time>
      </trkpt>
      <trkpt lat="48.5332" lon="1.9799">
        <ele>120</ele>
        <time>2009-10-25T10:28:00Z</time>
      </trkpt>
      <trkpt lat="48.53286" lon="1.97963">
        <ele>120</ele>
        <time>2009-10-25T10:28:10Z</time>
      </trkpt>
      <trkpt lat="48.53259" lon="1.97941">
        <ele>119</ele>
        <time>2009-10-25T10:28:17Z</time>
      </trkpt>
      <trkpt lat="48.53209" lon="1.97912">
        <ele>119</ele>
        <time>2009-10-25T10:28:27Z</time>
      </trkpt>
      <trkpt lat="48.53173" lon="1.97902">
        <ele>120</ele>
        <time>2009-10-25T10:28:34Z</time>
      </trkpt>
      <trkpt lat="48.53138" lon="1.97912">
        <ele>121</ele>
        <time>2009-10-25T10:28:46Z</time>
      </trkpt>
      <trkpt lat="48.53128" lon="1.97971">
        <ele>124</ele>
        <time>2009-10-25T10:28:56Z</time>
      </trkpt>
      <trkpt lat="48.53129" lon="1.97975">
        <ele>124</ele>
        <time>2009-10-25T10:28:57Z</time>
      </trkpt>
      <trkpt lat="48.53123" lon="1.98016">
        <ele>124</ele>
        <time>2009-10-25T10:29:06Z</time>
      </trkpt>
      <trkpt lat="48.53117" lon="1.98019">
        <ele>124</ele>
        <time>2009-10-25T10:29:08Z</time>
      </trkpt>
      <trkpt lat="48.53104" lon="1.98031">
        <ele>123</ele>
        <time>2009-10-25T10:29:12Z</time>
      </trkpt>
      <trkpt lat="48.53089" lon="1.98044">
        <ele>123</ele>
        <time>2009-10-25T10:29:20Z</time>
      </trkpt>
      <trkpt lat="48.5307" lon="1.98093">
        <ele>117</ele>
        <time>2009-10-25T10:29:28Z</time>
      </trkpt>
      <trkpt lat="48.53054" lon="1.98109">
        <ele>115</ele>
        <time>2009-10-25T10:29:38Z</time>
      </trkpt>
      <trkpt lat="48.53046" lon="1.9812">
        <ele>114</ele>
        <time>2009-10-25T10:29:41Z</time>
      </trkpt>
      <trkpt lat="48.5305" lon="1.98181">
        <ele>113</ele>
        <time>2009-10-25T10:29:53Z</time>
      </trkpt>
      <trkpt lat="48.5305" lon="1.98216">
        <ele>112</ele>
        <time>2009-10-25T10:30:04Z</time>
      </trkpt>
      <trkpt lat="48.53048" lon="1.98225">
        <ele>112</ele>
        <time>2009-10-25T10:30:07Z</time>
      </trkpt>
      <trkpt lat="48.53052" lon="1.98277">
        <ele>110</ele>
        <time>2009-10-25T10:30:17Z</time>
      </trkpt>
      <trkpt lat="48.53072" lon="1.98351">
        <ele>109</ele>
        <time>2009-10-25T10:30:26Z</time>
      </trkpt>
      <trkpt lat="48.53079" lon="1.98392">
        <ele>109</ele>
        <time>2009-10-25T10:30:33Z</time>
      </trkpt>
      <trkpt lat="48.53078" lon="1.98425">
        <ele>109</ele>
        <time>2009-10-25T10:30:39Z</time>
      </trkpt>
      <trkpt lat="48.53087" lon="1.98471">
        <ele>110</ele>
        <time>2009-10-25T10:30:45Z</time>
      </trkpt>
      <trkpt lat="48.53102" lon="1.98515">
        <ele>109</ele>
        <time>2009-10-25T10:30:49Z</time>
      </trkpt>
      <trkpt lat="48.5311" lon="1.98547">
        <ele>109</ele>
        <time>2009-10-25T10:30:54Z</time>
      </trkpt>
      <trkpt lat="48.53121" lon="1.98621">
        <ele>107</ele>
        <time>2009-10-25T10:31:04Z</time>
      </trkpt>
      <trkpt lat="48.53126" lon="1.98645">
        <ele>107</ele>
        <time>2009-10-25T10:31:07Z</time>
      </trkpt>
      <trkpt lat="48.53113" lon="1.98707">
        <ele>107</ele>
        <time>2009-10-25T10:31:13Z</time>
      </trkpt>
      <trkpt lat="48.53093" lon="1.98717">
        <ele>107</ele>
        <time>2009-10-25T10:31:16Z</time>
      </trkpt>
      <trkpt lat="48.53047" lon="1.98758">
        <ele>107</ele>
        <time>2009-10-25T10:31:23Z</time>
      </trkpt>
      <trkpt lat="48.53012" lon="1.98773">
        <ele>107</ele>
        <time>2009-10-25T10:31:29Z</time>
      </trkpt>
      <trkpt lat="48.52984" lon="1.98783">
        <ele>105</ele>
        <time>2009-10-25T10:31:34Z</time>
      </trkpt>
      <trkpt lat="48.52972" lon="1.98839">
        <ele>107</ele>
        <time>2009-10-25T10:31:44Z</time>
      </trkpt>
      <trkpt lat="48.52971" lon="1.98853">
        <ele>107</ele>
        <time>2009-10-25T10:31:46Z</time>
      </trkpt>
      <trkpt lat="48.5296" lon="1.98911">
        <ele>107</ele>
        <time>2009-10-25T10:31:53Z</time>
      </trkpt>
      <trkpt lat="48.52965" lon="1.98942">
        <ele>107</ele>
        <time>2009-10-25T10:31:57Z</time>
      </trkpt>
      <trkpt lat="48.52965" lon="1.98987">
        <ele>108</ele>
        <time>2009-10-25T10:32:00Z</time>
      </trkpt>
      <trkpt lat="48.52979" lon="1.99055">
        <ele>107</ele>
        <time>2009-10-25T10:32:11Z</time>
      </trkpt>
      <trkpt lat="48.5298" lon="1.99061">
        <ele>107</ele>
        <time>2009-10-25T10:32:12Z</time>
      </trkpt>
      <trkpt lat="48.52974" lon="1.9909">
        <ele>106</ele>
        <time>2009-10-25T10:32:15Z</time>
      </trkpt>
      <trkpt lat="48.52967" lon="1.99173">
        <ele>105</ele>
        <time>2009-10-25T10:32:25Z</time>
      </trkpt>
      <trkpt lat="48.5297" lon="1.99186">
        <ele>104</ele>
        <time>2009-10-25T10:32:27Z</time>
      </trkpt>
      <trkpt lat="48.5297" lon="1.9927">
        <ele>102</ele>
        <time>2009-10-25T10:32:34Z</time>
      </trkpt>
      <trkpt lat="48.52966" lon="1.99284">
        <ele>101</ele>
        <time>2009-10-25T10:32:40Z</time>
      </trkpt>
      <trkpt lat="48.52958" lon="1.99279">
        <ele>102</ele>
        <time>2009-10-25T10:32:43Z</time>
      </trkpt>
      <trkpt lat="48.52912" lon="1.99266">
        <ele>102</ele>
        <time>2009-10-25T10:32:56Z</time>
      </trkpt>
      <trkpt lat="48.52889" lon="1.99269">
        <ele>103</ele>
        <time>2009-10-25T10:33:07Z</time>
      </trkpt>
      <trkpt lat="48.52871" lon="1.9927">
        <ele>103</ele>
        <time>2009-10-25T10:33:16Z</time>
      </trkpt>
      <trkpt lat="48.52837" lon="1.99208">
        <ele>105</ele>
        <time>2009-10-25T10:33:29Z</time>
      </trkpt>
      <trkpt lat="48.5282" lon="1.99174">
        <ele>107</ele>
        <time>2009-10-25T10:33:35Z</time>
      </trkpt>
      <trkpt lat="48.52817" lon="1.99161">
        <ele>108</ele>
        <time>2009-10-25T10:33:37Z</time>
      </trkpt>
      <trkpt lat="48.5281" lon="1.99101">
        <ele>109</ele>
        <time>2009-10-25T10:33:45Z</time>
      </trkpt>
      <trkpt lat="48.52809" lon="1.99047">
        <ele>108</ele>
        <time>2009-10-25T10:33:52Z</time>
      </trkpt>
      <trkpt lat="48.52801" lon="1.98898">
        <ele>107</ele>
        <time>2009-10-25T10:34:11Z</time>
      </trkpt>
      <trkpt lat="48.52797" lon="1.98796">
        <ele>108</ele>
        <time>2009-10-25T10:34:23Z</time>
      </trkpt>
      <trkpt lat="48.52777" lon="1.98775">
        <ele>110</ele>
        <time>2009-10-25T10:34:30Z</time>
      </trkpt>
      <trkpt lat="48.52775" lon="1.9876">
        <ele>111</ele>
        <time>2009-10-25T10:34:34Z</time>
      </trkpt>
      <trkpt lat="48.5277" lon="1.98741">
        <ele>112</ele>
        <time>2009-10-25T10:34:44Z</time>
      </trkpt>
      <trkpt lat="48.5276" lon="1.98686">
        <ele>112</ele>
        <time>2009-10-25T10:34:58Z</time>
      </trkpt>
      <trkpt lat="48.52755" lon="1.98658">
        <ele>113</ele>
        <time>2009-10-25T10:35:04Z</time>
      </trkpt>
      <trkpt lat="48.52747" lon="1.98641">
        <ele>118</ele>
        <time>2009-10-25T10:35:09Z</time>
      </trkpt>
      <trkpt lat="48.52742" lon="1.98629">
        <ele>118</ele>
        <time>2009-10-25T10:35:13Z</time>
      </trkpt>
      <trkpt lat="48.52714" lon="1.9858">
        <ele>115</ele>
        <time>2009-10-25T10:35:26Z</time>
      </trkpt>
      <trkpt lat="48.52667" lon="1.98562">
        <ele>121</ele>
        <time>2009-10-25T10:35:36Z</time>
      </trkpt>
      <trkpt lat="48.52643" lon="1.98568">
        <ele>121</ele>
        <time>2009-10-25T10:35:43Z</time>
      </trkpt>
      <trkpt lat="48.52627" lon="1.98568">
        <ele>122</ele>
        <time>2009-10-25T10:35:50Z</time>
      </trkpt>
      <trkpt lat="48.52591" lon="1.98575">
        <ele>125</ele>
        <time>2009-10-25T10:36:06Z</time>
      </trkpt>
      <trkpt lat="48.52568" lon="1.98592">
        <ele>130</ele>
        <time>2009-10-25T10:36:20Z</time>
      </trkpt>
      <trkpt lat="48.52544" lon="1.98608">
        <ele>132</ele>
        <time>2009-10-25T10:36:33Z</time>
      </trkpt>
      <trkpt lat="48.52522" lon="1.98623">
        <ele>133</ele>
        <time>2009-10-25T10:36:46Z</time>
      </trkpt>
      <trkpt lat="48.52502" lon="1.98622">
        <ele>133</ele>
        <time>2009-10-25T10:36:58Z</time>
      </trkpt>
      <trkpt lat="48.52475" lon="1.98628">
        <ele>136</ele>
        <time>2009-10-25T10:37:10Z</time>
      </trkpt>
      <trkpt lat="48.52453" lon="1.98643">
        <ele>137</ele>
        <time>2009-10-25T10:37:21Z</time>
      </trkpt>
      <trkpt lat="48.52446" lon="1.98672">
        <ele>140</ele>
        <time>2009-10-25T10:37:31Z</time>
      </trkpt>
      <trkpt lat="48.52417" lon="1.98692">
        <ele>140</ele>
        <time>2009-10-25T10:37:42Z</time>
      </trkpt>
      <trkpt lat="48.52413" lon="1.98696">
        <ele>140</ele>
        <time>2009-10-25T10:37:43Z</time>
      </trkpt>
      <trkpt lat="48.52398" lon="1.9871">
        <ele>140</ele>
        <time>2009-10-25T10:37:48Z</time>
      </trkpt>
      <trkpt lat="48.52382" lon="1.98744">
        <ele>140</ele>
        <time>2009-10-25T10:37:55Z</time>
      </trkpt>
      <trkpt lat="48.52378" lon="1.98773">
        <ele>141</ele>
        <time>2009-10-25T10:38:01Z</time>
      </trkpt>
      <trkpt lat="48.52343" lon="1.98807">
        <ele>141</ele>
        <time>2009-10-25T10:38:13Z</time>
      </trkpt>
      <trkpt lat="48.52336" lon="1.9881">
        <ele>141</ele>
        <time>2009-10-25T10:38:15Z</time>
      </trkpt>
      <trkpt lat="48.5231" lon="1.98851">
        <ele>144</ele>
        <time>2009-10-25T10:38:24Z</time>
      </trkpt>
      <trkpt lat="48.52288" lon="1.98915">
        <ele>144</ele>
        <time>2009-10-25T10:38:35Z</time>
      </trkpt>
      <trkpt lat="48.52287" lon="1.98925">
        <ele>143</ele>
        <time>2009-10-25T10:38:37Z</time>
      </trkpt>
      <trkpt lat="48.52287" lon="1.9894">
        <ele>142</ele>
        <time>2009-10-25T10:38:39Z</time>
      </trkpt>
      <trkpt lat="48.52284" lon="1.98982">
        <ele>142</ele>
        <time>2009-10-25T10:38:43Z</time>
      </trkpt>
      <trkpt lat="48.52278" lon="1.99017">
        <ele>139</ele>
        <time>2009-10-25T10:38:46Z</time>
      </trkpt>
      <trkpt lat="48.52243" lon="1.99067">
        <ele>139</ele>
        <time>2009-10-25T10:38:53Z</time>
      </trkpt>
      <trkpt lat="48.52226" lon="1.9908">
        <ele>139</ele>
        <time>2009-10-25T10:38:58Z</time>
      </trkpt>
      <trkpt lat="48.52211" lon="1.9906">
        <ele>138</ele>
        <time>2009-10-25T10:39:05Z</time>
      </trkpt>
      <trkpt lat="48.52179" lon="1.99">
        <ele>139</ele>
        <time>2009-10-25T10:39:16Z</time>
      </trkpt>
      <trkpt lat="48.52164" lon="1.98967">
        <ele>141</ele>
        <time>2009-10-25T10:39:22Z</time>
      </trkpt>
      <trkpt lat="48.52146" lon="1.98942">
        <ele>142</ele>
        <time>2009-10-25T10:39:35Z</time>
      </trkpt>
      <trkpt lat="48.52125" lon="1.98926">
        <ele>142</ele>
        <time>2009-10-25T10:39:47Z</time>
      </trkpt>
      <trkpt lat="48.52108" lon="1.9889">
        <ele>145</ele>
        <time>2009-10-25T10:40:00Z</time>
      </trkpt>
      <trkpt lat="48.52102" lon="1.98881">
        <ele>146</ele>
        <time>2009-10-25T10:40:04Z</time>
      </trkpt>
      <trkpt lat="48.52071" lon="1.98836">
        <ele>148</ele>
        <time>2009-10-25T10:40:14Z</time>
      </trkpt>
      <trkpt lat="48.52069" lon="1.98825">
        <ele>150</ele>
        <time>2009-10-25T10:40:15Z</time>
      </trkpt>
      <trkpt lat="48.51997" lon="1.98756">
        <ele>150</ele>
        <time>2009-10-25T10:40:27Z</time>
      </trkpt>
      <trkpt lat="48.52021" lon="1.98684">
        <ele>156</ele>
        <time>2009-10-25T10:40:40Z</time>
      </trkpt>
      <trkpt lat="48.52024" lon="1.98637">
        <ele>157</ele>
        <time>2009-10-25T10:40:51Z</time>
      </trkpt>
      <trkpt lat="48.52023" lon="1.98633">
        <ele>158</ele>
        <time>2009-10-25T10:40:52Z</time>
      </trkpt>
      <trkpt lat="48.52013" lon="1.98636">
        <ele>157</ele>
        <time>2009-10-25T10:40:56Z</time>
      </trkpt>
      <trkpt lat="48.52005" lon="1.9865">
        <ele>157</ele>
        <time>2009-10-25T10:40:58Z</time>
      </trkpt>
      <trkpt lat="48.52" lon="1.98678">
        <ele>153</ele>
        <time>2009-10-25T10:41:01Z</time>
      </trkpt>
      <trkpt lat="48.51985" lon="1.98717">
        <ele>151</ele>
        <time>2009-10-25T10:41:05Z</time>
      </trkpt>
      <trkpt lat="48.51952" lon="1.98761">
        <ele>148</ele>
        <time>2009-10-25T10:41:09Z</time>
      </trkpt>
      <trkpt lat="48.51893" lon="1.98834">
        <ele>145</ele>
        <time>2009-10-25T10:41:17Z</time>
      </trkpt>
      <trkpt lat="48.51862" lon="1.98859">
        <ele>142</ele>
        <time>2009-10-25T10:41:20Z</time>
      </trkpt>
      <trkpt lat="48.51781" lon="1.98888">
        <ele>132</ele>
        <time>2009-10-25T10:41:28Z</time>
      </trkpt>
      <trkpt lat="48.51766" lon="1.98914">
        <ele>130</ele>
        <time>2009-10-25T10:41:33Z</time>
      </trkpt>
      <trkpt lat="48.51741" lon="1.98958">
        <ele>126</ele>
        <time>2009-10-25T10:41:44Z</time>
      </trkpt>
      <trkpt lat="48.51722" lon="1.99008">
        <ele>125</ele>
        <time>2009-10-25T10:41:54Z</time>
      </trkpt>
      <trkpt lat="48.51729" lon="1.99057">
        <ele>124</ele>
        <time>2009-10-25T10:41:59Z</time>
      </trkpt>
      <trkpt lat="48.51734" lon="1.99108">
        <ele>122</ele>
        <time>2009-10-25T10:42:06Z</time>
      </trkpt>
      <trkpt lat="48.51736" lon="1.99132">
        <ele>121</ele>
        <time>2009-10-25T10:42:09Z</time>
      </trkpt>
      <trkpt lat="48.51739" lon="1.99161">
        <ele>122</ele>
        <time>2009-10-25T10:42:12Z</time>
      </trkpt>
      <trkpt lat="48.51722" lon="1.99209">
        <ele>117</ele>
        <time>2009-10-25T10:42:17Z</time>
      </trkpt>
      <trkpt lat="48.51712" lon="1.99227">
        <ele>116</ele>
        <time>2009-10-25T10:42:19Z</time>
      </trkpt>
      <trkpt lat="48.51687" lon="1.99215">
        <ele>115</ele>
        <time>2009-10-25T10:42:27Z</time>
      </trkpt>
      <trkpt lat="48.51683" lon="1.99209">
        <ele>115</ele>
        <time>2009-10-25T10:42:28Z</time>
      </trkpt>
      <trkpt lat="48.51662" lon="1.99176">
        <ele>114</ele>
        <time>2009-10-25T10:42:33Z</time>
      </trkpt>
      <trkpt lat="48.5165" lon="1.99158">
        <ele>115</ele>
        <time>2009-10-25T10:42:36Z</time>
      </trkpt>
      <trkpt lat="48.51646" lon="1.99147">
        <ele>116</ele>
        <time>2009-10-25T10:42:38Z</time>
      </trkpt>
      <trkpt lat="48.51621" lon="1.99145">
        <ele>117</ele>
        <time>2009-10-25T10:42:44Z</time>
      </trkpt>
      <trkpt lat="48.51619" lon="1.99151">
        <ele>117</ele>
        <time>2009-10-25T10:42:45Z</time>
      </trkpt>
      <trkpt lat="48.51596" lon="1.99183">
        <ele>117</ele>
        <time>2009-10-25T10:42:54Z</time>
      </trkpt>
      <trkpt lat="48.51557" lon="1.99196">
        <ele>123</ele>
        <time>2009-10-25T10:43:04Z</time>
      </trkpt>
      <trkpt lat="48.51529" lon="1.99185">
        <ele>124</ele>
        <time>2009-10-25T10:43:13Z</time>
      </trkpt>
      <trkpt lat="48.51513" lon="1.9918">
        <ele>125</ele>
        <time>2009-10-25T10:43:19Z</time>
      </trkpt>
      <trkpt lat="48.51503" lon="1.99207">
        <ele>125</ele>
        <time>2009-10-25T10:43:25Z</time>
      </trkpt>
      <trkpt lat="48.51498" lon="1.99226">
        <ele>130</ele>
        <time>2009-10-25T10:43:29Z</time>
      </trkpt>
      <trkpt lat="48.51495" lon="1.99295">
        <ele>129</ele>
        <time>2009-10-25T10:43:39Z</time>
      </trkpt>
      <trkpt lat="48.51488" lon="1.99348">
        <ele>128</ele>
        <time>2009-10-25T10:43:46Z</time>
      </trkpt>
      <trkpt lat="48.51484" lon="1.99387">
        <ele>128</ele>
        <time>2009-10-25T10:43:53Z</time>
      </trkpt>
      <trkpt lat="48.51489" lon="1.99438">
        <ele>127</ele>
        <time>2009-10-25T10:43:59Z</time>
      </trkpt>
      <trkpt lat="48.51492" lon="1.99464">
        <ele>128</ele>
        <time>2009-10-25T10:44:03Z</time>
      </trkpt>
      <trkpt lat="48.51483" lon="1.99503">
        <ele>128</ele>
        <time>2009-10-25T10:44:09Z</time>
      </trkpt>
      <trkpt lat="48.51477" lon="1.99539">
        <ele>128</ele>
        <time>2009-10-25T10:44:13Z</time>
      </trkpt>
      <trkpt lat="48.51474" lon="1.99566">
        <ele>128</ele>
        <time>2009-10-25T10:44:15Z</time>
      </trkpt>
      <trkpt lat="48.51465" lon="1.9962">
        <ele>127</ele>
        <time>2009-10-25T10:44:21Z</time>
      </trkpt>
      <trkpt lat="48.51443" lon="1.99689">
        <ele>126</ele>
        <time>2009-10-25T10:44:29Z</time>
      </trkpt>
      <trkpt lat="48.51446" lon="1.99712">
        <ele>125</ele>
        <time>2009-10-25T10:44:34Z</time>
      </trkpt>
      <trkpt lat="48.51453" lon="1.99725">
        <ele>125</ele>
        <time>2009-10-25T10:44:36Z</time>
      </trkpt>
      <trkpt lat="48.51464" lon="1.99773">
        <ele>124</ele>
        <time>2009-10-25T10:44:41Z</time>
      </trkpt>
      <trkpt lat="48.51495" lon="1.99829">
        <ele>122</ele>
        <time>2009-10-25T10:44:47Z</time>
      </trkpt>
      <trkpt lat="48.51524" lon="1.99872">
        <ele>117</ele>
        <time>2009-10-25T10:44:51Z</time>
      </trkpt>
      <trkpt lat="48.51646" lon="1.99967">
        <ele>106</ele>
        <time>2009-10-25T10:45:03Z</time>
      </trkpt>
      <trkpt lat="48.51808" lon="2.00091">
        <ele>102</ele>
        <time>2009-10-25T10:45:20Z</time>
      </trkpt>
      <trkpt lat="48.51878" lon="2.00175">
        <ele>105</ele>
        <time>2009-10-25T10:45:31Z</time>
      </trkpt>
      <trkpt lat="48.51933" lon="2.00244">
        <ele>105</ele>
        <time>2009-10-25T10:45:44Z</time>
      </trkpt>
      <trkpt lat="48.51987" lon="2.00318">
        <ele>109</ele>
        <time>2009-10-25T10:46:00Z</time>
      </trkpt>
      <trkpt lat="48.52012" lon="2.00353">
        <ele>113</ele>
        <time>2009-10-25T10:46:12Z</time>
      </trkpt>
      <trkpt lat="48.52049" lon="2.00404">
        <ele>115</ele>
        <time>2009-10-25T10:46:28Z</time>
      </trkpt>
      <trkpt lat="48.52099" lon="2.00465">
        <ele>120</ele>
        <time>2009-10-25T10:46:43Z</time>
      </trkpt>
      <trkpt lat="48.52123" lon="2.00508">
        <ele>124</ele>
        <time>2009-10-25T10:46:55Z</time>
      </trkpt>
      <trkpt lat="48.52113" lon="2.00524">
        <ele>124</ele>
        <time>2009-10-25T10:47:01Z</time>
      </trkpt>
      <trkpt lat="48.52097" lon="2.00583">
        <ele>127</ele>
        <time>2009-10-25T10:47:13Z</time>
      </trkpt>
      <trkpt lat="48.52095" lon="2.00588">
        <ele>129</ele>
        <time>2009-10-25T10:47:14Z</time>
      </trkpt>
      <trkpt lat="48.52084" lon="2.00588">
        <ele>129</ele>
        <time>2009-10-25T10:47:18Z</time>
      </trkpt>
      <trkpt lat="48.52072" lon="2.00578">
        <ele>128</ele>
        <time>2009-10-25T10:47:22Z</time>
      </trkpt>
      <trkpt lat="48.52045" lon="2.00556">
        <ele>127</ele>
        <time>2009-10-25T10:47:29Z</time>
      </trkpt>
      <trkpt lat="48.5202" lon="2.00539">
        <ele>126</ele>
        <time>2009-10-25T10:47:33Z</time>
      </trkpt>
      <trkpt lat="48.51934" lon="2.00513">
        <ele>122</ele>
        <time>2009-10-25T10:47:43Z</time>
      </trkpt>
      <trkpt lat="48.51905" lon="2.00518">
        <ele>119</ele>
        <time>2009-10-25T10:47:47Z</time>
      </trkpt>
      <trkpt lat="48.51807" lon="2.00573">
        <ele>115</ele>
        <time>2009-10-25T10:48:00Z</time>
      </trkpt>
      <trkpt lat="48.51796" lon="2.00583">
        <ele>115</ele>
        <time>2009-10-25T10:48:02Z</time>
      </trkpt>
      <trkpt lat="48.51763" lon="2.00578">
        <ele>114</ele>
        <time>2009-10-25T10:48:07Z</time>
      </trkpt>
      <trkpt lat="48.51742" lon="2.00574">
        <ele>112</ele>
        <time>2009-10-25T10:48:10Z</time>
      </trkpt>
      <trkpt lat="48.51713" lon="2.00561">
        <ele>110</ele>
        <time>2009-10-25T10:48:14Z</time>
      </trkpt>
      <trkpt lat="48.51675" lon="2.00545">
        <ele>109</ele>
        <time>2009-10-25T10:48:17Z</time>
      </trkpt>
      <trkpt lat="48.51637" lon="2.00571">
        <ele>107</ele>
        <time>2009-10-25T10:48:25Z</time>
      </trkpt>
      <trkpt lat="48.51618" lon="2.00615">
        <ele>110</ele>
        <time>2009-10-25T10:48:31Z</time>
      </trkpt>
      <trkpt lat="48.5158" lon="2.00663">
        <ele>109</ele>
        <time>2009-10-25T10:48:42Z</time>
      </trkpt>
      <trkpt lat="48.51556" lon="2.00707">
        <ele>108</ele>
        <time>2009-10-25T10:48:50Z</time>
      </trkpt>
      <trkpt lat="48.51551" lon="2.00718">
        <ele>108</ele>
        <time>2009-10-25T10:48:52Z</time>
      </trkpt>
      <trkpt lat="48.51524" lon="2.00779">
        <ele>108</ele>
        <time>2009-10-25T10:49:01Z</time>
      </trkpt>
      <trkpt lat="48.51501" lon="2.00847">
        <ele>108</ele>
        <time>2009-10-25T10:49:10Z</time>
      </trkpt>
      <trkpt lat="48.51487" lon="2.00878">
        <ele>110</ele>
        <time>2009-10-25T10:49:16Z</time>
      </trkpt>
      <trkpt lat="48.51475" lon="2.00924">
        <ele>109</ele>
        <time>2009-10-25T10:49:25Z</time>
      </trkpt>
      <trkpt lat="48.51473" lon="2.00936">
        <ele>109</ele>
        <time>2009-10-25T10:49:27Z</time>
      </trkpt>
      <trkpt lat="48.5147" lon="2.00943">
        <ele>109</ele>
        <time>2009-10-25T10:49:29Z</time>
      </trkpt>
      <trkpt lat="48.51443" lon="2.00969">
        <ele>110</ele>
        <time>2009-10-25T10:49:38Z</time>
      </trkpt>
      <trkpt lat="48.51405" lon="2.00995">
        <ele>114</ele>
        <time>2009-10-25T10:49:50Z</time>
      </trkpt>
      <trkpt lat="48.51397" lon="2.01008">
        <ele>115</ele>
        <time>2009-10-25T10:49:55Z</time>
      </trkpt>
      <trkpt lat="48.51388" lon="2.01024">
        <ele>115</ele>
        <time>2009-10-25T10:49:59Z</time>
      </trkpt>
      <trkpt lat="48.51365" lon="2.01073">
        <ele>116</ele>
        <time>2009-10-25T10:50:10Z</time>
      </trkpt>
      <trkpt lat="48.51356" lon="2.01098">
        <ele>118</ele>
        <time>2009-10-25T10:50:19Z</time>
      </trkpt>
      <trkpt lat="48.51333" lon="2.01131">
        <ele>120</ele>
        <time>2009-10-25T10:50:31Z</time>
      </trkpt>
      <trkpt lat="48.51315" lon="2.01162">
        <ele>120</ele>
        <time>2009-10-25T10:50:41Z</time>
      </trkpt>
      <trkpt lat="48.51306" lon="2.01201">
        <ele>123</ele>
        <time>2009-10-25T10:50:51Z</time>
      </trkpt>
      <trkpt lat="48.5129" lon="2.01228">
        <ele>124</ele>
        <time>2009-10-25T10:51:02Z</time>
      </trkpt>
      <trkpt lat="48.51277" lon="2.01264">
        <ele>127</ele>
        <time>2009-10-25T10:51:13Z</time>
      </trkpt>
      <trkpt lat="48.5127" lon="2.0129">
        <ele>128</ele>
        <time>2009-10-25T10:51:21Z</time>
      </trkpt>
      <trkpt lat="48.5126" lon="2.01328">
        <ele>129</ele>
        <time>2009-10-25T10:51:31Z</time>
      </trkpt>
      <trkpt lat="48.51239" lon="2.01377">
        <ele>132</ele>
        <time>2009-10-25T10:51:41Z</time>
      </trkpt>
      <trkpt lat="48.51222" lon="2.01421">
        <ele>131</ele>
        <time>2009-10-25T10:51:50Z</time>
      </trkpt>
      <trkpt lat="48.5119" lon="2.0148">
        <ele>134</ele>
        <time>2009-10-25T10:52:01Z</time>
      </trkpt>
      <trkpt lat="48.51181" lon="2.01511">
        <ele>135</ele>
        <time>2009-10-25T10:52:09Z</time>
      </trkpt>
      <trkpt lat="48.51161" lon="2.01549">
        <ele>137</ele>
        <time>2009-10-25T10:52:22Z</time>
      </trkpt>
      <trkpt lat="48.51139" lon="2.01593">
        <ele>134</ele>
        <time>2009-10-25T10:52:31Z</time>
      </trkpt>
      <trkpt lat="48.51103" lon="2.01624">
        <ele>133</ele>
        <time>2009-10-25T10:52:39Z</time>
      </trkpt>
      <trkpt lat="48.51069" lon="2.01627">
        <ele>133</ele>
        <time>2009-10-25T10:52:49Z</time>
      </trkpt>
      <trkpt lat="48.51021" lon="2.01595">
        <ele>134</ele>
        <time>2009-10-25T10:53:05Z</time>
      </trkpt>
      <trkpt lat="48.51005" lon="2.01582">
        <ele>136</ele>
        <time>2009-10-25T10:53:10Z</time>
      </trkpt>
      <trkpt lat="48.51002" lon="2.01574">
        <ele>136</ele>
        <time>2009-10-25T10:53:13Z</time>
      </trkpt>
      <trkpt lat="48.50985" lon="2.01537">
        <ele>138</ele>
        <time>2009-10-25T10:53:27Z</time>
      </trkpt>
      <trkpt lat="48.50976" lon="2.01511">
        <ele>139</ele>
        <time>2009-10-25T10:53:39Z</time>
      </trkpt>
      <trkpt lat="48.50961" lon="2.01455">
        <ele>143</ele>
        <time>2009-10-25T10:54:00Z</time>
      </trkpt>
      <trkpt lat="48.50946" lon="2.01428">
        <ele>143</ele>
        <time>2009-10-25T10:54:12Z</time>
      </trkpt>
      <trkpt lat="48.50943" lon="2.01408">
        <ele>147</ele>
        <time>2009-10-25T10:54:19Z</time>
      </trkpt>
      <trkpt lat="48.50935" lon="2.01379">
        <ele>148</ele>
        <time>2009-10-25T10:54:31Z</time>
      </trkpt>
      <trkpt lat="48.50926" lon="2.01347">
        <ele>150</ele>
        <time>2009-10-25T10:54:46Z</time>
      </trkpt>
      <trkpt lat="48.50914" lon="2.01321">
        <ele>153</ele>
        <time>2009-10-25T10:54:57Z</time>
      </trkpt>
      <trkpt lat="48.5089" lon="2.0129">
        <ele>155</ele>
        <time>2009-10-25T10:55:10Z</time>
      </trkpt>
      <trkpt lat="48.50871" lon="2.01259">
        <ele>155</ele>
        <time>2009-10-25T10:55:21Z</time>
      </trkpt>
      <trkpt lat="48.50869" lon="2.01246">
        <ele>157</ele>
        <time>2009-10-25T10:55:24Z</time>
      </trkpt>
      <trkpt lat="48.50853" lon="2.01214">
        <ele>158</ele>
        <time>2009-10-25T10:55:33Z</time>
      </trkpt>
      <trkpt lat="48.50847" lon="2.01206">
        <ele>158</ele>
        <time>2009-10-25T10:55:35Z</time>
      </trkpt>
      <trkpt lat="48.5083" lon="2.01159">
        <ele>160</ele>
        <time>2009-10-25T10:55:48Z</time>
      </trkpt>
      <trkpt lat="48.50816" lon="2.0111">
        <ele>161</ele>
        <time>2009-10-25T10:55:57Z</time>
      </trkpt>
      <trkpt lat="48.50813" lon="2.01092">
        <ele>161</ele>
        <time>2009-10-25T10:56:01Z</time>
      </trkpt>
      <trkpt lat="48.50807" lon="2.01066">
        <ele>161</ele>
        <time>2009-10-25T10:56:08Z</time>
      </trkpt>
      <trkpt lat="48.50803" lon="2.01033">
        <ele>161</ele>
        <time>2009-10-25T10:56:14Z</time>
      </trkpt>
      <trkpt lat="48.50802" lon="2.01019">
        <ele>161</ele>
        <time>2009-10-25T10:56:17Z</time>
      </trkpt>
      <trkpt lat="48.508" lon="2.01009">
        <ele>161</ele>
        <time>2009-10-25T10:56:19Z</time>
      </trkpt>
      <trkpt lat="48.50782" lon="2.01009">
        <ele>161</ele>
        <time>2009-10-25T10:56:27Z</time>
      </trkpt>
      <trkpt lat="48.50751" lon="2.01037">
        <ele>161</ele>
        <time>2009-10-25T10:56:38Z</time>
      </trkpt>
      <trkpt lat="48.50718" lon="2.01077">
        <ele>159</ele>
        <time>2009-10-25T10:56:47Z</time>
      </trkpt>
      <trkpt lat="48.50702" lon="2.01102">
        <ele>158</ele>
        <time>2009-10-25T10:56:50Z</time>
      </trkpt>
      <trkpt lat="48.5066" lon="2.01179">
        <ele>156</ele>
        <time>2009-10-25T10:57:01Z</time>
      </trkpt>
      <trkpt lat="48.50646" lon="2.01204">
        <ele>155</ele>
        <time>2009-10-25T10:57:04Z</time>
      </trkpt>
      <trkpt lat="48.50611" lon="2.01273">
        <ele>155</ele>
        <time>2009-10-25T10:57:11Z</time>
      </trkpt>
      <trkpt lat="48.50593" lon="2.01295">
        <ele>155</ele>
        <time>2009-10-25T10:57:14Z</time>
      </trkpt>
      <trkpt lat="48.50595" lon="2.01308">
        <ele>155</ele>
        <time>2009-10-25T10:57:18Z</time>
      </trkpt>
      <trkpt lat="48.50629" lon="2.01327">
        <ele>156</ele>
        <time>2009-10-25T10:57:30Z</time>
      </trkpt>
      <trkpt lat="48.50698" lon="2.01351">
        <ele>153</ele>
        <time>2009-10-25T10:57:42Z</time>
      </trkpt>
      <trkpt lat="48.50724" lon="2.0135">
        <ele>153</ele>
        <time>2009-10-25T10:57:48Z</time>
      </trkpt>
      <trkpt lat="48.5077" lon="2.01366">
        <ele>150</ele>
        <time>2009-10-25T10:57:57Z</time>
      </trkpt>
      <trkpt lat="48.50802" lon="2.01396">
        <ele>148</ele>
        <time>2009-10-25T10:58:03Z</time>
      </trkpt>
      <trkpt lat="48.50808" lon="2.01433">
        <ele>143</ele>
        <time>2009-10-25T10:58:07Z</time>
      </trkpt>
      <trkpt lat="48.50804" lon="2.01468">
        <ele>141</ele>
        <time>2009-10-25T10:58:11Z</time>
      </trkpt>
      <trkpt lat="48.50803" lon="2.01487">
        <ele>141</ele>
        <time>2009-10-25T10:58:13Z</time>
      </trkpt>
      <trkpt lat="48.508" lon="2.01564">
        <ele>135</ele>
        <time>2009-10-25T10:58:20Z</time>
      </trkpt>
      <trkpt lat="48.50803" lon="2.01619">
        <ele>128</ele>
        <time>2009-10-25T10:58:24Z</time>
      </trkpt>
      <trkpt lat="48.50797" lon="2.01672">
        <ele>124</ele>
        <time>2009-10-25T10:58:29Z</time>
      </trkpt>
      <trkpt lat="48.50807" lon="2.01685">
        <ele>124</ele>
        <time>2009-10-25T10:58:33Z</time>
      </trkpt>
      <trkpt lat="48.50838" lon="2.01714">
        <ele>125</ele>
        <time>2009-10-25T10:58:43Z</time>
      </trkpt>
      <trkpt lat="48.50861" lon="2.0175">
        <ele>125</ele>
        <time>2009-10-25T10:58:52Z</time>
      </trkpt>
      <trkpt lat="48.50861" lon="2.01752">
        <ele>125</ele>
        <time>2009-10-25T10:58:53Z</time>
      </trkpt>
      <trkpt lat="48.5087" lon="2.01782">
        <ele>125</ele>
        <time>2009-10-25T10:58:57Z</time>
      </trkpt>
      <trkpt lat="48.5089" lon="2.01815">
        <ele>124</ele>
        <time>2009-10-25T10:59:07Z</time>
      </trkpt>
      <trkpt lat="48.50877" lon="2.01833">
        <ele>125</ele>
        <time>2009-10-25T10:59:31Z</time>
      </trkpt>
      <trkpt lat="48.50848" lon="2.01858">
        <ele>129</ele>
        <time>2009-10-25T10:59:54Z</time>
      </trkpt>
      <trkpt lat="48.50819" lon="2.01876">
        <ele>138</ele>
        <time>2009-10-25T11:00:13Z</time>
      </trkpt>
      <trkpt lat="48.50809" lon="2.01883">
        <ele>138</ele>
        <time>2009-10-25T11:00:22Z</time>
      </trkpt>
      <trkpt lat="48.50783" lon="2.01888">
        <ele>140</ele>
        <time>2009-10-25T11:00:42Z</time>
      </trkpt>
      <trkpt lat="48.50759" lon="2.01893">
        <ele>143</ele>
        <time>2009-10-25T11:01:04Z</time>
      </trkpt>
      <trkpt lat="48.50742" lon="2.01899">
        <ele>148</ele>
        <time>2009-10-25T11:01:20Z</time>
      </trkpt>
      <trkpt lat="48.50719" lon="2.01913">
        <ele>148</ele>
        <time>2009-10-25T11:01:35Z</time>
      </trkpt>
      <trkpt lat="48.50694" lon="2.01931">
        <ele>151</ele>
        <time>2009-10-25T11:01:45Z</time>
      </trkpt>
      <trkpt lat="48.50681" lon="2.0194">
        <ele>151</ele>
        <time>2009-10-25T11:01:52Z</time>
      </trkpt>
      <trkpt lat="48.50637" lon="2.02003">
        <ele>150</ele>
        <time>2009-10-25T11:02:09Z</time>
      </trkpt>
      <trkpt lat="48.50623" lon="2.02038">
        <ele>150</ele>
        <time>2009-10-25T11:02:17Z</time>
      </trkpt>
      <trkpt lat="48.506" lon="2.02025">
        <ele>150</ele>
        <time>2009-10-25T11:02:24Z</time>
      </trkpt>
      <trkpt lat="48.5053" lon="2.01983">
        <ele>150</ele>
        <time>2009-10-25T11:02:40Z</time>
      </trkpt>
      <trkpt lat="48.50513" lon="2.01975">
        <ele>150</ele>
        <time>2009-10-25T11:02:44Z</time>
      </trkpt>
      <trkpt lat="48.50494" lon="2.01974">
        <ele>151</ele>
        <time>2009-10-25T11:02:48Z</time>
      </trkpt>
      <trkpt lat="48.50486" lon="2.01975">
        <ele>151</ele>
        <time>2009-10-25T11:02:50Z</time>
      </trkpt>
      <trkpt lat="48.50447" lon="2.01964">
        <ele>151</ele>
        <time>2009-10-25T11:02:58Z</time>
      </trkpt>
      <trkpt lat="48.50442" lon="2.01953">
        <ele>150</ele>
        <time>2009-10-25T11:03:00Z</time>
      </trkpt>
      <trkpt lat="48.50412" lon="2.01883">
        <ele>151</ele>
        <time>2009-10-25T11:03:10Z</time>
      </trkpt>
      <trkpt lat="48.50368" lon="2.0179">
        <ele>151</ele>
        <time>2009-10-25T11:03:23Z</time>
      </trkpt>
      <trkpt lat="48.5035" lon="2.01785">
        <ele>151</ele>
        <time>2009-10-25T11:03:28Z</time>
      </trkpt>
      <trkpt lat="48.50298" lon="2.01856">
        <ele>151</ele>
        <time>2009-10-25T11:03:42Z</time>
      </trkpt>
      <trkpt lat="48.50282" lon="2.01871">
        <ele>151</ele>
        <time>2009-10-25T11:03:47Z</time>
      </trkpt>
      <trkpt lat="48.50269" lon="2.01866">
        <ele>151</ele>
        <time>2009-10-25T11:03:52Z</time>
      </trkpt>
      <trkpt lat="48.50231" lon="2.01904">
        <ele>151</ele>
        <time>2009-10-25T11:04:02Z</time>
      </trkpt>
      <trkpt lat="48.50199" lon="2.01939">
        <ele>152</ele>
        <time>2009-10-25T11:04:10Z</time>
      </trkpt>
      <trkpt lat="48.50177" lon="2.01959">
        <ele>152</ele>
        <time>2009-10-25T11:04:15Z</time>
      </trkpt>
      <trkpt lat="48.50155" lon="2.01956">
        <ele>152</ele>
        <time>2009-10-25T11:04:23Z</time>
      </trkpt>
      <trkpt lat="48.50153" lon="2.01952">
        <ele>152</ele>
        <time>2009-10-25T11:04:27Z</time>
      </trkpt>
      <trkpt lat="48.5016" lon="2.01927">
        <ele>152</ele>
        <time>2009-10-25T11:04:39Z</time>
      </trkpt>
      <trkpt lat="48.50182" lon="2.01936">
        <ele>152</ele>
        <time>2009-10-25T11:07:53Z</time>
      </trkpt>
      <trkpt lat="48.50181" lon="2.01944">
        <ele>152</ele>
        <time>2009-10-25T11:08:38Z</time>
      </trkpt>
      <trkpt lat="48.50177" lon="2.01946">
        <ele>152</ele>
        <time>2009-10-25T11:10:36Z</time>
      </trkpt>
      <trkpt lat="48.50176" lon="2.01938">
        <ele>152</ele>
        <time>2009-10-25T11:10:46Z</time>
      </trkpt>
      <trkpt lat="48.50166" lon="2.01925">
        <ele>152</ele>
        <time>2009-10-25T11:10:56Z</time>
      </trkpt>
      <trkpt lat="48.50157" lon="2.01924">
        <ele>152</ele>
        <time>2009-10-25T11:15:25Z</time>
      </trkpt>
    </trkseg>
  </trk>
</gpx>